Provisional Data: Little Chiques Creek near Mount Joy, PA


Please select a monitoring station.
Please select start date.
Please select start date.

Toggle Unit: C/F Toggle Unit: C/F
Sample Time Temperature (C) Temperature (F) Specific Conductivity (mS/cm) pH   Turbidity (NTU+) DO (mg/L)
5/4/2021 12:00:00 AM 16.15 61.07 0.384 7.71 6.4 7.99
5/4/2021 12:15:00 AM 16.12 61.016 0.386 7.71 6.05 7.97
5/4/2021 12:30:00 AM 16.09 60.962 0.386 7.71 6.22 7.97
5/4/2021 12:45:00 AM 16.06 60.908 0.388 7.71 7.32 7.97
5/4/2021 1:00:00 AM 16.02 60.836 0.392 7.7 7.83 7.98
5/4/2021 1:15:00 AM 15.99 60.782 0.405 7.71 8.9 7.97
5/4/2021 1:30:00 AM 15.97 60.746 0.389 7.7 8.86 7.96
5/4/2021 1:45:00 AM 15.94 60.692 0.379 7.7 8.68 7.96
5/4/2021 2:00:00 AM 15.92 60.656 0.38 7.7 9.46 7.96
5/4/2021 2:15:00 AM 15.9 60.62 0.383 7.7 8.56 7.97
5/4/2021 2:30:00 AM 15.89 60.602 0.395 7.7 11.27 7.99
5/4/2021 2:45:00 AM 15.87 60.566 0.393 7.71 12.21 8.01
5/4/2021 3:00:00 AM 15.85 60.53 0.437 7.7 9.75 8.03
5/4/2021 3:15:00 AM 15.83 60.494 0.359 7.71 26.53 8.06
5/4/2021 3:30:00 AM 15.81 60.458 0.367 7.71 11.43 8.08
5/4/2021 3:45:00 AM 15.79 60.422 0.36 7.71 14.75 8.11
5/4/2021 4:00:00 AM 15.76 60.368 0.359 7.71 19.26 8.11
5/4/2021 4:15:00 AM 15.74 60.332 0.357 7.7 24.68 8.12
5/4/2021 4:30:00 AM 15.72 60.296 0.354 7.71 50 8.14
5/4/2021 4:45:00 AM 15.7 60.26 0.351 7.71 30.1 8.17
5/4/2021 5:00:00 AM 15.67 60.206 0.348 7.71 32.11 8.19
5/4/2021 5:15:00 AM 15.65 60.17 0.346 7.71 38.08 8.21
5/4/2021 5:30:00 AM 15.63 60.134 0.344 7.71 31.28 8.23
5/4/2021 5:45:00 AM 15.61 60.098 0.342 7.7 26.92 8.25
5/4/2021 6:00:00 AM 15.59 60.062 0.34 7.7 26.35 8.27
5/4/2021 6:15:00 AM 15.57 60.026 0.339 7.7 46.48 8.28
5/4/2021 6:30:00 AM 15.56 60.008 0.338 7.7 22.13 8.29
5/4/2021 6:45:00 AM 15.55 59.99 0.338 7.7 23.41 8.3
5/4/2021 7:00:00 AM 15.53 59.954 0.338 7.71 18.74 8.33
5/4/2021 7:15:00 AM 15.52 59.936 0.338 7.71 20.77 8.37
5/4/2021 7:30:00 AM 15.52 59.936 0.338 7.72 20.91 8.41
5/4/2021 7:45:00 AM 15.52 59.936 0.337 7.72 20.37 8.47
5/4/2021 8:00:00 AM 15.53 59.954 0.335 7.72 24.38 8.53
5/4/2021 8:15:00 AM 15.54 59.972 0.333 7.73 22.95 8.57
5/4/2021 8:30:00 AM 15.54 59.972 0.33 7.73 21.43 8.6
5/4/2021 8:45:00 AM 15.55 59.99 0.329 7.73 27.34 8.65
5/4/2021 9:00:00 AM 15.58 60.044 0.328 7.74 24.91 8.71
5/4/2021 9:15:00 AM 15.61 60.098 0.328 7.75 26.99 8.77
5/4/2021 9:30:00 AM 15.65 60.17 0.327 7.76 26.17 8.85
5/4/2021 9:45:00 AM 15.71 60.278 0.327 7.77 28.29 8.92
5/4/2021 10:00:00 AM 15.77 60.386 0.327 7.78 23.83 8.99
5/4/2021 10:15:00 AM 15.85 60.53 0.326 7.79 32.14 9.06
5/4/2021 10:30:00 AM 15.97 60.746 0.325 7.8 25.69 9.13
5/4/2021 10:45:00 AM 16.12 61.016 0.324 7.8 23.81 9.21
5/4/2021 11:00:00 AM 16.26 61.268 0.323 7.81 22.75 9.3
5/4/2021 11:15:00 AM 16.43 61.574 0.322 7.82 19.6 9.38
5/4/2021 11:30:00 AM 16.6 61.88 0.321 7.83 18.92 9.47
5/4/2021 11:45:00 AM 16.76 62.168 0.319 7.85 18 9.56
5/4/2021 12:00:00 PM 16.9 62.42 0.319 7.85 17.53 9.63
5/4/2021 12:15:00 PM 17.1 62.78 0.319 7.87 25.26 9.71
5/4/2021 12:30:00 PM 17.28 63.104 0.318 7.87 16.09 9.76
5/4/2021 12:45:00 PM 17.49 63.482 0.318 7.89 15.41 9.82
5/4/2021 1:00:00 PM 17.67 63.806 0.318 7.89 15.22 9.86
5/4/2021 1:15:00 PM 17.81 64.058 0.318 7.9 13.71 9.9
5/4/2021 1:30:00 PM 18.03 64.454 0.318 7.92 12.62 9.98
5/4/2021 1:45:00 PM 18.19 64.742 0.318 7.93 12.3 10.01
5/4/2021 2:00:00 PM 18.35 65.03 0.319 7.94 13.24 10.05
5/4/2021 2:15:00 PM 18.37 65.066 0.32 7.94 12.77 9.97
5/4/2021 2:30:00 PM 18.41 65.138 0.32 7.94 13.06 9.93
5/4/2021 2:45:00 PM 18.49 65.282 0.32 7.95 13.14 9.94
5/4/2021 3:00:00 PM 18.62 65.516 0.321 7.96 11.4 9.97
5/4/2021 3:15:00 PM 18.74 65.732 0.321 7.96 11.19 9.95
5/4/2021 3:30:00 PM 18.8 65.84 0.322 7.95 11.94 9.87
5/4/2021 3:45:00 PM 18.84 65.912 0.323 7.94 12.59 9.77
5/4/2021 4:00:00 PM 19.02 66.236 0.323 7.95 10.65 9.77
5/4/2021 4:15:00 PM 19.15 66.47 0.323 7.95 12.67 9.73
5/4/2021 4:30:00 PM 19.29 66.722 0.323 7.95 12.26 9.68
5/4/2021 4:45:00 PM 19.4 66.92 0.323 7.94 11.69 9.62
5/4/2021 5:00:00 PM 19.45 67.01 0.324 7.94 11.14 9.55
5/4/2021 5:15:00 PM 19.46 67.028 0.324 7.92 11.29 9.44
5/4/2021 5:30:00 PM 19.44 66.992 0.324 7.91 13.14 9.32
5/4/2021 5:45:00 PM 19.41 66.938 0.324 7.9 10.92 9.21
5/4/2021 6:00:00 PM 19.37 66.866 0.325 7.88 11.28 9.11
5/4/2021 6:15:00 PM 19.35 66.83 0.325 7.87 11.53 9.01
5/4/2021 6:30:00 PM 19.32 66.776 0.325 7.86 12.24 8.9
5/4/2021 6:45:00 PM 19.3 66.74 0.326 7.84 11.51 8.78
5/4/2021 7:00:00 PM 19.29 66.722 0.326 7.82 11.74 8.67
5/4/2021 7:15:00 PM 19.28 66.704 0.326 7.81 11.47 8.57
5/4/2021 7:30:00 PM 19.27 66.686 0.327 7.8 10.87 8.46
5/4/2021 7:45:00 PM 19.26 66.668 0.327 7.79 10.11 8.36
5/4/2021 8:00:00 PM 19.24 66.632 0.328 7.77 11.16 8.25
5/4/2021 8:15:00 PM 19.22 66.596 0.328 7.76 11.09 8.15
5/4/2021 8:30:00 PM 19.2 66.56 0.329 7.75 10.72 8.06
5/4/2021 8:45:00 PM 19.18 66.524 0.329 7.74 10.99 7.99
5/4/2021 9:00:00 PM 19.15 66.47 0.329 7.72 11.13 7.92
5/4/2021 9:15:00 PM 19.11 66.398 0.33 7.72 10.75 7.85
5/4/2021 9:30:00 PM 19.07 66.326 0.33 7.72 10.92 7.8
5/4/2021 9:45:00 PM 19.02 66.236 0.331 7.7 11.46 7.75
5/4/2021 10:00:00 PM 18.98 66.164 0.332 7.7 11.16 7.71
5/4/2021 10:15:00 PM 18.93 66.074 0.333 7.7 9.82 7.67
5/4/2021 10:30:00 PM 18.89 66.002 0.332 7.69 10.64 7.62
5/4/2021 10:45:00 PM 18.85 65.93 0.333 7.69 10.48 7.58
5/4/2021 11:00:00 PM 18.81 65.858 0.334 7.68 10.63 7.53
5/4/2021 11:15:00 PM 18.77 65.786 0.335 7.67 11.17 7.49
5/4/2021 11:30:00 PM 18.74 65.732 0.335 7.67 10.24 7.45
5/4/2021 11:45:00 PM 18.7 65.66 0.336 7.66 10.33 7.41
5/5/2021 12:00:00 AM 18.66 65.588 0.335 7.66 10.66 7.37
5/5/2021 12:15:00 AM 18.63 65.534 0.337 7.66 10.37 7.34
5/5/2021 12:30:00 AM 18.61 65.498 0.337 7.66 11.21 7.31
5/5/2021 12:45:00 AM 18.58 65.444 0.337 7.65 10.13 7.28
5/5/2021 1:00:00 AM 18.55 65.39 0.338 7.65 10.87 7.26
5/5/2021 1:15:00 AM 18.52 65.336 0.338 7.64 9.46 7.24
5/5/2021 1:30:00 AM 18.49 65.282 0.338 7.64 10.81 7.22
5/5/2021 1:45:00 AM 18.46 65.228 0.338 7.64 9.81 7.2
5/5/2021 2:00:00 AM 18.42 65.156 0.338 7.64 9.87 7.19
5/5/2021 2:15:00 AM 18.38 65.084 0.339 7.63 10.29 7.17
5/5/2021 2:30:00 AM 18.34 65.012 0.338 7.63 11.03 7.16
5/5/2021 2:45:00 AM 18.3 64.94 0.34 7.63 9.66 7.16
5/5/2021 3:00:00 AM 18.25 64.85 0.412 7.63 10.02 7.15
5/5/2021 3:15:00 AM 18.19 64.742 0.413 7.63 10.7 7.14
5/5/2021 3:30:00 AM 18.14 64.652 0.341 7.62 9.73 7.14
5/5/2021 3:45:00 AM 18.09 64.562 0.341 7.62 10.9 7.14
5/5/2021 4:00:00 AM 18.05 64.49 0.34 7.62 10.03 7.13
5/5/2021 4:15:00 AM 18 64.4 0.373 7.62 10.6 7.12
5/5/2021 4:30:00 AM 17.96 64.328 0.353 7.62 10.46 7.13
5/5/2021 4:45:00 AM 17.93 64.274 0.374 7.62 10.53 7.12
5/5/2021 5:00:00 AM 17.91 64.238 0.418 7.62 10.01 7.13
5/5/2021 5:15:00 AM 17.89 64.202 0.362 7.62 11.62 7.13
5/5/2021 5:30:00 AM 17.87 64.166 0.376 7.61 9.55 7.13
5/5/2021 5:45:00 AM 17.84 64.112 0.42 7.61 9.91 7.13
5/5/2021 6:00:00 AM 17.81 64.058 0.356 7.61 10.18 7.13
5/5/2021 6:15:00 AM 17.78 64.004 0.357 7.61 9.52 7.14
5/5/2021 6:30:00 AM 17.75 63.95 0.378 7.61 9.73 7.16
5/5/2021 6:45:00 AM 17.73 63.914 0.365 7.61 8.71 7.18
5/5/2021 7:00:00 AM 17.7 63.86 0.366 7.61 9.58 7.2
5/5/2021 7:15:00 AM 17.67 63.806 0.365 7.62 8.44 7.23
5/5/2021 7:30:00 AM 17.65 63.77 0.379 7.62 9.08 7.25
5/5/2021 7:45:00 AM 17.63 63.734 0.422 7.62 7.94 7.28
5/5/2021 8:00:00 AM 17.62 63.716 0.422 7.62 7.99 7.3
5/5/2021 8:15:00 AM 17.61 63.698 0.379 7.62 8.6 7.35
5/5/2021 8:30:00 AM 17.61 63.698 0.422 7.63 8.56 7.4
5/5/2021 8:45:00 AM 17.61 63.698 0.379 7.63 8.34 7.47
5/5/2021 9:00:00 AM 17.61 63.698 0.422 7.64 7.69 7.56
5/5/2021 9:15:00 AM 17.62 63.716 0.358 7.65 7.34 7.62
5/5/2021 9:30:00 AM 17.63 63.734 0.358 7.65 7.6 7.7
5/5/2021 9:45:00 AM 17.65 63.77 0.423 7.66 7.63 7.79
5/5/2021 10:00:00 AM 17.68 63.824 0.367 7.67 7.39 7.92
5/5/2021 10:15:00 AM 17.68 63.824 0.38 7.67 7.33 7.95
5/5/2021 10:30:00 AM 17.68 63.824 0.365 7.68 8.63 8
5/5/2021 10:45:00 AM 17.65 63.77 0.379 7.68 7.47 7.96
5/5/2021 11:00:00 AM 17.62 63.716 0.378 7.69 8.19 8.01
5/5/2021 11:15:00 AM 17.63 63.734 0.378 7.69 8.37 8.13
5/5/2021 11:30:00 AM 17.66 63.788 0.378 7.72 7.88 8.28
5/5/2021 11:45:00 AM 17.72 63.896 0.365 7.73 6.71 8.45
5/5/2021 12:00:00 PM 17.86 64.148 0.378 7.75 7.87 8.67
5/5/2021 12:15:00 PM 18.01 64.418 0.379 7.77 7.38 8.85
5/5/2021 12:30:00 PM 18.23 64.814 0.365 7.8 6.95 9.06
5/5/2021 12:45:00 PM 18.46 65.228 0.365 7.82 6.67 9.24
5/5/2021 1:00:00 PM 18.72 65.696 0.361 7.84 6.94 9.36
5/5/2021 1:15:00 PM 18.85 65.93 0.358 7.86 7.93 9.4
5/5/2021 1:30:00 PM 18.95 66.11 0.365 7.86 7.09 9.38
5/5/2021 1:45:00 PM 19.14 66.452 0.361 7.88 8.48 9.48
5/5/2021 2:00:00 PM 19.11 66.398 0.359 7.88 7.34 9.47
5/5/2021 2:15:00 PM 19.14 66.452 0.358 7.89 8.53 9.44
5/5/2021 2:30:00 PM 19.03 66.254 0.359 7.89 8.71 9.38
5/5/2021 2:45:00 PM 18.95 66.11 0.36 7.88 8.07 9.36
5/5/2021 3:00:00 PM 18.99 66.182 0.36 7.9 7.79 9.47
5/5/2021 3:15:00 PM 19.12 66.416 0.358 7.92 7.73 9.59
5/5/2021 3:30:00 PM 19.21 66.578 0.36 7.93 7.94 9.62
5/5/2021 3:45:00 PM 19.34 66.812 0.359 7.95 6.86 9.67
5/5/2021 4:00:00 PM 19.37 66.866 0.359 7.95 7.79 9.66
5/5/2021 4:15:00 PM 19.29 66.722 0.357 7.94 8.66 9.54
5/5/2021 4:30:00 PM 19.25 66.65 0.358 7.94 7.52 9.47
5/5/2021 4:45:00 PM 19.23 66.614 0.358 7.94 7.69 9.42
5/5/2021 5:00:00 PM 19.17 66.506 0.359 7.94 7.33 9.36
5/5/2021 5:15:00 PM 19.13 66.434 0.361 7.93 8.22 9.27
5/5/2021 5:30:00 PM 19.07 66.326 0.361 7.92 8.06 9.15
5/5/2021 5:45:00 PM 19.06 66.308 0.361 7.91 8.28 9.11
5/5/2021 6:00:00 PM 19.08 66.344 0.361 7.91 8.93 9.08
5/5/2021 6:15:00 PM 19.09 66.362 0.362 7.91 9.87 9
5/5/2021 6:30:00 PM 19.08 66.344 0.36 7.9 9.17 8.89
5/5/2021 6:45:00 PM 19.01 66.218 0.362 7.88 9.68 8.77
5/5/2021 7:00:00 PM 18.95 66.11 0.36 7.87 10.67 8.7
5/5/2021 7:15:00 PM 18.89 66.002 0.36 7.86 10.4 8.65
5/5/2021 7:30:00 PM 18.83 65.894 0.359 7.85 12.03 8.57
5/5/2021 7:45:00 PM 18.75 65.75 0.365 7.84 10.58 8.49
5/5/2021 8:00:00 PM 18.67 65.606 0.364 7.83 11.4 8.42
5/5/2021 8:15:00 PM 18.61 65.498 0.363 7.82 12.11 8.36
5/5/2021 8:30:00 PM 18.55 65.39 0.354 7.82 11.17 8.3
5/5/2021 8:45:00 PM 18.51 65.318 0.361 7.81 12.31 8.26
5/5/2021 9:00:00 PM 18.48 65.264 0.415 7.81 12.85 8.23
5/5/2021 9:15:00 PM 18.43 65.174 0.371 7.81 13.26 8.21
5/5/2021 9:30:00 PM 18.37 65.066 0.413 7.8 12.18 8.2
5/5/2021 9:45:00 PM 18.29 64.922 0.338 7.8 10.57 8.17
5/5/2021 10:00:00 PM 18.2 64.76 0.34 7.79 14.68 8.16
5/5/2021 10:15:00 PM 18.12 64.616 0.341 7.79 12.6 8.12
5/5/2021 10:30:00 PM 18.04 64.472 0.341 7.78 12.09 8.09
5/5/2021 10:45:00 PM 17.98 64.364 0.342 7.77 14.84 8.06
5/5/2021 11:00:00 PM 17.91 64.238 0.343 7.77 11.99 8.04
5/5/2021 11:15:00 PM 17.86 64.148 0.343 7.76 12.23 8.02
5/5/2021 11:30:00 PM 17.79 64.022 0.339 7.76 11.78 8
5/5/2021 11:45:00 PM 17.71 63.878 0.343 7.75 13.11 7.99
5/6/2021 12:00:00 AM 17.63 63.734 0.343 7.75 12.08 7.98
5/6/2021 12:15:00 AM 17.55 63.59 0.343 7.74 15.62 7.97
5/6/2021 12:30:00 AM 17.49 63.482 0.342 7.73 11.77 7.96
5/6/2021 12:45:00 AM 17.41 63.338 0.343 7.73 11.05 7.96
5/6/2021 1:00:00 AM 17.31 63.158 0.343 7.72 12.84 7.96
5/6/2021 1:15:00 AM 17.21 62.978 0.343 7.72 11.48 7.97
5/6/2021 1:30:00 AM 17.1 62.78 0.342 7.72 12.31 7.98
5/6/2021 1:45:00 AM 16.98 62.564 0.343 7.71 12.1 7.99
5/6/2021 2:00:00 AM 16.87 62.366 0.342 7.71 10.87 8
5/6/2021 2:15:00 AM 16.78 62.204 0.341 7.71 11.99 8.01
5/6/2021 2:30:00 AM 16.69 62.042 0.341 7.71 11.65 8.02
5/6/2021 2:45:00 AM 16.6 61.88 0.341 7.71 11.68 8.02
5/6/2021 3:00:00 AM 16.51 61.718 0.341 7.7 11.68 8.03
5/6/2021 3:15:00 AM 16.4 61.52 0.341 7.7 11.71 8.05
5/6/2021 3:30:00 AM 16.3 61.34 0.34 7.7 11.02 8.07
5/6/2021 3:45:00 AM 16.2 61.16 0.34 7.69 11.1 8.07
5/6/2021 4:00:00 AM 16.11 60.998 0.34 7.69 11.81 8.08
5/6/2021 4:15:00 AM 16.01 60.818 0.34 7.69 10.52 8.09
5/6/2021 4:30:00 AM 15.91 60.638 0.34 7.69 11.49 8.1
5/6/2021 4:45:00 AM 15.81 60.458 0.341 7.69 11.17 8.12
5/6/2021 5:00:00 AM 15.7 60.26 0.341 7.69 11.47 8.14
5/6/2021 5:15:00 AM 15.59 60.062 0.341 7.69 10.87 8.15
5/6/2021 5:30:00 AM 15.49 59.882 0.342 7.68 11.77 8.16
5/6/2021 5:45:00 AM 15.38 59.684 0.342 7.69 10.24 8.18
5/6/2021 6:00:00 AM 15.27 59.486 0.343 7.69 10.04 8.2
5/6/2021 6:15:00 AM 15.17 59.306 0.343 7.69 10.58 8.23
5/6/2021 6:30:00 AM 15.07 59.126 0.343 7.69 11.77 8.26
5/6/2021 6:45:00 AM 14.99 58.982 0.344 7.69 10.49 8.29
5/6/2021 7:00:00 AM 14.92 58.856 0.344 7.69 10.8 8.34
5/6/2021 7:15:00 AM 14.86 58.748 0.344 7.69 10.24 8.4
5/6/2021 7:30:00 AM 14.82 58.676 0.345 7.7 10.03 8.46
5/6/2021 7:45:00 AM 14.78 58.604 0.345 7.71 10.16 8.53
5/6/2021 8:00:00 AM 14.74 58.532 0.344 7.71 9.89 8.59
5/6/2021 8:15:00 AM 14.7 58.46 0.345 7.72 10.31 8.68
5/6/2021 8:30:00 AM 14.67 58.406 0.345 7.73 10.22 8.78
5/6/2021 8:45:00 AM 14.67 58.406 0.344 7.74 9.88 8.91
5/6/2021 9:00:00 AM 14.65 58.37 0.345 7.75 9.68 9.01
5/6/2021 9:15:00 AM 14.68 58.424 0.345 7.77 9.86 9.15
5/6/2021 9:30:00 AM 14.66 58.388 0.345 7.77 9.63 9.24
5/6/2021 9:45:00 AM 14.67 58.406 0.345 7.78 9.59 9.35
5/6/2021 10:00:00 AM 14.68 58.424 0.345 7.8 9.3 9.44
5/6/2021 10:15:00 AM 14.72 58.496 0.346 7.81 8.97 9.54
5/6/2021 10:30:00 AM 14.77 58.586 0.345 7.82 8.78 9.64
5/6/2021 10:45:00 AM 14.81 58.658 0.345 7.83 8.66 9.74
5/6/2021 11:00:00 AM 14.87 58.766 0.345 7.84 9.29 9.82
5/6/2021 11:15:00 AM 14.99 58.982 0.345 7.86 9.05 9.94
5/6/2021 11:30:00 AM 15.18 59.324 0.345 7.87 8.89 10.06
5/6/2021 11:45:00 AM 15.36 59.648 0.345 7.89 8.43 10.17
5/6/2021 12:00:00 PM 15.59 60.062 0.345 7.91 8.75 10.3
5/6/2021 12:15:00 PM 15.79 60.422 0.345 7.92 8.25 10.4
5/6/2021 12:30:00 PM 15.99 60.782 0.345 7.94 8.41 10.49
5/6/2021 12:45:00 PM 16.16 61.088 0.346 7.96 8.38 10.57
5/6/2021 1:00:00 PM 16.33 61.394 0.346 7.97 8.56 10.66
5/6/2021 1:15:00 PM 16.5 61.7 0.346 7.99 9.29 10.75
5/6/2021 1:30:00 PM 16.65 61.97 0.346 8.01 8.34 10.83
5/6/2021 1:45:00 PM 16.76 62.168 0.346 8.03 8.66 10.9
5/6/2021 2:00:00 PM 16.84 62.312 0.346 8.05 9.23 10.96
5/6/2021 2:15:00 PM 16.92 62.456 0.347 8.06 8.16 10.99
5/6/2021 2:30:00 PM 17.02 62.636 0.347 8.07 7.67 11.02
5/6/2021 2:45:00 PM 17.12 62.816 0.347 8.07 8.21 11.01
5/6/2021 3:00:00 PM 17.13 62.834 0.347 8.08 7.55 11.01
5/6/2021 3:15:00 PM 17.16 62.888 0.346 8.09 8.19 11
5/6/2021 3:30:00 PM 17.19 62.942 0.347 8.09 7.7 10.99
5/6/2021 3:45:00 PM 17.18 62.924 0.348 8.09 7.24 10.97
5/6/2021 4:00:00 PM 17.13 62.834 0.347 8.09 7.26 10.92
5/6/2021 4:15:00 PM 17.13 62.834 0.348 8.09 7.4 10.88
5/6/2021 4:30:00 PM 17.1 62.78 0.348 8.08 7.31 10.81
5/6/2021 4:45:00 PM 17.05 62.69 0.349 8.08 7.49 10.74
5/6/2021 5:00:00 PM 17.02 62.636 0.35 8.07 7.12 10.67
5/6/2021 5:15:00 PM 16.99 62.582 0.349 8.06 7.56 10.58
5/6/2021 5:30:00 PM 16.98 62.564 0.35 8.05 6.93 10.5
5/6/2021 5:45:00 PM 16.97 62.546 0.35 8.04 7.35 10.41
5/6/2021 6:00:00 PM 16.95 62.51 0.35 8.03 7.33 10.3
5/6/2021 6:15:00 PM 16.94 62.492 0.35 8.01 6.97 10.17
5/6/2021 6:30:00 PM 16.92 62.456 0.35 8 7.46 10.06
5/6/2021 6:45:00 PM 16.9 62.42 0.358 7.98 6.83 9.94
5/6/2021 7:00:00 PM 16.87 62.366 0.35 7.97 7.06 9.81
5/6/2021 7:15:00 PM 16.82 62.276 0.351 7.95 7.04 9.68
5/6/2021 7:30:00 PM 16.76 62.168 0.359 7.93 6.85 9.55
5/6/2021 7:45:00 PM 16.7 62.06 0.351 7.91 6.75 9.42
5/6/2021 8:00:00 PM 16.62 61.916 0.353 7.89 7.07 9.29
5/6/2021 8:15:00 PM 16.55 61.79 0.353 7.87 7.85 9.2
5/6/2021 8:30:00 PM 16.47 61.646 0.354 7.86 7.17 9.1
5/6/2021 8:45:00 PM 16.39 61.502 0.362 7.85 6.7 9.01
5/6/2021 9:00:00 PM 16.32 61.376 0.355 7.83 8.36 8.94
5/6/2021 9:15:00 PM 16.24 61.232 0.355 7.82 8.61 8.88
5/6/2021 9:30:00 PM 16.18 61.124 0.356 7.81 8.41 8.83
5/6/2021 9:45:00 PM 16.12 61.016 0.356 7.8 8.36 8.78
5/6/2021 10:00:00 PM 16.06 60.908 0.37 7.79 7.99 8.72
5/6/2021 10:15:00 PM 16 60.8 0.358 7.79 8.16 8.67
5/6/2021 10:30:00 PM 15.94 60.692 0.358 7.78 8.57 8.62
5/6/2021 10:45:00 PM 15.88 60.584 0.358 7.77 8.07 8.58
5/6/2021 11:00:00 PM 15.82 60.476 0.36 7.76 8.79 8.54
5/6/2021 11:15:00 PM 15.75 60.35 0.358 7.76 8.21 8.51
5/6/2021 11:30:00 PM 15.68 60.224 0.36 7.75 9.44 8.46
5/6/2021 11:45:00 PM 15.6 60.08 0.36 7.75 9.19 8.43
5/7/2021 12:00:00 AM 15.53 59.954 0.361 7.74 12.33 8.38
5/7/2021 12:15:00 AM 15.45 59.81 0.359 7.73 11.31 8.36
5/7/2021 12:30:00 AM 15.38 59.684 0.362 7.72 14.13 8.33
5/7/2021 12:45:00 AM 15.32 59.576 0.362 7.72 11.16 8.31
5/7/2021 1:00:00 AM 15.25 59.45 0.363 7.72 9.57 8.29
5/7/2021 1:15:00 AM 15.18 59.324 0.363 7.71 9.13 8.27
5/7/2021 1:30:00 AM 15.11 59.198 0.364 7.71 10.49 8.26
5/7/2021 1:45:00 AM 15.04 59.072 0.364 7.71 11.35 8.25
5/7/2021 2:00:00 AM 14.96 58.928 0.365 7.71 10.32 8.24
5/7/2021 2:15:00 AM 14.88 58.784 0.364 7.7 12.99 8.24
5/7/2021 2:30:00 AM 14.81 58.658 0.364 7.7 8.92 8.23
5/7/2021 2:45:00 AM 14.72 58.496 0.365 7.7 11.6 8.23
5/7/2021 3:00:00 AM 14.64 58.352 0.365 7.7 10.31 8.23
5/7/2021 3:15:00 AM 14.56 58.208 0.366 7.69 10.57 8.24
5/7/2021 3:30:00 AM 14.49 58.082 0.366 7.69 10.04 8.24
5/7/2021 3:45:00 AM 14.41 57.938 0.367 7.69 13.54 8.24
5/7/2021 4:00:00 AM 14.34 57.812 0.367 7.69 51.53 8.25
5/7/2021 4:15:00 AM 14.27 57.686 0.367 7.69 10.88 8.26
5/7/2021 4:30:00 AM 14.2 57.56 0.368 7.69 9.74 8.26
5/7/2021 4:45:00 AM 14.13 57.434 0.367 7.69 9.55 8.26
5/7/2021 5:00:00 AM 14.06 57.308 0.368 7.68 9.38 8.27
5/7/2021 5:15:00 AM 13.99 57.182 0.368 7.69 8.62 8.27
5/7/2021 5:30:00 AM 13.91 57.038 0.369 7.69 8.5 8.29
5/7/2021 5:45:00 AM 13.84 56.912 0.369 7.69 8.52 8.32
5/7/2021 6:00:00 AM 13.76 56.768 0.369 7.68 8.34 8.33
5/7/2021 6:15:00 AM 13.69 56.642 0.37 7.68 7.88 8.32
5/7/2021 6:30:00 AM 13.62 56.516 0.37 7.69 7.63 8.37
5/7/2021 6:45:00 AM 13.56 56.408 0.37 7.69 7.28 8.41
5/7/2021 7:00:00 AM 13.52 56.336 0.371 7.69 6.96 8.46
5/7/2021 7:15:00 AM 13.5 56.3 0.371 7.7 7.16 8.51
5/7/2021 7:30:00 AM 13.5 56.3 0.371 7.7 7.03 8.61
5/7/2021 7:45:00 AM 13.54 56.372 0.371 7.71 6.53 8.72
5/7/2021 8:00:00 AM 13.56 56.408 0.372 7.72 6.68 8.81
5/7/2021 8:15:00 AM 13.6 56.48 0.372 7.73 7.06 8.94
5/7/2021 8:30:00 AM 13.61 56.498 0.372 7.74 6.29 9.03
5/7/2021 8:45:00 AM 13.64 56.552 0.373 7.76 6.43 9.16
5/7/2021 9:00:00 AM 13.7 56.66 0.373 7.77 6 9.33
5/7/2021 9:15:00 AM 13.77 56.786 0.372 7.79 5.94 9.5
5/7/2021 9:30:00 AM 13.81 56.858 0.373 7.81 6.1 9.65
5/7/2021 9:45:00 AM 13.84 56.912 0.373 7.82 5.57 9.76
5/7/2021 10:00:00 AM 13.91 57.038 0.373 7.84 5.51 9.9
5/7/2021 10:15:00 AM 13.95 57.11 0.373 7.85 5.71 10.01
5/7/2021 10:30:00 AM 14.03 57.254 0.374 7.87 5.59 10.15
5/7/2021 10:45:00 AM 14.14 57.452 0.374 7.88 5.2 10.29
5/7/2021 11:00:00 AM 14.24 57.632 0.373 7.9 8.37 10.41
5/7/2021 11:15:00 AM 14.28 57.704 0.372 7.91 5.59 10.48
5/7/2021 11:30:00 AM 14.34 57.812 0.372 7.93 5.16 10.58
5/7/2021 11:45:00 AM 14.36 57.848 0.372 7.94 4.98 10.66
5/7/2021 12:00:00 PM 14.39 57.902 0.371 7.96 5.28 10.76
5/7/2021 12:15:00 PM 14.46 58.028 0.37 7.98 13.19 10.86
5/7/2021 12:30:00 PM 14.53 58.154 0.369 7.99 6.91 10.95
5/7/2021 12:45:00 PM 14.61 58.298 0.378 8.01 5.18 11.05
5/7/2021 1:00:00 PM 14.67 58.406 0.368 8.03 4.87 11.12
5/7/2021 1:15:00 PM 14.78 58.604 0.446 8.05 4.77 11.25
5/7/2021 1:30:00 PM 14.86 58.748 0.446 8.07 5.03 11.3
5/7/2021 1:45:00 PM 14.93 58.874 0.446 8.07 5.54 11.28
5/7/2021 2:00:00 PM 14.93 58.874 0.446 8.07 4.95 11.21
5/7/2021 2:15:00 PM 14.91 58.838 0.447 8.05 4.92 11.06
5/7/2021 2:30:00 PM 14.86 58.748 0.447 8.04 5.04 10.93
5/7/2021 2:45:00 PM 14.84 58.712 0.367 8.03 5.24 10.86
5/7/2021 3:00:00 PM 14.83 58.694 0.379 8.03 4.79 10.82
5/7/2021 3:15:00 PM 14.82 58.676 0.379 8.03 5.48 10.78
5/7/2021 3:30:00 PM 14.83 58.694 0.448 8.04 5.37 10.82
5/7/2021 3:45:00 PM 14.81 58.658 0.448 8.04 5.08 10.79
5/7/2021 4:00:00 PM 14.81 58.658 0.447 8.04 5.1 10.77
5/7/2021 4:15:00 PM 14.8 58.64 0.447 8.04 4.86 10.75
5/7/2021 4:30:00 PM 14.79 58.622 0.402 8.04 4.81 10.73
5/7/2021 4:45:00 PM 14.79 58.622 0.448 8.03 4.61 10.64
5/7/2021 5:00:00 PM 14.77 58.586 0.367 8.02 4.5 10.55
5/7/2021 5:15:00 PM 14.74 58.532 0.448 8.01 4.43 10.45
5/7/2021 5:30:00 PM 14.7 58.46 0.369 8 4.58 10.33
5/7/2021 5:45:00 PM 14.66 58.388 0.368 7.98 4.52 10.23
5/7/2021 6:00:00 PM 14.63 58.334 0.369 7.97 4.35 10.13
5/7/2021 6:15:00 PM 14.6 58.28 0.38 7.96 4.61 10.03
5/7/2021 6:30:00 PM 14.56 58.208 0.38 7.94 4.48 9.95
5/7/2021 6:45:00 PM 14.51 58.118 0.37 7.93 4.32 9.86
5/7/2021 7:00:00 PM 14.46 58.028 0.37 7.92 4.88 9.77
5/7/2021 7:15:00 PM 14.41 57.938 0.372 7.9 4.76 9.69
5/7/2021 7:30:00 PM 14.35 57.83 0.371 7.89 4.74 9.61
5/7/2021 7:45:00 PM 14.3 57.74 0.373 7.88 4.77 9.54
5/7/2021 8:00:00 PM 14.23 57.614 0.372 7.87 5.12 9.48
5/7/2021 8:15:00 PM 14.17 57.506 0.387 7.86 4.85 9.41
5/7/2021 8:30:00 PM 14.1 57.38 0.374 7.85 5.06 9.36
5/7/2021 8:45:00 PM 14.04 57.272 0.374 7.84 5.26 9.3
5/7/2021 9:00:00 PM 13.98 57.164 0.373 7.84 4.93 9.25
5/7/2021 9:15:00 PM 13.92 57.056 0.376 7.83 5.41 9.21
5/7/2021 9:30:00 PM 13.86 56.948 0.374 7.83 5.95 9.2
5/7/2021 9:45:00 PM 13.81 56.858 0.375 7.82 4.93 9.16
5/7/2021 10:00:00 PM 13.77 56.786 0.375 7.81 5.09 9.13
5/7/2021 10:15:00 PM 13.73 56.714 0.375 7.81 5.26 9.06
5/7/2021 10:30:00 PM 13.68 56.624 0.375 7.8 5.53 9.07
5/7/2021 10:45:00 PM 13.64 56.552 0.375 7.8 4.89 9.05
5/7/2021 11:00:00 PM 13.6 56.48 0.375 7.79 5.56 9.02
5/7/2021 11:15:00 PM 13.55 56.39 0.375 7.79 4.92 9
5/7/2021 11:30:00 PM 13.5 56.3 0.375 7.78 6.25 8.97
5/7/2021 11:45:00 PM 13.45 56.21 0.375 7.78 5.35 8.94
5/8/2021 12:00:00 AM 13.39 56.102 0.374 7.78 5.22 8.92
5/8/2021 12:15:00 AM 13.34 56.012 0.375 7.77 5.87 8.91
5/8/2021 12:30:00 AM 13.29 55.922 0.375 7.77 6.39 8.89
5/8/2021 12:45:00 AM 13.23 55.814 0.375 7.76 6.12 8.88
5/8/2021 1:00:00 AM 13.18 55.724 0.375 7.76 6.05 8.88
5/8/2021 1:15:00 AM 13.13 55.634 0.375 7.76 5.78 8.87
5/8/2021 1:30:00 AM 13.08 55.544 0.374 7.75 6.18 8.86
5/8/2021 1:45:00 AM 13.03 55.454 0.375 7.75 6.27 8.86
5/8/2021 2:00:00 AM 12.98 55.364 0.375 7.75 7.11 8.86
5/8/2021 2:15:00 AM 12.93 55.274 0.374 7.75 6.83 8.86
5/8/2021 2:30:00 AM 12.88 55.184 0.374 7.75 7.05 8.86
5/8/2021 2:45:00 AM 12.82 55.076 0.374 7.75 7.59 8.87
5/8/2021 3:00:00 AM 12.77 54.986 0.374 7.75 7.16 8.87
5/8/2021 3:15:00 AM 12.72 54.896 0.373 7.74 6.82 8.88
5/8/2021 3:30:00 AM 12.66 54.788 0.373 7.75 7.39 8.89
5/8/2021 3:45:00 AM 12.6 54.68 0.373 7.75 7.6 8.9
5/8/2021 4:00:00 AM 12.54 54.572 0.373 7.75 9.75 8.92
5/8/2021 4:15:00 AM 12.48 54.464 0.373 7.74 7.44 8.93
5/8/2021 4:30:00 AM 12.42 54.356 0.373 7.75 8.15 8.95
5/8/2021 4:45:00 AM 12.35 54.23 0.372 7.75 9.13 8.96
5/8/2021 5:00:00 AM 12.29 54.122 0.373 7.75 8.04 8.98
5/8/2021 5:15:00 AM 12.22 53.996 0.372 7.74 7.2 8.99
5/8/2021 5:30:00 AM 12.15 53.87 0.371 7.74 7.87 9
5/8/2021 5:45:00 AM 12.09 53.762 0.372 7.75 7.76 9.02
5/8/2021 6:00:00 AM 12.03 53.654 0.372 7.74 7.51 9.04
5/8/2021 6:15:00 AM 11.98 53.564 0.372 7.74 6.9 9.07
5/8/2021 6:30:00 AM 11.94 53.492 0.371 7.75 6.6 9.1
5/8/2021 6:45:00 AM 11.91 53.438 0.371 7.75 6.61 9.16
5/8/2021 7:00:00 AM 11.89 53.402 0.371 7.76 6.54 9.22
5/8/2021 7:15:00 AM 11.88 53.384 0.371 7.76 6.1 9.29
5/8/2021 7:30:00 AM 11.87 53.366 0.371 7.77 6 9.36
5/8/2021 7:45:00 AM 11.88 53.384 0.371 7.78 5.82 9.49
5/8/2021 8:00:00 AM 11.92 53.456 0.371 7.8 5.83 9.64
5/8/2021 8:15:00 AM 11.94 53.492 0.37 7.81 5.1 9.78
5/8/2021 8:30:00 AM 11.96 53.528 0.37 7.82 5.65 9.89
5/8/2021 8:45:00 AM 11.94 53.492 0.37 7.83 5.15 9.94
5/8/2021 9:00:00 AM 11.92 53.456 0.335 7.83 5.03 9.99
5/8/2021 9:15:00 AM 11.91 53.438 0.37 7.84 5.39 10.07
5/8/2021 9:30:00 AM 11.91 53.438 0.371 7.85 4.94 10.18
5/8/2021 9:45:00 AM 11.98 53.564 0.37 7.88 4.94 10.37
5/8/2021 10:00:00 AM 12.06 53.708 0.369 7.9 5.17 10.55
5/8/2021 10:15:00 AM 12.2 53.96 0.37 7.92 4.87 10.73
5/8/2021 10:30:00 AM 12.28 54.104 0.37 7.94 4.53 10.86
5/8/2021 10:45:00 AM 12.37 54.266 0.37 7.96 4.29 10.99
5/8/2021 11:00:00 AM 12.46 54.428 0.37 7.98 4.47 11.14
5/8/2021 11:15:00 AM 12.54 54.572 0.369 8 4.5 11.25
5/8/2021 11:30:00 AM 12.65 54.77 0.369 8.02 4.45 11.36
5/8/2021 11:45:00 AM 12.84 55.112 0.369 8.04 4.56 11.46
5/8/2021 12:00:00 PM 12.97 55.346 0.369 8.06 4.32 11.52
5/8/2021 12:15:00 PM 13.06 55.508 0.369 8.08 4.2 11.61
5/8/2021 12:30:00 PM 13.14 55.652 0.368 8.09 4.65 11.67
5/8/2021 12:45:00 PM 13.15 55.67 0.369 8.1 4.42 11.67
5/8/2021 1:00:00 PM 13.22 55.796 0.368 8.11 4.71 11.76
5/8/2021 1:15:00 PM 13.32 55.976 0.369 8.13 4.43 11.82
5/8/2021 1:30:00 PM 13.4 56.12 0.368 8.14 4.44 11.84
5/8/2021 1:45:00 PM 13.48 56.264 0.368 8.15 4.72 11.82
5/8/2021 2:00:00 PM 13.47 56.246 0.368 8.14 4.33 11.75
5/8/2021 2:15:00 PM 13.72 56.696 0.368 8.16 4.78 11.84
5/8/2021 2:30:00 PM 13.92 57.056 0.367 8.18 4.53 11.89
5/8/2021 2:45:00 PM 14.17 57.506 0.367 8.19 4.21 11.95
5/8/2021 3:00:00 PM 14.32 57.776 0.367 8.21 4.67 11.96
5/8/2021 3:15:00 PM 14.28 57.704 0.367 8.2 4.55 11.81
5/8/2021 3:30:00 PM 14.24 57.632 0.367 8.19 4.62 11.76
5/8/2021 3:45:00 PM 14.02 57.236 0.366 8.17 5.17 11.56
5/8/2021 4:00:00 PM 13.81 56.858 0.366 8.15 5.47 11.43
5/8/2021 4:15:00 PM 13.73 56.714 0.366 8.15 5.5 11.43
5/8/2021 4:30:00 PM 13.71 56.678 0.366 8.15 5.34 11.43
5/8/2021 4:45:00 PM 13.77 56.786 0.367 8.15 4.53 11.45
5/8/2021 5:00:00 PM 13.84 56.912 0.368 8.16 5.16 11.43
5/8/2021 5:15:00 PM 13.92 57.056 0.367 8.15 4.47 11.39
5/8/2021 5:30:00 PM 13.96 57.128 0.368 8.15 4.04 11.31
5/8/2021 5:45:00 PM 13.95 57.11 0.368 8.14 4.37 11.19
5/8/2021 6:00:00 PM 13.91 57.038 0.368 8.12 4.63 11.06
5/8/2021 6:15:00 PM 13.86 56.948 0.369 8.11 4.53 10.95
5/8/2021 6:30:00 PM 13.77 56.786 0.369 8.09 4.96 10.82
5/8/2021 6:45:00 PM 13.73 56.714 0.368 8.07 4.47 10.73
5/8/2021 7:00:00 PM 13.68 56.624 0.368 8.05 4.57 10.61
5/8/2021 7:15:00 PM 13.61 56.498 0.368 8.03 4.48 10.47
5/8/2021 7:30:00 PM 13.55 56.39 0.368 8.01 4.48 10.39
5/8/2021 7:45:00 PM 13.49 56.282 0.369 7.99 4.72 10.3
5/8/2021 8:00:00 PM 13.43 56.174 0.369 7.98 4.39 10.2
5/8/2021 8:15:00 PM 13.37 56.066 0.369 7.96 4.42 10.1
5/8/2021 8:30:00 PM 13.32 55.976 0.369 7.95 4.6 10
5/8/2021 8:45:00 PM 13.27 55.886 0.369 7.93 5.27 9.92
5/8/2021 9:00:00 PM 13.21 55.778 0.369 7.92 5.45 9.84
5/8/2021 9:15:00 PM 13.15 55.67 0.369 7.91 5.85 9.78
5/8/2021 9:30:00 PM 13.09 55.562 0.37 7.9 6.49 9.72
5/8/2021 9:45:00 PM 13.03 55.454 0.369 7.88 5.76 9.68
5/8/2021 10:00:00 PM 12.97 55.346 0.37 7.88 6.98 9.64
5/8/2021 10:15:00 PM 12.91 55.238 0.369 7.87 6.05 9.61
5/8/2021 10:30:00 PM 12.84 55.112 0.37 7.86 5.67 9.57
5/8/2021 10:45:00 PM 12.78 55.004 0.37 7.85 5.88 9.53
5/8/2021 11:00:00 PM 12.72 54.896 0.371 7.85 6.18 9.51
5/8/2021 11:15:00 PM 12.66 54.788 0.37 7.84 6.54 9.48
5/8/2021 11:30:00 PM 12.59 54.662 0.371 7.83 11.29 9.45
5/8/2021 11:45:00 PM 12.51 54.518 0.371 7.82 6.85 9.41
5/9/2021 12:00:00 AM 12.44 54.392 0.37 7.82 6.09 9.4
5/9/2021 12:15:00 AM 12.36 54.248 0.371 7.81 5.76 9.37
5/9/2021 12:30:00 AM 12.29 54.122 0.371 7.81 6.01 9.35
5/9/2021 12:45:00 AM 12.23 54.014 0.372 7.8 5.69 9.33
5/9/2021 1:00:00 AM 12.16 53.888 0.371 7.79 10.02 9.31
5/9/2021 1:15:00 AM 12.09 53.762 0.372 7.79 6.19 9.3
5/9/2021 1:30:00 AM 12.03 53.654 0.372 7.78 6.31 9.28
5/9/2021 1:45:00 AM 11.97 53.546 0.372 7.78 6.34 9.27
5/9/2021 2:00:00 AM 11.91 53.438 0.372 7.78 14.69 9.27
5/9/2021 2:15:00 AM 11.86 53.348 0.373 7.77 6.16 9.26
5/9/2021 2:30:00 AM 11.81 53.258 0.373 7.77 6.63 9.26
5/9/2021 2:45:00 AM 11.76 53.168 0.373 7.77 6.01 9.25
5/9/2021 3:00:00 AM 11.71 53.078 0.373 7.76 8.56 9.24
5/9/2021 3:15:00 AM 11.67 53.006 0.373 7.76 5.93 9.24
5/9/2021 3:30:00 AM 11.63 52.934 0.373 7.76 6.3 9.25
5/9/2021 3:45:00 AM 11.59 52.862 0.372 7.76 5.33 9.24
5/9/2021 4:00:00 AM 11.55 52.79 0.373 7.76 5.86 9.23
5/9/2021 4:15:00 AM 11.52 52.736 0.373 7.75 5.77 9.23
5/9/2021 4:30:00 AM 11.48 52.664 0.374 7.75 6.23 9.24
5/9/2021 4:45:00 AM 11.44 52.592 0.374 7.75 6.03 9.25
5/9/2021 5:00:00 AM 11.4 52.52 0.374 7.75 5.6 9.26
5/9/2021 5:15:00 AM 11.36 52.448 0.374 7.75 6.2 9.27
5/9/2021 5:30:00 AM 11.32 52.376 0.374 7.75 6.57 9.28
5/9/2021 5:45:00 AM 11.28 52.304 0.374 7.75 5.56 9.27
5/9/2021 6:00:00 AM 11.24 52.232 0.374 7.75 5.57 9.3
5/9/2021 6:15:00 AM 11.2 52.16 0.375 7.75 5.94 9.31
5/9/2021 6:30:00 AM 11.18 52.124 0.374 7.75 5.84 9.34
5/9/2021 6:45:00 AM 11.16 52.088 0.374 7.75 5.21 9.36
5/9/2021 7:00:00 AM 11.15 52.07 0.375 7.75 5.24 9.42
5/9/2021 7:15:00 AM 11.14 52.052 0.374 7.76 4.71 9.45
5/9/2021 7:30:00 AM 11.15 52.07 0.374 7.76 4.49 9.54
5/9/2021 7:45:00 AM 11.16 52.088 0.375 7.77 4.85 9.59
5/9/2021 8:00:00 AM 11.16 52.088 0.375 7.78 4.29 9.68
5/9/2021 8:15:00 AM 11.17 52.106 0.375 7.79 4.33 9.77
5/9/2021 8:30:00 AM 11.19 52.142 0.376 7.8 3.96 9.88
5/9/2021 8:45:00 AM 11.21 52.178 0.375 7.81 4.19 10.02
5/9/2021 9:00:00 AM 11.23 52.214 0.374 7.82 3.78 10.14
5/9/2021 9:15:00 AM 11.25 52.25 0.374 7.84 3.88 10.26
5/9/2021 9:30:00 AM 11.27 52.286 0.375 7.85 3.8 10.37
5/9/2021 9:45:00 AM 11.28 52.304 0.375 7.86 3.86 10.45
5/9/2021 10:00:00 AM 11.28 52.304 0.375 7.87 4.13 10.51
5/9/2021 10:15:00 AM 11.29 52.322 0.375 7.88 3.95 10.59
5/9/2021 10:30:00 AM 11.3 52.34 0.375 7.89 3.74 10.69
5/9/2021 10:45:00 AM 11.35 52.43 0.374 7.91 3.63 10.85
5/9/2021 11:00:00 AM 11.4 52.52 0.374 7.93 3.56 10.98
5/9/2021 11:15:00 AM 11.44 52.592 0.374 7.94 3.78 11.07
5/9/2021 11:30:00 AM 11.47 52.646 0.374 7.95 3.66 11.14
5/9/2021 11:45:00 AM 11.48 52.664 0.374 7.96 3.75 11.2
5/9/2021 12:00:00 PM 11.5 52.7 0.374 7.97 3.57 11.27
5/9/2021 12:15:00 PM 11.5 52.7 0.373 7.98 4.03 11.31
5/9/2021 12:30:00 PM 11.49 52.682 0.373 7.99 4.31 11.35
5/9/2021 12:45:00 PM 11.47 52.646 0.373 7.98 5.89 11.27
5/9/2021 1:00:00 PM 11.44 52.592 0.373 7.97 4.84 11.17
5/9/2021 1:15:00 PM 11.42 52.556 0.374 7.97 3.9 11.16
5/9/2021 1:30:00 PM 11.42 52.556 0.373 7.98 3.59 11.16
5/9/2021 1:45:00 PM 11.43 52.574 0.373 7.98 3.55 11.17
5/9/2021 2:00:00 PM 11.47 52.646 0.373 7.99 3.62 11.27
5/9/2021 2:15:00 PM 11.54 52.772 0.374 8.01 3.41 11.42
5/9/2021 2:30:00 PM 11.57 52.826 0.374 8.02 3.52 11.48
5/9/2021 2:45:00 PM 11.61 52.898 0.374 8.03 3.42 11.48
5/9/2021 3:00:00 PM 11.67 53.006 0.374 8.05 3.48 11.57
5/9/2021 3:15:00 PM 11.69 53.042 0.374 8.06 3.51 11.61
5/9/2021 3:30:00 PM 11.72 53.096 0.374 8.07 3.5 11.65
5/9/2021 3:45:00 PM 11.79 53.222 0.374 8.1 3.24 11.76
5/9/2021 4:00:00 PM 11.8 53.24 0.374 8.11 3.29 11.8
5/9/2021 4:15:00 PM 11.8 53.24 0.375 8.11 4.65 11.8
5/9/2021 4:30:00 PM 11.8 53.24 0.374 8.12 4.54 11.8
5/9/2021 4:45:00 PM 11.79 53.222 0.374 8.11 5.22 11.75
5/9/2021 5:00:00 PM 11.77 53.186 0.375 8.11 3.42 11.74
5/9/2021 5:15:00 PM 11.74 53.132 0.375 8.1 3.46 11.64
5/9/2021 5:30:00 PM 11.72 53.096 0.376 8.09 3.47 11.57
5/9/2021 5:45:00 PM 11.68 53.024 0.376 8.07 3.61 11.43
5/9/2021 6:00:00 PM 11.65 52.97 0.376 8.06 3.62 11.31
5/9/2021 6:15:00 PM 11.62 52.916 0.376 8.04 3.55 11.19
5/9/2021 6:30:00 PM 11.6 52.88 0.376 8.02 3.38 11.07
5/9/2021 6:45:00 PM 11.58 52.844 0.377 8.01 3.41 10.97
5/9/2021 7:00:00 PM 11.56 52.808 0.376 8 3.25 10.89
5/9/2021 7:15:00 PM 11.55 52.79 0.376 7.99 3.68 10.82
5/9/2021 7:30:00 PM 11.53 52.754 0.377 7.98 3.95 10.74
5/9/2021 7:45:00 PM 11.52 52.736 0.378 7.97 3.52 10.7
5/9/2021 8:00:00 PM 11.5 52.7 0.377 7.96 3.72 10.63
5/9/2021 8:15:00 PM 11.49 52.682 0.378 7.95 3.09 10.56
5/9/2021 8:30:00 PM 11.47 52.646 0.378 7.94 3.34 10.49
5/9/2021 8:45:00 PM 11.45 52.61 0.377 7.93 4.07 10.42
5/9/2021 9:00:00 PM 11.43 52.574 0.378 7.92 4.37 10.35
5/9/2021 9:15:00 PM 11.41 52.538 0.378 7.91 3.82 10.28
5/9/2021 9:30:00 PM 11.4 52.52 0.378 7.91 3.52 10.22
5/9/2021 9:45:00 PM 11.39 52.502 0.378 7.9 3.97 10.18
5/9/2021 10:00:00 PM 11.38 52.484 0.378 7.89 3.8 10.12
5/9/2021 10:15:00 PM 11.36 52.448 0.379 7.88 3.61 10.07
5/9/2021 10:30:00 PM 11.34 52.412 0.378 7.88 3.7 10.04
5/9/2021 10:45:00 PM 11.33 52.394 0.378 7.87 3.9 10
5/9/2021 11:00:00 PM 11.31 52.358 0.379 7.86 3.88 9.97
5/9/2021 11:15:00 PM 11.3 52.34 0.378 7.86 4.12 9.93
5/9/2021 11:30:00 PM 11.29 52.322 0.378 7.85 3.42 9.9
5/9/2021 11:45:00 PM 11.28 52.304 0.38 7.85 3.65 9.85
5/10/2021 12:00:00 AM 11.27 52.286 0.379 7.84 3.64 9.82
5/10/2021 12:15:00 AM 11.26 52.268 0.379 7.84 3.89 9.8
5/10/2021 12:30:00 AM 11.25 52.25 0.379 7.83 3.79 9.75
5/10/2021 12:45:00 AM 11.24 52.232 0.38 7.83 3.69 9.73
5/10/2021 1:00:00 AM 11.23 52.214 0.379 7.82 3.78 9.71
5/10/2021 1:15:00 AM 11.22 52.196 0.38 7.82 3.92 9.68
5/10/2021 1:30:00 AM 11.21 52.178 0.38 7.81 3.88 9.66
5/10/2021 1:45:00 AM 11.2 52.16 0.381 7.81 4 9.63
5/10/2021 2:00:00 AM 11.2 52.16 0.38 7.8 3.8 9.61
5/10/2021 2:15:00 AM 11.19 52.142 0.381 7.8 4.39 9.59
5/10/2021 2:30:00 AM 11.18 52.124 0.38 7.8 4.34 9.58
5/10/2021 2:45:00 AM 11.18 52.124 0.38 7.79 4.63 9.56
5/10/2021 3:00:00 AM 11.17 52.106 0.38 7.79 4.2 9.55
5/10/2021 3:15:00 AM 11.15 52.07 0.381 7.79 4.23 9.54
5/10/2021 3:30:00 AM 11.13 52.034 0.38 7.79 3.77 9.53
5/10/2021 3:45:00 AM 11.11 51.998 0.381 7.78 3.79 9.52
5/10/2021 4:00:00 AM 11.09 51.962 0.381 7.78 4.36 9.52
5/10/2021 4:15:00 AM 11.07 51.926 0.382 7.78 4.2 9.52
5/10/2021 4:30:00 AM 11.06 51.908 0.381 7.78 4.11 9.51
5/10/2021 4:45:00 AM 11.05 51.89 0.381 7.78 4.31 9.5
5/10/2021 5:00:00 AM 11.04 51.872 0.381 7.78 4.31 9.5
5/10/2021 5:15:00 AM 11.02 51.836 0.381 7.78 4.8 9.49
5/10/2021 5:30:00 AM 11.01 51.818 0.381 7.77 5.87 9.5
5/10/2021 5:45:00 AM 10.98 51.764 0.38 7.78 4.42 9.5
5/10/2021 6:00:00 AM 10.96 51.728 0.381 7.77 4.55 9.49
5/10/2021 6:15:00 AM 10.94 51.692 0.381 7.77 4.23 9.5
5/10/2021 6:30:00 AM 10.93 51.674 0.381 7.78 4.21 9.52
5/10/2021 6:45:00 AM 10.92 51.656 0.381 7.78 3.78 9.55
5/10/2021 7:00:00 AM 10.91 51.638 0.381 7.78 3.94 9.6
5/10/2021 7:15:00 AM 10.91 51.638 0.38 7.79 4.05 9.67
5/10/2021 7:30:00 AM 10.92 51.656 0.38 7.79 4.91 9.73
5/10/2021 7:45:00 AM 10.92 51.656 0.38 7.8 4.12 9.82
5/10/2021 8:00:00 AM 10.94 51.692 0.38 7.81 3.97 9.92
5/10/2021 8:15:00 AM 10.95 51.71 0.38 7.82 3.79 10.01
5/10/2021 8:30:00 AM 10.98 51.764 0.38 7.83 3.61 10.13
5/10/2021 8:45:00 AM 10.99 51.782 0.38 7.84 3.88 10.2
5/10/2021 9:00:00 AM 11.03 51.854 0.38 7.86 3.98 10.35
5/10/2021 9:15:00 AM 11.11 51.998 0.38 7.88 3.71 10.54
5/10/2021 9:30:00 AM 11.23 52.214 0.379 7.91 3.67 10.76
5/10/2021 9:45:00 AM 11.29 52.322 0.379 7.92 3.46 10.9
5/10/2021 10:00:00 AM 11.36 52.448 0.38 7.94 3.4 11.01
5/10/2021 10:15:00 AM 11.46 52.628 0.379 7.96 3.79 11.12
5/10/2021 10:30:00 AM 11.58 52.844 0.379 7.97 3.42 11.24
5/10/2021 10:45:00 AM 11.73 53.114 0.379 8 3.63 11.42
5/10/2021 11:00:00 AM 11.86 53.348 0.379 8.02 3.56 11.53
5/10/2021 11:15:00 AM 11.92 53.456 0.378 8.04 3.25 11.66
5/10/2021 11:30:00 AM 12.01 53.618 0.379 8.06 3.71 11.76
5/10/2021 11:45:00 AM 12.16 53.888 0.378 8.08 3.42 11.85
5/10/2021 12:00:00 PM 12.41 54.338 0.378 8.1 3.46 11.97
5/10/2021 12:15:00 PM 12.58 54.644 0.378 8.12 3.63 12.04
5/10/2021 12:30:00 PM 12.77 54.986 0.378 8.14 3.62 12.14
5/10/2021 12:45:00 PM 12.96 55.328 0.378 8.16 3.37 12.23
5/10/2021 1:00:00 PM 13.18 55.724 0.379 8.18 3.47 12.32
5/10/2021 1:15:00 PM 13.44 56.192 0.378 8.2 3.97 12.39
5/10/2021 1:30:00 PM 13.73 56.714 0.39 8.22 3.92 12.45
5/10/2021 1:45:00 PM 14 57.2 0.374 8.24 3.96 12.47
5/10/2021 2:00:00 PM 14.23 57.614 0.373 8.25 3.85 12.5
5/10/2021 2:15:00 PM 14.42 57.956 0.37 8.27 4.01 12.51
5/10/2021 2:30:00 PM 14.59 58.262 0.381 8.28 3.74 12.52
5/10/2021 2:45:00 PM 14.71 58.478 0.403 8.29 3.92 12.49
5/10/2021 3:00:00 PM 14.76 58.568 0.403 8.29 3.9 12.44
5/10/2021 3:15:00 PM 14.8 58.64 0.403 8.29 3.98 12.39
5/10/2021 3:30:00 PM 14.8 58.64 0.367 8.29 4.15 12.32
5/10/2021 3:45:00 PM 14.75 58.55 0.403 8.29 3.95 12.23
5/10/2021 4:00:00 PM 14.73 58.514 0.369 8.29 4.3 12.23
5/10/2021 4:15:00 PM 14.8 58.64 0.389 8.3 3.92 12.23
5/10/2021 4:30:00 PM 14.75 58.55 0.403 8.29 4.31 12.15
5/10/2021 4:45:00 PM 14.77 58.586 0.403 8.29 3.8 12.11
5/10/2021 5:00:00 PM 14.77 58.586 0.403 8.29 3.88 12
5/10/2021 5:15:00 PM 14.74 58.532 0.449 8.28 3.9 11.89
5/10/2021 5:30:00 PM 14.71 58.478 0.368 8.26 4.39 11.74
5/10/2021 5:45:00 PM 14.72 58.496 0.45 8.25 4.6 11.64
5/10/2021 6:00:00 PM 14.69 58.442 0.45 8.23 4.5 11.5
5/10/2021 6:15:00 PM 14.71 58.478 0.451 8.22 4.08 11.38
5/10/2021 6:30:00 PM 14.69 58.442 0.404 8.2 4.27 11.23
5/10/2021 6:45:00 PM 14.67 58.406 0.391 8.18 3.92 11.06
5/10/2021 7:00:00 PM 14.65 58.37 0.392 8.15 3.88 10.9
5/10/2021 7:15:00 PM 14.63 58.334 0.406 8.13 3.89 10.74
5/10/2021 7:30:00 PM 14.6 58.28 0.392 8.1 4.22 10.58
5/10/2021 7:45:00 PM 14.56 58.208 0.453 8.08 4 10.44
5/10/2021 8:00:00 PM 14.52 58.136 0.407 8.06 4.03 10.29
5/10/2021 8:15:00 PM 14.47 58.046 0.407 8.03 4.21 10.14
5/10/2021 8:30:00 PM 14.42 57.956 0.385 8.01 4.17 10.01
5/10/2021 8:45:00 PM 14.37 57.866 0.385 7.99 4.6 9.9
5/10/2021 9:00:00 PM 14.32 57.776 0.385 7.97 4.72 9.8
5/10/2021 9:15:00 PM 14.27 57.686 0.386 7.96 6.82 9.72
5/10/2021 9:30:00 PM 14.21 57.578 0.402 7.94 31.39 9.63
5/10/2021 9:45:00 PM 14.15 57.47 0.405 7.92 45.25 9.58
5/10/2021 10:00:00 PM 14.08 57.344 0.404 7.9 37.72 9.51
5/10/2021 10:15:00 PM 14 57.2 0.419 7.9 27.04 9.47
5/10/2021 10:30:00 PM 13.92 57.056 0.415 7.89 17.95 9.43
5/10/2021 10:45:00 PM 13.84 56.912 0.399 7.89 14.56 9.38
5/10/2021 11:00:00 PM 13.77 56.786 0.413 7.88 12.51 9.35
5/10/2021 11:15:00 PM 13.69 56.642 0.46 7.87 10.14 9.3
5/10/2021 11:30:00 PM 13.61 56.498 0.377 7.86 10.13 9.26
5/10/2021 11:45:00 PM 13.53 56.354 0.378 7.85 9.44 9.21
5/11/2021 12:00:00 AM 13.47 56.246 0.39 7.84 8.44 9.18
5/11/2021 12:15:00 AM 13.41 56.138 0.38 7.83 8.06 9.14
5/11/2021 12:30:00 AM 13.36 56.048 0.38 7.83 8.25 9.1
5/11/2021 12:45:00 AM 13.31 55.958 0.381 7.82 7.94 9.06
5/11/2021 1:00:00 AM 13.26 55.868 0.381 7.81 7.99 9.03
5/11/2021 1:15:00 AM 13.21 55.778 0.382 7.8 7.28 9
5/11/2021 1:30:00 AM 13.17 55.706 0.381 7.79 6.62 8.98
5/11/2021 1:45:00 AM 13.12 55.616 0.383 7.79 6.37 8.97
5/11/2021 2:00:00 AM 13.08 55.544 0.383 7.78 6.37 8.95
5/11/2021 2:15:00 AM 13.04 55.472 0.384 7.77 8.02 8.93
5/11/2021 2:30:00 AM 13 55.4 0.384 7.77 7.15 8.91
5/11/2021 2:45:00 AM 12.95 55.31 0.393 7.76 6.29 8.9
5/11/2021 3:00:00 AM 12.89 55.202 0.385 7.76 6.56 8.89
5/11/2021 3:15:00 AM 12.84 55.112 0.386 7.76 6.87 8.88
5/11/2021 3:30:00 AM 12.79 55.022 0.386 7.76 6.95 8.87
5/11/2021 3:45:00 AM 12.75 54.95 0.387 7.75 6.38 8.87
5/11/2021 4:00:00 AM 12.71 54.878 0.387 7.75 6.27 8.87
5/11/2021 4:15:00 AM 12.67 54.806 0.387 7.75 6.85 8.87
5/11/2021 4:30:00 AM 12.62 54.716 0.386 7.74 6.5 8.87
5/11/2021 4:45:00 AM 12.57 54.626 0.382 7.74 6.58 8.87
5/11/2021 5:00:00 AM 12.53 54.554 0.388 7.74 6.91 8.87
5/11/2021 5:15:00 AM 12.49 54.482 0.388 7.74 6.7 8.88
5/11/2021 5:30:00 AM 12.44 54.392 0.388 7.73 7.08 8.88
5/11/2021 5:45:00 AM 12.39 54.302 0.389 7.74 6.02 8.89
5/11/2021 6:00:00 AM 12.33 54.194 0.388 7.73 6.15 8.91
5/11/2021 6:15:00 AM 12.27 54.086 0.388 7.73 5.93 8.92
5/11/2021 6:30:00 AM 12.21 53.978 0.387 7.73 5.75 8.94
5/11/2021 6:45:00 AM 12.16 53.888 0.388 7.73 4.92 8.98
5/11/2021 7:00:00 AM 12.12 53.816 0.388 7.74 5.05 9.03
5/11/2021 7:15:00 AM 12.1 53.78 0.388 7.74 6.25 9.08
5/11/2021 7:30:00 AM 12.1 53.78 0.388 7.75 5.12 9.16
5/11/2021 7:45:00 AM 12.12 53.816 0.388 7.76 5.17 9.24
5/11/2021 8:00:00 AM 12.15 53.87 0.388 7.76 4.36 9.34
5/11/2021 8:15:00 AM 12.19 53.942 0.387 7.78 4.45 9.46
5/11/2021 8:30:00 AM 12.25 54.05 0.387 7.79 4.89 9.59
5/11/2021 8:45:00 AM 12.3 54.14 0.388 7.8 4.36 9.72
5/11/2021 9:00:00 AM 12.37 54.266 0.387 7.82 4.19 9.86
5/11/2021 9:15:00 AM 12.43 54.374 0.387 7.84 3.8 10.03
5/11/2021 9:30:00 AM 12.51 54.518 0.386 7.85 3.69 10.18
5/11/2021 9:45:00 AM 12.59 54.662 0.386 7.87 3.72 10.31
5/11/2021 10:00:00 AM 12.68 54.824 0.385 7.88 4.03 10.44
5/11/2021 10:15:00 AM 12.78 55.004 0.386 7.9 4.2 10.57
5/11/2021 10:30:00 AM 12.89 55.202 0.385 7.92 3.78 10.69
5/11/2021 10:45:00 AM 13.02 55.436 0.383 7.93 3.8 10.8
5/11/2021 11:00:00 AM 13.16 55.688 0.382 7.95 3.9 10.92
5/11/2021 11:15:00 AM 13.32 55.976 0.381 7.97 3.76 11.03
5/11/2021 11:30:00 AM 13.49 56.282 0.379 7.99 4.33 11.16
5/11/2021 11:45:00 AM 13.7 56.66 0.376 8.01 3.81 11.29
5/11/2021 12:00:00 PM 13.93 57.074 0.412 8.03 3.96 11.42
5/11/2021 12:15:00 PM 14.16 57.488 0.398 8.06 4.04 11.57
5/11/2021 12:30:00 PM 14.2 57.56 0.412 8.07 3.96 11.59
5/11/2021 12:45:00 PM 14.31 57.758 0.412 8.1 4.66 11.74
5/11/2021 1:00:00 PM 14.45 58.01 0.397 8.12 4.63 11.85
5/11/2021 1:15:00 PM 14.53 58.154 0.385 8.14 4.88 11.95
5/11/2021 1:30:00 PM 14.7 58.46 0.397 8.16 4.09 12.01
5/11/2021 1:45:00 PM 14.9 58.82 0.397 8.19 4.35 12.14
5/11/2021 2:00:00 PM 14.9 58.82 0.392 8.2 3.86 12.12
5/11/2021 2:15:00 PM 14.9 58.82 0.397 8.21 3.8 12.12
5/11/2021 2:30:00 PM 14.8 58.64 0.389 8.19 3.93 11.95
5/11/2021 2:45:00 PM 14.69 58.442 0.458 8.17 4.13 11.77
5/11/2021 3:00:00 PM 14.55 58.19 0.411 8.17 4.42 11.69
5/11/2021 3:15:00 PM 14.47 58.046 0.397 8.16 4.1 11.64
5/11/2021 3:30:00 PM 14.56 58.208 0.397 8.17 3.88 11.72
5/11/2021 3:45:00 PM 14.72 58.496 0.457 8.19 3.81 11.79
5/11/2021 4:00:00 PM 14.87 58.766 0.388 8.2 3.89 11.85
5/11/2021 4:15:00 PM 14.96 58.928 0.392 8.21 4.19 11.83
5/11/2021 4:30:00 PM 15.06 59.108 0.392 8.22 4.61 11.84
5/11/2021 4:45:00 PM 15.1 59.18 0.396 8.22 3.9 11.8
5/11/2021 5:00:00 PM 15.13 59.234 0.396 8.24 4.06 11.81
5/11/2021 5:15:00 PM 15.1 59.18 0.397 8.23 4.43 11.72
5/11/2021 5:30:00 PM 15.08 59.144 0.397 8.23 4.83 11.62
5/11/2021 5:45:00 PM 14.98 58.964 0.397 8.21 3.9 11.47
5/11/2021 6:00:00 PM 14.88 58.784 0.398 8.18 3.71 11.29
5/11/2021 6:15:00 PM 14.8 58.64 0.393 8.16 4.05 11.14
5/11/2021 6:30:00 PM 14.72 58.496 0.393 8.14 3.87 10.97
5/11/2021 6:45:00 PM 14.61 58.298 0.393 8.11 4.02 10.8
5/11/2021 7:00:00 PM 14.53 58.154 0.398 8.09 4.15 10.64
5/11/2021 7:15:00 PM 14.46 58.028 0.413 8.06 6.4 10.49
5/11/2021 7:30:00 PM 14.42 57.956 0.399 8.04 4.01 10.35
5/11/2021 7:45:00 PM 14.38 57.884 0.399 8.02 4.08 10.22
5/11/2021 8:00:00 PM 14.35 57.83 0.399 7.99 4.28 10.09
5/11/2021 8:15:00 PM 14.32 57.776 0.395 7.98 4.07 9.97
5/11/2021 8:30:00 PM 14.27 57.686 0.4 7.96 4.58 9.86
5/11/2021 8:45:00 PM 14.21 57.578 0.414 7.95 4.38 9.77
5/11/2021 9:00:00 PM 14.14 57.452 0.415 7.93 4.55 9.7
5/11/2021 9:15:00 PM 14.06 57.308 0.4 7.92 4.52 9.63
5/11/2021 9:30:00 PM 13.99 57.182 0.401 7.91 8.29 9.57
5/11/2021 9:45:00 PM 13.91 57.038 0.401 7.9 5.09 9.53
5/11/2021 10:00:00 PM 13.83 56.894 0.415 7.9 4.8 9.5
5/11/2021 10:15:00 PM 13.76 56.768 0.376 7.89 4.84 9.45
5/11/2021 10:30:00 PM 13.67 56.606 0.416 7.88 5.93 9.41
5/11/2021 10:45:00 PM 13.59 56.462 0.463 7.87 6.13 9.37
5/11/2021 11:00:00 PM 13.51 56.318 0.464 7.87 5.26 9.34
5/11/2021 11:15:00 PM 13.44 56.192 0.416 7.86 5.95 9.29
5/11/2021 11:30:00 PM 13.36 56.048 0.464 7.85 7.37 9.26
5/11/2021 11:45:00 PM 13.28 55.904 0.393 7.85 6.27 9.22
5/12/2021 12:00:00 AM 13.21 55.778 0.381 7.84 6.05 9.19
5/12/2021 12:15:00 AM 13.14 55.652 0.465 7.83 6.48 9.16
5/12/2021 12:30:00 AM 13.07 55.526 0.394 7.82 6.45 9.13
5/12/2021 12:45:00 AM 13 55.4 0.384 7.82 6.25 9.1
5/12/2021 1:00:00 AM 12.93 55.274 0.384 7.81 6.6 9.08
5/12/2021 1:15:00 AM 12.86 55.148 0.385 7.8 5.88 9.05
5/12/2021 1:30:00 AM 12.79 55.022 0.385 7.8 6.37 9.04
5/12/2021 1:45:00 AM 12.73 54.914 0.387 7.8 7.83 9.02
5/12/2021 2:00:00 AM 12.67 54.806 0.387 7.79 6.59 9.01
5/12/2021 2:15:00 AM 12.6 54.68 0.388 7.79 7.47 8.99
5/12/2021 2:30:00 AM 12.54 54.572 0.389 7.78 6.43 8.98
5/12/2021 2:45:00 AM 12.48 54.464 0.389 7.77 6.51 8.98
5/12/2021 3:00:00 AM 12.42 54.356 0.39 7.77 6.87 8.97
5/12/2021 3:15:00 AM 12.36 54.248 0.39 7.77 6.19 8.96
5/12/2021 3:30:00 AM 12.31 54.158 0.389 7.77 6.5 8.96
5/12/2021 3:45:00 AM 12.25 54.05 0.391 7.77 6.54 8.96
5/12/2021 4:00:00 AM 12.18 53.924 0.392 7.76 7.01 8.96
5/12/2021 4:15:00 AM 12.12 53.816 0.391 7.76 6.93 8.97
5/12/2021 4:30:00 AM 12.06 53.708 0.392 7.76 7.69 8.98
5/12/2021 4:45:00 AM 12 53.6 0.391 7.76 6.25 8.98
5/12/2021 5:00:00 AM 11.95 53.51 0.392 7.76 6.35 8.99
5/12/2021 5:15:00 AM 11.89 53.402 0.391 7.75 5.98 8.99
5/12/2021 5:30:00 AM 11.84 53.312 0.391 7.75 5.47 9
5/12/2021 5:45:00 AM 11.78 53.204 0.391 7.75 5.96 9
5/12/2021 6:00:00 AM 11.71 53.078 0.392 7.75 5.42 9.02
5/12/2021 6:15:00 AM 11.66 52.988 0.391 7.75 5.52 9.04
5/12/2021 6:30:00 AM 11.61 52.898 0.39 7.75 4.86 9.07
5/12/2021 6:45:00 AM 11.57 52.826 0.391 7.75 5.02 9.11
5/12/2021 7:00:00 AM 11.56 52.808 0.391 7.76 4.63 9.15
5/12/2021 7:15:00 AM 11.55 52.79 0.391 7.76 4.73 9.22
5/12/2021 7:30:00 AM 11.55 52.79 0.391 7.77 4.57 9.29
5/12/2021 7:45:00 AM 11.56 52.808 0.391 7.77 4.46 9.37
5/12/2021 8:00:00 AM 11.56 52.808 0.391 7.78 4.19 9.47
5/12/2021 8:15:00 AM 11.57 52.826 0.392 7.79 3.89 9.58
5/12/2021 8:30:00 AM 11.59 52.862 0.392 7.81 3.95 9.73
5/12/2021 8:45:00 AM 11.63 52.934 0.39 7.82 4.05 9.87
5/12/2021 9:00:00 AM 11.68 53.024 0.39 7.83 3.94 10.02
5/12/2021 9:15:00 AM 11.74 53.132 0.391 7.85 3.75 10.17
5/12/2021 9:30:00 AM 11.83 53.294 0.39 7.87 3.59 10.33
5/12/2021 9:45:00 AM 11.92 53.456 0.39 7.88 3.69 10.46
5/12/2021 10:00:00 AM 12.01 53.618 0.39 7.9 3.75 10.59
5/12/2021 10:15:00 AM 12.13 53.834 0.39 7.91 3.85 10.71
5/12/2021 10:30:00 AM 12.26 54.068 0.39 7.93 3.49 10.83
5/12/2021 10:45:00 AM 12.4 54.32 0.388 7.94 3.41 10.95
5/12/2021 11:00:00 AM 12.55 54.59 0.389 7.96 3.31 11.07
5/12/2021 11:15:00 AM 12.73 54.914 0.386 7.97 3.5 11.18
5/12/2021 11:30:00 AM 12.94 55.292 0.383 7.99 3.72 11.31
5/12/2021 11:45:00 AM 13.16 55.688 0.382 8.01 3.47 11.44
5/12/2021 12:00:00 PM 13.37 56.066 0.416 8.03 3.63 11.54
5/12/2021 12:15:00 PM 13.62 56.516 0.463 8.06 3.45 11.67
5/12/2021 12:30:00 PM 13.84 56.912 0.401 8.08 3.65 11.76
5/12/2021 12:45:00 PM 14.07 57.326 0.401 8.1 3.76 11.85
5/12/2021 1:00:00 PM 14.33 57.794 0.415 8.12 3.84 11.98
5/12/2021 1:15:00 PM 14.57 58.226 0.396 8.14 3.66 12.07
5/12/2021 1:30:00 PM 14.82 58.676 0.415 8.16 3.86 12.15
5/12/2021 1:45:00 PM 15.06 59.108 0.395 8.18 3.97 12.23
5/12/2021 2:00:00 PM 15.25 59.45 0.395 8.2 4.23 12.28
5/12/2021 2:15:00 PM 15.46 59.828 0.393 8.21 4.56 12.33
5/12/2021 2:30:00 PM 15.63 60.134 0.395 8.23 5.17 12.36
5/12/2021 2:45:00 PM 15.77 60.386 0.392 8.24 4.77 12.36
5/12/2021 3:00:00 PM 15.82 60.476 0.393 8.24 4.88 12.31
5/12/2021 3:15:00 PM 15.76 60.368 0.393 8.24 4.47 12.2
5/12/2021 3:30:00 PM 15.86 60.548 0.394 8.25 4.93 12.2
5/12/2021 3:45:00 PM 15.82 60.476 0.392 8.24 4.71 12.11
5/12/2021 4:00:00 PM 15.75 60.35 0.393 8.23 4.79 12.02
5/12/2021 4:15:00 PM 15.62 60.116 0.395 8.22 5.45 11.89
5/12/2021 4:30:00 PM 15.53 59.954 0.399 8.21 5.16 11.75
5/12/2021 4:45:00 PM 15.52 59.936 0.399 8.2 6.29 11.71
5/12/2021 5:00:00 PM 15.43 59.774 0.394 8.19 5.54 11.57
5/12/2021 5:15:00 PM 15.38 59.684 0.399 8.18 4.82 11.47
5/12/2021 5:30:00 PM 15.4 59.72 0.391 8.17 4.58 11.39
5/12/2021 5:45:00 PM 15.41 59.738 0.399 8.16 5.11 11.28
5/12/2021 6:00:00 PM 15.37 59.666 0.4 8.13 4.28 11.1
5/12/2021 6:15:00 PM 15.38 59.684 0.396 8.12 4.3 10.96
5/12/2021 6:30:00 PM 15.35 59.63 0.396 8.09 5.14 10.78
5/12/2021 6:45:00 PM 15.33 59.594 0.401 8.07 5.1 10.61
5/12/2021 7:00:00 PM 15.34 59.612 0.395 8.05 4.8 10.47
5/12/2021 7:15:00 PM 15.33 59.594 0.395 8.04 4.96 10.34
5/12/2021 7:30:00 PM 15.32 59.576 0.395 8.01 5.95 10.2
5/12/2021 7:45:00 PM 15.29 59.522 0.397 8 4.96 10.05
5/12/2021 8:00:00 PM 15.26 59.468 0.396 7.98 6.59 9.92
5/12/2021 8:15:00 PM 15.23 59.414 0.398 7.96 6.36 9.8
5/12/2021 8:30:00 PM 15.18 59.324 0.396 7.94 6.29 9.68
5/12/2021 8:45:00 PM 15.11 59.198 0.398 7.93 6.29 9.58
5/12/2021 9:00:00 PM 15.03 59.054 0.398 7.91 5.69 9.48
5/12/2021 9:15:00 PM 14.95 58.91 0.399 7.9 6.73 9.41
5/12/2021 9:30:00 PM 14.86 58.748 0.396 7.89 6.43 9.34
5/12/2021 9:45:00 PM 14.76 58.568 0.404 7.88 6.75 9.28
5/12/2021 10:00:00 PM 14.67 58.406 0.396 7.87 5.75 9.23
5/12/2021 10:15:00 PM 14.58 58.244 0.396 7.87 5.71 9.2
5/12/2021 10:30:00 PM 14.49 58.082 0.399 7.86 5.98 9.15
5/12/2021 10:45:00 PM 14.4 57.92 0.399 7.85 7.27 9.12
5/12/2021 11:00:00 PM 14.3 57.74 0.4 7.84 6.42 9.09
5/12/2021 11:15:00 PM 14.21 57.578 0.399 7.84 6.93 9.06
5/12/2021 11:30:00 PM 14.11 57.398 0.4 7.83 6.34 9.03
5/12/2021 11:45:00 PM 14.02 57.236 0.419 7.82 7.34 9
5/13/2021 12:00:00 AM 13.93 57.074 0.419 7.82 7.03 8.98
5/13/2021 12:15:00 AM 13.84 56.912 0.405 7.81 8.4 8.95
5/13/2021 12:30:00 AM 13.76 56.768 0.419 7.81 7.05 8.92
5/13/2021 12:45:00 AM 13.67 56.606 0.419 7.8 6.84 8.9
5/13/2021 1:00:00 AM 13.58 56.444 0.405 7.79 6.3 8.87
5/13/2021 1:15:00 AM 13.5 56.3 0.405 7.79 6.95 8.86
5/13/2021 1:30:00 AM 13.43 56.174 0.405 7.78 7.1 8.83
5/13/2021 1:45:00 AM 13.36 56.048 0.405 7.78 6.08 8.82
5/13/2021 2:00:00 AM 13.29 55.922 0.468 7.77 6.63 8.81
5/13/2021 2:15:00 AM 13.21 55.778 0.42 7.77 7.01 8.79
5/13/2021 2:30:00 AM 13.14 55.652 0.468 7.76 6.52 8.78
5/13/2021 2:45:00 AM 13.07 55.526 0.398 7.76 6.49 8.78
5/13/2021 3:00:00 AM 13 55.4 0.468 7.76 7.41 8.78
5/13/2021 3:15:00 AM 12.92 55.256 0.469 7.75 7.03 8.77
5/13/2021 3:30:00 AM 12.85 55.13 0.469 7.75 6.79 8.77
5/13/2021 3:45:00 AM 12.78 55.004 0.385 7.75 6.91 8.78
5/13/2021 4:00:00 AM 12.7 54.86 0.387 7.74 6.87 8.78
5/13/2021 4:15:00 AM 12.63 54.734 0.386 7.74 6.98 8.79
5/13/2021 4:30:00 AM 12.56 54.608 0.388 7.74 6.79 8.79
5/13/2021 4:45:00 AM 12.48 54.464 0.388 7.74 7.21 8.8
5/13/2021 5:00:00 AM 12.42 54.356 0.389 7.74 7.28 8.81
5/13/2021 5:15:00 AM 12.35 54.23 0.389 7.74 6.73 8.82
5/13/2021 5:30:00 AM 12.28 54.104 0.391 7.74 6.23 8.83
5/13/2021 5:45:00 AM 12.21 53.978 0.391 7.74 6.49 8.84
5/13/2021 6:00:00 AM 12.14 53.852 0.392 7.73 5.88 8.85
5/13/2021 6:15:00 AM 12.08 53.744 0.393 7.73 5.94 8.88
5/13/2021 6:30:00 AM 12.02 53.636 0.393 7.74 5.3 8.91
5/13/2021 6:45:00 AM 11.97 53.546 0.392 7.74 5.54 8.95
5/13/2021 7:00:00 AM 11.94 53.492 0.395 7.74 4.73 9
5/13/2021 7:15:00 AM 11.92 53.456 0.393 7.74 4.89 9.06
5/13/2021 7:30:00 AM 11.93 53.474 0.393 7.75 4.58 9.14
5/13/2021 7:45:00 AM 11.94 53.492 0.394 7.75 4.43 9.22
5/13/2021 8:00:00 AM 11.98 53.564 0.392 7.76 4.62 9.32
5/13/2021 8:15:00 AM 12.04 53.672 0.393 7.77 4.39 9.43
5/13/2021 8:30:00 AM 12.12 53.816 0.392 7.79 4.39 9.56
5/13/2021 8:45:00 AM 12.2 53.96 0.392 7.8 4.03 9.7
5/13/2021 9:00:00 AM 12.28 54.104 0.392 7.82 4.15 9.84
5/13/2021 9:15:00 AM 12.36 54.248 0.39 7.83 4.27 10
5/13/2021 9:30:00 AM 12.45 54.41 0.389 7.85 4.31 10.16
5/13/2021 9:45:00 AM 12.53 54.554 0.388 7.86 3.87 10.3
5/13/2021 10:00:00 AM 12.63 54.734 0.396 7.88 3.71 10.43
5/13/2021 10:15:00 AM 12.74 54.932 0.386 7.9 4.06 10.56
5/13/2021 10:30:00 AM 12.86 55.148 0.467 7.92 3.99 10.69
5/13/2021 10:45:00 AM 13 55.4 0.396 7.93 4.06 10.82
5/13/2021 11:00:00 AM 13.15 55.67 0.466 7.94 9.38 10.94
5/13/2021 11:15:00 AM 13.32 55.976 0.419 7.96 8.17 11.04
5/13/2021 11:30:00 AM 13.52 56.336 0.418 7.98 8.25 11.16
5/13/2021 11:45:00 AM 13.74 56.732 0.418 8 7.37 11.3
5/13/2021 12:00:00 PM 13.98 57.164 0.398 8.02 5.97 11.45
5/13/2021 12:15:00 PM 14.01 57.218 0.398 8.03 5.08 11.43
5/13/2021 12:30:00 PM 14.29 57.722 0.403 8.05 4.03 11.6
5/13/2021 12:45:00 PM 14.42 57.956 0.402 8.07 5.45 11.67
5/13/2021 1:00:00 PM 14.6 58.28 0.402 8.09 4.04 11.78
5/13/2021 1:15:00 PM 14.91 58.838 0.402 8.12 4.29 11.94
5/13/2021 1:30:00 PM 15.2 59.36 0.396 8.14 4.27 12.05
5/13/2021 1:45:00 PM 15.35 59.63 0.397 8.16 4.46 12.07
5/13/2021 2:00:00 PM 15.58 60.044 0.397 8.18 5.29 12.15
5/13/2021 2:15:00 PM 15.73 60.314 0.395 8.19 4.41 12.16
5/13/2021 2:30:00 PM 15.9 60.62 0.401 8.21 4.5 12.2
5/13/2021 2:45:00 PM 15.94 60.692 0.401 8.21 4.61 12.16
5/13/2021 3:00:00 PM 16.07 60.926 0.393 8.22 4.31 12.16
5/13/2021 3:15:00 PM 16.16 61.088 0.394 8.22 4.33 12.14
5/13/2021 3:30:00 PM 16.25 61.25 0.394 8.23 5.65 12.14
5/13/2021 3:45:00 PM 16.28 61.304 0.393 8.24 5.71 12.1
5/13/2021 4:00:00 PM 16.3 61.34 0.393 8.24 6 12.05
5/13/2021 4:15:00 PM 16.33 61.394 0.394 8.24 5.02 12.01
5/13/2021 4:30:00 PM 16.34 61.412 0.394 8.24 5.29 11.99
5/13/2021 4:45:00 PM 16.36 61.448 0.396 8.24 30.95 11.96
5/13/2021 5:00:00 PM 16.33 61.394 0.394 8.24 8.07 11.88
5/13/2021 5:15:00 PM 16.28 61.304 0.396 8.22 10.07 11.72
5/13/2021 5:30:00 PM 16.27 61.286 0.395 8.21 8.25 11.62
5/13/2021 5:45:00 PM 16.19 61.142 0.394 8.18 7.99 11.38
5/13/2021 6:00:00 PM 16.13 61.034 0.395 8.16 7.67 11.24
5/13/2021 6:15:00 PM 16.11 60.998 0.397 8.14 6.58 11.08
5/13/2021 6:30:00 PM 16.04 60.872 0.398 8.12 6.22 10.87
5/13/2021 6:45:00 PM 15.99 60.782 0.396 8.09 6.3 10.69
5/13/2021 7:00:00 PM 15.97 60.746 0.398 8.07 5.88 10.5
5/13/2021 7:15:00 PM 15.93 60.674 0.395 8.04 6.06 10.32
5/13/2021 7:30:00 PM 15.9 60.62 0.399 8.02 5.86 10.16
5/13/2021 7:45:00 PM 15.88 60.584 0.399 7.99 5.49 10
5/13/2021 8:00:00 PM 15.86 60.548 0.396 7.98 5.59 9.86
5/13/2021 8:15:00 PM 15.84 60.512 0.398 7.96 6.32 9.71
5/13/2021 8:30:00 PM 15.83 60.494 0.398 7.94 5.71 9.59
5/13/2021 8:45:00 PM 15.8 60.44 0.401 7.92 7.75 9.47
5/13/2021 9:00:00 PM 15.78 60.404 0.399 7.91 6.55 9.36
5/13/2021 9:15:00 PM 15.75 60.35 0.401 7.89 6.4 9.26
5/13/2021 9:30:00 PM 15.71 60.278 0.402 7.88 6.32 9.19
5/13/2021 9:45:00 PM 15.67 60.206 0.402 7.87 6.5 9.13
5/13/2021 10:00:00 PM 15.61 60.098 0.4 7.86 6.69 9.06
5/13/2021 10:15:00 PM 15.55 59.99 0.4 7.85 10.88 9
5/13/2021 10:30:00 PM 15.48 59.864 0.4 7.85 6.84 8.95
5/13/2021 10:45:00 PM 15.4 59.72 0.4 7.84 6.29 8.9
5/13/2021 11:00:00 PM 15.32 59.576 0.4 7.83 7.02 8.86
5/13/2021 11:15:00 PM 15.22 59.396 0.4 7.82 7.92 8.83
5/13/2021 11:30:00 PM 15.13 59.234 0.402 7.82 7.47 8.8
5/13/2021 11:45:00 PM 15.03 59.054 0.399 7.81 6.74 8.76
5/14/2021 12:00:00 AM 14.94 58.892 0.402 7.81 6.51 8.73
5/14/2021 12:15:00 AM 14.86 58.748 0.4 7.8 6.29 8.7
5/14/2021 12:30:00 AM 14.78 58.604 0.403 7.79 7.24 8.67
5/14/2021 12:45:00 AM 14.71 58.478 0.403 7.79 7.85 8.63
5/14/2021 1:00:00 AM 14.64 58.352 0.408 7.78 6.09 8.61
5/14/2021 1:15:00 AM 14.55 58.19 0.403 7.77 8.29 8.59
5/14/2021 1:30:00 AM 14.47 58.046 0.403 7.77 7.61 8.57
5/14/2021 1:45:00 AM 14.38 57.884 0.401 7.76 8.27 8.55
5/14/2021 2:00:00 AM 14.29 57.722 0.403 7.76 8.22 8.54
5/14/2021 2:15:00 AM 14.2 57.56 0.408 7.75 8.27 8.52
5/14/2021 2:30:00 AM 14.12 57.416 0.408 7.75 8.26 8.51
5/14/2021 2:45:00 AM 14.03 57.254 0.404 7.75 7.77 8.5
5/14/2021 3:00:00 AM 13.95 57.11 0.403 7.74 10.74 8.5
5/14/2021 3:15:00 AM 13.87 56.966 0.408 7.74 8.34 8.5
5/14/2021 3:30:00 AM 13.79 56.822 0.408 7.74 7.86 8.5
5/14/2021 3:45:00 AM 13.71 56.678 0.409 7.74 7.71 8.5
5/14/2021 4:00:00 AM 13.65 56.57 0.404 7.73 7.53 8.5
5/14/2021 4:15:00 AM 13.58 56.444 0.423 7.73 8.82 8.5
5/14/2021 4:30:00 AM 13.51 56.318 0.423 7.73 9.81 8.5
5/14/2021 4:45:00 AM 13.45 56.21 0.409 7.72 9.25 8.5
5/14/2021 5:00:00 AM 13.39 56.102 0.423 7.72 9.13 8.5
5/14/2021 5:15:00 AM 13.32 55.976 0.471 7.72 10.09 8.51
5/14/2021 5:30:00 AM 13.26 55.868 0.409 7.72 8.5 8.52
5/14/2021 5:45:00 AM 13.19 55.742 0.424 7.72 9.86 8.53
5/14/2021 6:00:00 AM 13.13 55.634 0.424 7.72 7.91 8.55
5/14/2021 6:15:00 AM 13.06 55.508 0.424 7.72 7.87 8.57
5/14/2021 6:30:00 AM 13 55.4 0.424 7.72 8.42 8.59
5/14/2021 6:45:00 AM 12.95 55.31 0.472 7.72 7.64 8.63
5/14/2021 7:00:00 AM 12.92 55.256 0.409 7.72 7.35 8.68
5/14/2021 7:15:00 AM 12.9 55.22 0.471 7.73 7.12 8.74
5/14/2021 7:30:00 AM 12.91 55.238 0.423 7.73 7.73 8.81
5/14/2021 7:45:00 AM 12.92 55.256 0.471 7.74 7.33 8.88
5/14/2021 8:00:00 AM 12.97 55.346 0.423 7.74 7.3 8.97
5/14/2021 8:15:00 AM 13.03 55.454 0.471 7.75 7.01 9.08
5/14/2021 8:30:00 AM 13.1 55.58 0.423 7.77 7.32 9.19
5/14/2021 8:45:00 AM 13.19 55.742 0.408 7.78 7 9.32
5/14/2021 9:00:00 AM 13.28 55.904 0.422 7.79 6.84 9.45
5/14/2021 9:15:00 AM 13.37 56.066 0.422 7.81 6.99 9.59
5/14/2021 9:30:00 AM 13.48 56.264 0.421 7.82 6.49 9.74
5/14/2021 9:45:00 AM 13.58 56.444 0.407 7.84 6.45 9.88
5/14/2021 10:00:00 AM 13.69 56.642 0.421 7.85 6.81 10.01
5/14/2021 10:15:00 AM 13.82 56.876 0.398 7.87 7.01 10.13
5/14/2021 10:30:00 AM 13.96 57.128 0.406 7.88 8.09 10.26
5/14/2021 10:45:00 AM 14.09 57.362 0.406 7.9 7.3 10.38
5/14/2021 11:00:00 AM 14.23 57.614 0.406 7.91 6.69 10.5
5/14/2021 11:15:00 AM 14.4 57.92 0.405 7.93 6.72 10.64
5/14/2021 11:30:00 AM 14.6 58.28 0.4 7.95 6.61 10.79
5/14/2021 11:45:00 AM 14.74 58.532 0.4 7.97 6.56 10.87
5/14/2021 12:00:00 PM 14.81 58.658 0.4 7.98 7.4 10.89
5/14/2021 12:15:00 PM 14.93 58.874 0.405 7.99 6.68 10.98
5/14/2021 12:30:00 PM 15 59 0.4 8 6.96 11.05
5/14/2021 12:45:00 PM 15.12 59.216 0.4 8.01 6.7 11.12
5/14/2021 1:00:00 PM 15.39 59.702 0.399 8.04 6.85 11.28
5/14/2021 1:15:00 PM 15.76 60.368 0.397 8.07 6.81 11.46
5/14/2021 1:30:00 PM 16.06 60.908 0.395 8.09 6.66 11.57
5/14/2021 1:45:00 PM 16.46 61.628 0.396 8.13 7.83 11.74
5/14/2021 2:00:00 PM 16.54 61.772 0.396 8.13 8.99 11.67
5/14/2021 2:15:00 PM 16.58 61.844 0.396 8.13 12.95 11.63
5/14/2021 2:30:00 PM 16.66 61.988 0.396 8.14 7.7 11.63
5/14/2021 2:45:00 PM 16.71 62.078 0.396 8.15 66.86 11.62
5/14/2021 3:00:00 PM 16.82 62.276 0.396 8.16 7.83 11.63
5/14/2021 3:15:00 PM 16.9 62.42 0.395 8.15 8.27 11.57
5/14/2021 3:30:00 PM 16.98 62.564 0.395 8.15 10.79 11.54
5/14/2021 3:45:00 PM 17.05 62.69 0.395 8.16 9.87 11.54
5/14/2021 4:00:00 PM 17.12 62.816 0.395 8.16 8.52 11.52
5/14/2021 4:15:00 PM 17.12 62.816 0.395 8.17 7.91 11.46
5/14/2021 4:30:00 PM 17.07 62.726 0.396 8.14 7.45 11.3
5/14/2021 4:45:00 PM 17.08 62.744 0.396 8.14 7.63 11.26
5/14/2021 5:00:00 PM 17.01 62.618 0.397 8.13 9.53 11.11
5/14/2021 5:15:00 PM 17.01 62.618 0.396 8.12 7.26 11.04
5/14/2021 5:30:00 PM 16.94 62.492 0.397 8.1 8.51 10.85
5/14/2021 5:45:00 PM 16.88 62.384 0.399 8.08 9.23 10.67
5/14/2021 6:00:00 PM 16.81 62.258 0.397 8.05 7.76 10.49
5/14/2021 6:15:00 PM 16.76 62.168 0.397 8.03 8.97 10.31
5/14/2021 6:30:00 PM 16.71 62.078 0.398 8 8.54 10.15
5/14/2021 6:45:00 PM 16.68 62.024 0.398 7.99 10.91 10.03
5/14/2021 7:00:00 PM 16.68 62.024 0.396 7.98 9.47 9.95
5/14/2021 7:15:00 PM 16.7 62.06 0.397 7.97 8.08 9.85
5/14/2021 7:30:00 PM 16.71 62.078 0.397 7.96 7.95 9.74
5/14/2021 7:45:00 PM 16.73 62.114 0.398 7.94 9.44 9.64
5/14/2021 8:00:00 PM 16.73 62.114 0.398 7.93 8.33 9.52
5/14/2021 8:15:00 PM 16.72 62.096 0.398 7.91 8.3 9.39
5/14/2021 8:30:00 PM 16.71 62.078 0.399 7.9 8.48 9.27
5/14/2021 8:45:00 PM 16.69 62.042 0.399 7.89 7.84 9.15
5/14/2021 9:00:00 PM 16.65 61.97 0.398 7.87 7.48 9.03
5/14/2021 9:15:00 PM 16.59 61.862 0.398 7.85 8.44 8.92
5/14/2021 9:30:00 PM 16.51 61.718 0.399 7.85 8.46 8.85
5/14/2021 9:45:00 PM 16.44 61.592 0.399 7.84 8.23 8.78
5/14/2021 10:00:00 PM 16.36 61.448 0.4 7.82 6.88 8.71
5/14/2021 10:15:00 PM 16.28 61.304 0.4 7.82 6.52 8.66
5/14/2021 10:30:00 PM 16.19 61.142 0.401 7.81 7.01 8.61
5/14/2021 10:45:00 PM 16.11 60.998 0.401 7.8 6.88 8.57
5/14/2021 11:00:00 PM 16.03 60.854 0.403 7.8 9.43 8.52
5/14/2021 11:15:00 PM 15.94 60.692 0.401 7.79 8.12 8.5
5/14/2021 11:30:00 PM 15.85 60.53 0.401 7.79 7.56 8.48
5/14/2021 11:45:00 PM 15.75 60.35 0.401 7.78 7.82 8.46
5/15/2021 12:00:00 AM 15.66 60.188 0.401 7.78 7.83 8.45
5/15/2021 12:15:00 AM 15.56 60.008 0.402 7.77 7.18 8.42
5/15/2021 12:30:00 AM 15.47 59.846 0.408 7.77 6.95 8.39
5/15/2021 12:45:00 AM 15.37 59.666 0.409 7.76 7.04 8.37
5/15/2021 1:00:00 AM 15.28 59.504 0.4 7.7 7.4 8.35
5/15/2021 1:15:00 AM 15.19 59.342 0.365 7.77 12.7 8.34
5/15/2021 1:30:00 AM 15.09 59.162 0.402 7.75 8.72 8.33
5/15/2021 1:45:00 AM 15 59 0.404 7.74 7.83 8.31
5/15/2021 2:00:00 AM 14.91 58.838 0.402 7.74 8.12 8.3
5/15/2021 2:15:00 AM 14.83 58.694 0.409 7.74 8.95 8.29
5/15/2021 2:30:00 AM 14.75 58.55 0.402 7.73 8.81 8.27
5/15/2021 2:45:00 AM 14.66 58.388 0.402 7.73 9.64 8.27
5/15/2021 3:00:00 AM 14.59 58.262 0.404 7.73 8.41 8.28
5/15/2021 3:15:00 AM 14.5 58.1 0.404 7.73 8.84 8.27
5/15/2021 3:30:00 AM 14.43 57.974 0.404 7.72 8.91 8.27
5/15/2021 3:45:00 AM 14.35 57.83 0.409 7.72 9.87 8.27
5/15/2021 4:00:00 AM 14.28 57.704 0.409 7.71 9.01 8.27
5/15/2021 4:15:00 AM 14.2 57.56 0.409 7.72 9.65 8.27
5/15/2021 4:30:00 AM 14.13 57.434 0.424 7.71 9.28 8.28
5/15/2021 4:45:00 AM 14.06 57.308 0.424 7.71 9.11 8.28
5/15/2021 5:00:00 AM 13.99 57.182 0.409 7.71 9.44 8.29
5/15/2021 5:15:00 AM 13.92 57.056 0.401 7.71 10.69 8.31
5/15/2021 5:30:00 AM 13.84 56.912 0.401 7.71 8.17 8.32
5/15/2021 5:45:00 AM 13.77 56.786 0.409 7.71 7.32 8.33
5/15/2021 6:00:00 AM 13.71 56.678 0.41 7.71 6.96 8.34
5/15/2021 6:15:00 AM 13.64 56.552 0.401 7.71 6.65 8.37
5/15/2021 6:30:00 AM 13.58 56.444 0.405 7.71 6.15 8.39
5/15/2021 6:45:00 AM 13.53 56.354 0.41 7.71 6.1 8.43
5/15/2021 7:00:00 AM 13.49 56.282 0.401 7.71 5.73 8.48
5/15/2021 7:15:00 AM 13.48 56.264 0.41 7.72 5.76 8.53
5/15/2021 7:30:00 AM 13.48 56.264 0.41 7.72 5.83 8.6
5/15/2021 7:45:00 AM 13.5 56.3 0.409 7.73 5.39 8.67
5/15/2021 8:00:00 AM 13.54 56.372 0.424 7.73 5.5 8.75
5/15/2021 8:15:00 AM 13.59 56.462 0.41 7.74 5.5 8.84
5/15/2021 8:30:00 AM 13.67 56.606 0.409 7.75 5.33 8.96
5/15/2021 8:45:00 AM 13.76 56.768 0.424 7.76 5.26 9.08
5/15/2021 9:00:00 AM 13.85 56.93 0.409 7.78 5.97 9.2
5/15/2021 9:15:00 AM 13.97 57.146 0.4 7.79 5.55 9.33
5/15/2021 9:30:00 AM 14.07 57.326 0.408 7.8 5.34 9.46
5/15/2021 9:45:00 AM 14.18 57.524 0.408 7.82 5.3 9.59
5/15/2021 10:00:00 AM 14.29 57.722 0.408 7.83 5 9.71
5/15/2021 10:15:00 AM 14.42 57.956 0.403 7.85 6.08 9.84
5/15/2021 10:30:00 AM 14.55 58.19 0.401 7.86 5.13 9.96
5/15/2021 10:45:00 AM 14.7 58.46 0.407 7.88 5.16 10.08
5/15/2021 11:00:00 AM 14.85 58.73 0.402 7.89 5.44 10.2
5/15/2021 11:15:00 AM 15.03 59.054 0.402 7.91 4.85 10.33
5/15/2021 11:30:00 AM 15.23 59.414 0.402 7.93 5.09 10.45
5/15/2021 11:45:00 AM 15.45 59.81 0.407 7.94 5.33 10.58
5/15/2021 12:00:00 PM 15.69 60.242 0.399 7.97 5.3 10.73
5/15/2021 12:15:00 PM 15.94 60.692 0.402 7.99 5.58 10.85
5/15/2021 12:30:00 PM 16.22 61.196 0.4 8.01 5.33 11
5/15/2021 12:45:00 PM 16.5 61.7 0.399 8.03 9.39 11.13
5/15/2021 1:00:00 PM 16.69 62.042 0.398 8.04 6.73 11.17
5/15/2021 1:15:00 PM 16.82 62.276 0.399 8.06 6.05 11.21
5/15/2021 1:30:00 PM 17.04 62.672 0.397 8.07 7.35 11.29
5/15/2021 1:45:00 PM 17.23 63.014 0.397 8.09 16.44 11.32
5/15/2021 2:00:00 PM 17.43 63.374 0.397 8.1 6.82 11.38
5/15/2021 2:15:00 PM 17.63 63.734 0.398 8.12 6.51 11.44
5/15/2021 2:30:00 PM 17.82 64.076 0.397 8.14 5.94 11.5
5/15/2021 2:45:00 PM 17.92 64.256 0.397 8.14 5.94 11.47
5/15/2021 3:00:00 PM 17.9 64.22 0.396 8.15 8.2 11.43
5/15/2021 3:15:00 PM 18.04 64.472 0.396 8.15 8.18 11.41
5/15/2021 3:30:00 PM 17.93 64.274 0.396 8.14 6.93 11.27
5/15/2021 3:45:00 PM 17.75 63.95 0.396 8.12 6.83 11.11
5/15/2021 4:00:00 PM 17.61 63.698 0.397 8.1 7.5 10.9
5/15/2021 4:15:00 PM 17.47 63.446 0.397 8.07 7.94 10.72
5/15/2021 4:30:00 PM 17.34 63.212 0.397 8.05 9.94 10.51
5/15/2021 4:45:00 PM 17.23 63.014 0.398 8.02 8.12 10.33
5/15/2021 5:00:00 PM 17.23 63.014 0.398 8.01 7.01 10.29
5/15/2021 5:15:00 PM 17.2 62.96 0.398 8 6.48 10.17
5/15/2021 5:30:00 PM 17.2 62.96 0.399 7.98 10.62 10.05
5/15/2021 5:45:00 PM 17.23 63.014 0.399 7.96 13.87 9.89
5/15/2021 6:00:00 PM 17.26 63.068 0.4 7.95 13.06 9.81
5/15/2021 6:15:00 PM 17.29 63.122 0.399 7.94 11.77 9.78
5/15/2021 6:30:00 PM 17.35 63.23 0.399 7.95 10.98 9.77
5/15/2021 6:45:00 PM 17.36 63.248 0.399 7.94 9.68 9.69
5/15/2021 7:00:00 PM 17.34 63.212 0.399 7.93 9.58 9.58
5/15/2021 7:15:00 PM 17.31 63.158 0.4 7.92 8.63 9.46
5/15/2021 7:30:00 PM 17.27 63.086 0.4 7.91 8.74 9.34
5/15/2021 7:45:00 PM 17.21 62.978 0.399 7.89 7.79 9.21
5/15/2021 8:00:00 PM 17.14 62.852 0.401 7.88 7.23 9.08
5/15/2021 8:15:00 PM 17.06 62.708 0.4 7.86 7.13 8.96
5/15/2021 8:30:00 PM 16.98 62.564 0.401 7.85 7.26 8.86
5/15/2021 8:45:00 PM 16.9 62.42 0.401 7.84 7.97 8.76
5/15/2021 9:00:00 PM 16.83 62.294 0.402 7.83 8.67 8.66
5/15/2021 9:15:00 PM 16.77 62.186 0.402 7.82 12.4 8.58
5/15/2021 9:30:00 PM 16.72 62.096 0.403 7.81 10.62 8.53
5/15/2021 9:45:00 PM 16.66 61.988 0.402 7.8 8.66 8.47
5/15/2021 10:00:00 PM 16.6 61.88 0.401 7.8 7.36 8.44
5/15/2021 10:15:00 PM 16.54 61.772 0.401 7.79 7.19 8.41
5/15/2021 10:30:00 PM 16.49 61.682 0.401 7.79 7.79 8.38
5/15/2021 10:45:00 PM 16.43 61.574 0.401 7.78 7.02 8.37
5/15/2021 11:00:00 PM 16.37 61.466 0.402 7.78 7.39 8.35
5/15/2021 11:15:00 PM 16.3 61.34 0.402 7.77 6.62 8.33
5/15/2021 11:30:00 PM 16.24 61.232 0.401 7.77 6.97 8.29
5/15/2021 11:45:00 PM 16.16 61.088 0.401 7.76 8.27 8.27
5/16/2021 12:00:00 AM 16.09 60.962 0.403 7.76 7.87 8.26
5/16/2021 12:15:00 AM 16 60.8 0.402 7.76 8.57 8.24
5/16/2021 12:30:00 AM 15.91 60.638 0.404 7.75 8.67 8.23
5/16/2021 12:45:00 AM 15.83 60.494 0.403 7.75 8.03 8.21
5/16/2021 1:00:00 AM 15.73 60.314 0.402 7.74 8.06 8.21
5/16/2021 1:15:00 AM 15.65 60.17 0.403 7.74 6.8 8.2
5/16/2021 1:30:00 AM 15.56 60.008 0.403 7.74 7.68 8.19
5/16/2021 1:45:00 AM 15.48 59.864 0.405 7.74 7.21 8.18
5/16/2021 2:00:00 AM 15.4 59.72 0.404 7.73 7.13 8.16
5/16/2021 2:15:00 AM 15.33 59.594 0.405 7.73 6.78 8.15
5/16/2021 2:30:00 AM 15.26 59.468 0.403 7.73 6.86 8.15
5/16/2021 2:45:00 AM 15.19 59.342 0.403 7.73 7.33 8.14
5/16/2021 3:00:00 AM 15.13 59.234 0.402 7.72 6.94 8.15
5/16/2021 3:15:00 AM 15.07 59.126 0.404 7.72 7.13 8.14
5/16/2021 3:30:00 AM 15.02 59.036 0.404 7.72 7.06 8.13
5/16/2021 3:45:00 AM 14.98 58.964 0.406 7.72 8.58 8.13
5/16/2021 4:00:00 AM 14.93 58.874 0.404 7.71 8.28 8.13
5/16/2021 4:15:00 AM 14.89 58.802 0.404 7.71 8.87 8.12
5/16/2021 4:30:00 AM 14.84 58.712 0.411 7.71 9.51 8.13
5/16/2021 4:45:00 AM 14.79 58.622 0.402 7.71 8.71 8.14
5/16/2021 5:00:00 AM 14.75 58.55 0.404 7.71 8.6 8.13
5/16/2021 5:15:00 AM 14.7 58.46 0.404 7.71 9.07 8.14
5/16/2021 5:30:00 AM 14.64 58.352 0.402 7.71 7.57 8.15
5/16/2021 5:45:00 AM 14.58 58.244 0.404 7.7 8.48 8.15
5/16/2021 6:00:00 AM 14.53 58.154 0.406 7.71 8.67 8.16
5/16/2021 6:15:00 AM 14.48 58.064 0.404 7.7 8.15 8.18
5/16/2021 6:30:00 AM 14.44 57.992 0.41 7.71 7.2 8.21
5/16/2021 6:45:00 AM 14.41 57.938 0.402 7.71 7.24 8.25
5/16/2021 7:00:00 AM 14.39 57.902 0.406 7.71 6.79 8.31
5/16/2021 7:15:00 AM 14.38 57.884 0.41 7.72 6.88 8.37
5/16/2021 7:30:00 AM 14.38 57.884 0.41 7.72 6.49 8.45
5/16/2021 7:45:00 AM 14.41 57.938 0.405 7.73 6.22 8.56
5/16/2021 8:00:00 AM 14.44 57.992 0.405 7.74 5.85 8.67
5/16/2021 8:15:00 AM 14.48 58.064 0.403 7.75 5.77 8.78
5/16/2021 8:30:00 AM 14.52 58.136 0.403 7.76 5.44 8.89
5/16/2021 8:45:00 AM 14.57 58.226 0.405 7.77 5.39 8.99
5/16/2021 9:00:00 AM 14.61 58.298 0.403 7.78 5.5 9.09
5/16/2021 9:15:00 AM 14.64 58.352 0.405 7.79 5.1 9.17
5/16/2021 9:30:00 AM 14.68 58.424 0.409 7.8 5.53 9.27
5/16/2021 9:45:00 AM 14.71 58.478 0.409 7.81 5.24 9.38
5/16/2021 10:00:00 AM 14.73 58.514 0.403 7.82 6.09 9.48
5/16/2021 10:15:00 AM 14.75 58.55 0.408 7.83 5.94 9.55
5/16/2021 10:30:00 AM 14.77 58.586 0.403 7.84 5.45 9.65
5/16/2021 10:45:00 AM 14.79 58.622 0.403 7.86 5.49 9.74
5/16/2021 11:00:00 AM 14.81 58.658 0.408 7.87 5.72 9.82
5/16/2021 11:15:00 AM 14.86 58.748 0.407 7.88 5.74 9.99
5/16/2021 11:30:00 AM 14.89 58.802 0.403 7.89 5.79 10.07
5/16/2021 11:45:00 AM 14.93 58.874 0.403 7.9 5.79 10.13
5/16/2021 12:00:00 PM 14.99 58.982 0.401 7.92 5.64 10.24
5/16/2021 12:15:00 PM 15.02 59.036 0.399 7.92 5.79 10.29
5/16/2021 12:30:00 PM 15.07 59.126 0.399 7.94 5.42 10.38
5/16/2021 12:45:00 PM 15.15 59.27 0.399 7.95 5.52 10.49
5/16/2021 1:00:00 PM 15.21 59.378 0.399 7.96 5.11 10.56
5/16/2021 1:15:00 PM 15.3 59.54 0.4 7.98 6.37 10.64
5/16/2021 1:30:00 PM 15.41 59.738 0.4 7.99 5.45 10.74
5/16/2021 1:45:00 PM 15.52 59.936 0.402 8.01 5.14 10.85
5/16/2021 2:00:00 PM 15.69 60.242 0.401 8.03 5.23 10.98
5/16/2021 2:15:00 PM 15.76 60.368 0.398 8.04 5.53 11.01
5/16/2021 2:30:00 PM 15.84 60.512 0.399 8.05 5.89 11.06
5/16/2021 2:45:00 PM 15.93 60.674 0.401 8.06 5.92 11.07
5/16/2021 3:00:00 PM 15.99 60.782 0.399 8.07 5.96 11.07
5/16/2021 3:15:00 PM 15.99 60.782 0.399 8.07 5.94 11.05
5/16/2021 3:30:00 PM 15.96 60.728 0.4 8.07 10.05 10.97
5/16/2021 3:45:00 PM 15.93 60.674 0.401 8.05 7.08 10.86
5/16/2021 4:00:00 PM 15.91 60.638 0.4 8.04 5.79 10.78
5/16/2021 4:15:00 PM 15.83 60.494 0.4 8.03 6.11 10.63
5/16/2021 4:30:00 PM 15.77 60.386 0.399 8.01 5.8 10.49
5/16/2021 4:45:00 PM 15.71 60.278 0.399 8 5.39 10.36
5/16/2021 5:00:00 PM 15.65 60.17 0.401 7.98 5.02 10.26
5/16/2021 5:15:00 PM 15.58 60.044 0.397 7.96 5.11 10.09
5/16/2021 5:30:00 PM 15.53 59.954 0.401 7.95 4.63 9.99
5/16/2021 5:45:00 PM 15.49 59.882 0.401 7.93 4.79 9.89
5/16/2021 6:00:00 PM 15.48 59.864 0.399 7.93 5.02 9.84
5/16/2021 6:15:00 PM 15.47 59.846 0.398 7.93 4.92 9.83
5/16/2021 6:30:00 PM 15.47 59.846 0.397 7.92 4.93 9.79
5/16/2021 6:45:00 PM 15.47 59.846 0.401 7.92 5.5 9.74
5/16/2021 7:00:00 PM 15.45 59.81 0.406 7.91 5.4 9.69
5/16/2021 7:15:00 PM 15.44 59.792 0.402 7.91 4.89 9.63
5/16/2021 7:30:00 PM 15.43 59.774 0.4 7.9 5.45 9.54
5/16/2021 7:45:00 PM 15.41 59.738 0.402 7.89 5.18 9.45
5/16/2021 8:00:00 PM 15.39 59.702 0.399 7.87 5 9.35
5/16/2021 8:15:00 PM 15.36 59.648 0.402 7.86 4.88 9.25
5/16/2021 8:30:00 PM 15.33 59.594 0.407 7.85 7.04 9.15
5/16/2021 8:45:00 PM 15.29 59.522 0.399 7.84 10.42 9.07
5/16/2021 9:00:00 PM 15.26 59.468 0.403 7.83 5.88 8.99
5/16/2021 9:15:00 PM 15.22 59.396 0.401 7.82 6.13 8.92
5/16/2021 9:30:00 PM 15.19 59.342 0.401 7.82 5.56 8.88
5/16/2021 9:45:00 PM 15.16 59.288 0.403 7.81 5.99 8.83
5/16/2021 10:00:00 PM 15.13 59.234 0.401 7.8 5.73 8.8
5/16/2021 10:15:00 PM 15.09 59.162 0.403 7.8 6.31 8.77
5/16/2021 10:30:00 PM 15.05 59.09 0.403 7.8 5.94 8.74
5/16/2021 10:45:00 PM 15.01 59.018 0.403 7.79 7.5 8.72
5/16/2021 11:00:00 PM 14.96 58.928 0.403 7.79 5.7 8.7
5/16/2021 11:15:00 PM 14.92 58.856 0.4 7.78 5.8 8.67
5/16/2021 11:30:00 PM 14.87 58.766 0.403 7.78 5.84 8.65
5/16/2021 11:45:00 PM 14.83 58.694 0.399 7.78 7.78 8.63
5/17/2021 12:00:00 AM 14.79 58.622 0.408 7.77 6.4 8.62
5/17/2021 12:15:00 AM 14.75 58.55 0.403 7.76 6 8.59
5/17/2021 12:30:00 AM 14.7 58.46 0.403 7.77 6.24 8.57
5/17/2021 12:45:00 AM 14.65 58.37 0.403 7.77 6.52 8.56
5/17/2021 1:00:00 AM 14.59 58.262 0.408 7.76 6.66 8.54
5/17/2021 1:15:00 AM 14.53 58.154 0.403 7.76 7.44 8.53
5/17/2021 1:30:00 AM 14.47 58.046 0.4 7.76 6.78 8.53
5/17/2021 1:45:00 AM 14.4 57.92 0.403 7.75 6.77 8.52
5/17/2021 2:00:00 AM 14.33 57.794 0.403 7.75 9.3 8.5
5/17/2021 2:15:00 AM 14.27 57.686 0.408 7.75 7.78 8.49
5/17/2021 2:30:00 AM 14.2 57.56 0.408 7.74 7.51 8.5
5/17/2021 2:45:00 AM 14.14 57.452 0.423 7.74 7.25 8.5
5/17/2021 3:00:00 AM 14.08 57.344 0.423 7.74 8.38 8.49
5/17/2021 3:15:00 AM 14.01 57.218 0.4 7.74 8.59 8.5
5/17/2021 3:30:00 AM 13.95 57.11 0.408 7.74 7.64 8.51
5/17/2021 3:45:00 AM 13.89 57.002 0.404 7.74 8.33 8.51
5/17/2021 4:00:00 AM 13.83 56.894 0.409 7.74 7.6 8.52
5/17/2021 4:15:00 AM 13.77 56.786 0.409 7.74 8.08 8.53
5/17/2021 4:30:00 AM 13.71 56.678 0.409 7.74 9.21 8.54
5/17/2021 4:45:00 AM 13.66 56.588 0.409 7.73 7.76 8.54
5/17/2021 5:00:00 AM 13.59 56.462 0.423 7.73 8.24 8.55
5/17/2021 5:15:00 AM 13.54 56.372 0.424 7.73 9.26 8.55
5/17/2021 5:30:00 AM 13.48 56.264 0.424 7.73 8.38 8.55
5/17/2021 5:45:00 AM 13.43 56.174 0.424 7.73 9.06 8.57
5/17/2021 6:00:00 AM 13.38 56.084 0.409 7.73 7.35 8.58
5/17/2021 6:15:00 AM 13.33 55.994 0.409 7.73 6.45 8.59
5/17/2021 6:30:00 AM 13.29 55.922 0.401 7.73 6.67 8.62
5/17/2021 6:45:00 AM 13.27 55.886 0.424 7.73 8.13 8.66
5/17/2021 7:00:00 AM 13.25 55.85 0.409 7.74 6.55 8.72
5/17/2021 7:15:00 AM 13.26 55.868 0.424 7.74 6.25 8.81
5/17/2021 7:30:00 AM 13.27 55.886 0.424 7.75 6.1 8.89
5/17/2021 7:45:00 AM 13.3 55.94 0.409 7.76 6.12 8.99
5/17/2021 8:00:00 AM 13.32 55.976 0.409 7.77 6.34 9.08
5/17/2021 8:15:00 AM 13.35 56.03 0.424 7.78 5.92 9.17
5/17/2021 8:30:00 AM 13.4 56.12 0.408 7.79 6.14 9.28
5/17/2021 8:45:00 AM 13.47 56.246 0.408 7.8 5.48 9.39
5/17/2021 9:00:00 AM 13.55 56.39 0.408 7.81 5.09 9.5
5/17/2021 9:15:00 AM 13.63 56.534 0.403 7.82 5.06 9.62
5/17/2021 9:30:00 AM 13.72 56.696 0.408 7.84 5.25 9.73
5/17/2021 9:45:00 AM 13.82 56.876 0.4 7.85 5.16 9.85
5/17/2021 10:00:00 AM 13.92 57.056 0.399 7.86 4.98 9.96
5/17/2021 10:15:00 AM 14.03 57.254 0.408 7.87 5.28 10.08
5/17/2021 10:30:00 AM 14.15 57.47 0.407 7.89 5.18 10.19
5/17/2021 10:45:00 AM 14.27 57.686 0.407 7.9 5.41 10.32
5/17/2021 11:00:00 AM 14.4 57.92 0.407 7.92 5.8 10.43
5/17/2021 11:15:00 AM 14.53 58.154 0.402 7.94 5.26 10.55
5/17/2021 11:30:00 AM 14.68 58.424 0.402 7.95 6.14 10.65
5/17/2021 11:45:00 AM 14.85 58.73 0.398 7.97 5.7 10.77
5/17/2021 12:00:00 PM 15.05 59.09 0.401 7.99 5.6 10.88
5/17/2021 12:15:00 PM 15.2 59.36 0.398 8 5.35 10.95
5/17/2021 12:30:00 PM 15.39 59.702 0.398 8.01 10.6 11.01
5/17/2021 12:45:00 PM 15.53 59.954 0.399 8.03 5.6 11.08
5/17/2021 1:00:00 PM 15.72 60.296 0.398 8.04 4.25 11.14
5/17/2021 1:15:00 PM 15.9 60.62 0.399 8.05 6.15 11.2
5/17/2021 1:30:00 PM 16.11 60.998 0.398 8.07 5.53 11.27
5/17/2021 1:45:00 PM 16.19 61.142 0.398 8.07 5.86 11.24
5/17/2021 2:00:00 PM 16.33 61.394 0.398 8.08 7.38 11.26
5/17/2021 2:15:00 PM 16.51 61.718 0.397 8.08 7 11.27
5/17/2021 2:30:00 PM 16.52 61.736 0.398 8.08 7.09 11.18
5/17/2021 2:45:00 PM 16.52 61.736 0.392 8.05 7.36 11.11
5/17/2021 3:00:00 PM 16.72 62.096 0.396 8.08 6.12 11.11
5/17/2021 3:15:00 PM 16.76 62.168 0.397 8.08 6.42 11.04
5/17/2021 3:30:00 PM 16.87 62.366 0.397 8.08 7.34 11.03
5/17/2021 3:45:00 PM 16.98 62.564 0.397 8.08 7.85 11.04
5/17/2021 4:00:00 PM 17.07 62.726 0.396 8.08 7.18 11.01
5/17/2021 4:15:00 PM 17.1 62.78 0.398 8.08 6.74 10.93
5/17/2021 4:30:00 PM 17.09 62.762 0.396 8.07 6.66 10.84
5/17/2021 4:45:00 PM 17.07 62.726 0.397 8.07 6.36 10.74
5/17/2021 5:00:00 PM 17.03 62.654 0.397 8.06 6.36 10.66
5/17/2021 5:15:00 PM 16.99 62.582 0.396 8.05 5.99 10.56
5/17/2021 5:30:00 PM 16.95 62.51 0.397 8.04 6.49 10.46
5/17/2021 5:45:00 PM 16.91 62.438 0.398 8.02 7.14 10.32
5/17/2021 6:00:00 PM 16.86 62.348 0.398 8.01 6.35 10.19
5/17/2021 6:15:00 PM 16.8 62.24 0.398 7.99 6.63 10.05
5/17/2021 6:30:00 PM 16.77 62.186 0.398 7.98 6.75 9.92
5/17/2021 6:45:00 PM 16.73 62.114 0.397 7.96 6.17 9.78
5/17/2021 7:00:00 PM 16.7 62.06 0.401 7.95 6.86 9.66
5/17/2021 7:15:00 PM 16.67 62.006 0.399 7.93 7.14 9.54
5/17/2021 7:30:00 PM 16.66 61.988 0.398 7.92 6.1 9.38
5/17/2021 7:45:00 PM 16.64 61.952 0.397 7.9 6.22 9.3
5/17/2021 8:00:00 PM 16.63 61.934 0.399 7.89 6.26 9.18
5/17/2021 8:15:00 PM 16.61 61.898 0.399 7.87 5.85 9.05
5/17/2021 8:30:00 PM 16.58 61.844 0.399 7.86 6.53 8.9
5/17/2021 8:45:00 PM 16.55 61.79 0.4 7.85 6.47 8.84
5/17/2021 9:00:00 PM 16.51 61.718 0.4 7.84 6.62 8.78
5/17/2021 9:15:00 PM 16.46 61.628 0.4 7.84 6.27 8.75
5/17/2021 9:30:00 PM 16.41 61.538 0.4 7.83 8.13 8.7
5/17/2021 9:45:00 PM 16.36 61.448 0.399 7.82 6.49 8.63
5/17/2021 10:00:00 PM 16.3 61.34 0.401 7.81 7.04 8.58
5/17/2021 10:15:00 PM 16.24 61.232 0.401 7.81 7.5 8.55
5/17/2021 10:30:00 PM 16.18 61.124 0.4 7.8 7.48 8.5
5/17/2021 10:45:00 PM 16.12 61.016 0.4 7.79 9.67 8.49
5/17/2021 11:00:00 PM 16.05 60.89 0.402 7.79 8.91 8.44
5/17/2021 11:15:00 PM 15.99 60.782 0.402 7.78 7.41 8.42
5/17/2021 11:30:00 PM 15.92 60.656 0.401 7.78 7.91 8.42
5/17/2021 11:45:00 PM 15.85 60.53 0.402 7.78 7.59 8.4
5/18/2021 12:00:00 AM 15.78 60.404 0.401 7.78 8.37 8.38
5/18/2021 12:15:00 AM 15.7 60.26 0.402 7.77 9.28 8.35
5/18/2021 12:30:00 AM 15.62 60.116 0.402 7.77 7.93 8.33
5/18/2021 12:45:00 AM 15.55 59.99 0.402 7.76 9.45 8.29
5/18/2021 1:00:00 AM 15.46 59.828 0.402 7.76 8.84 8.3
5/18/2021 1:15:00 AM 15.38 59.684 0.401 7.76 7.9 8.29
5/18/2021 1:30:00 AM 15.3 59.54 0.403 7.75 9.04 8.28
5/18/2021 1:45:00 AM 15.22 59.396 0.403 7.75 7.65 8.27
5/18/2021 2:00:00 AM 15.14 59.252 0.403 7.75 8.55 8.26
5/18/2021 2:15:00 AM 15.06 59.108 0.403 7.74 9.82 8.25
5/18/2021 2:30:00 AM 14.98 58.964 0.409 7.74 9.41 8.24
5/18/2021 2:45:00 AM 14.9 58.82 0.405 7.74 9.03 8.25
5/18/2021 3:00:00 AM 14.83 58.694 0.41 7.73 9.76 8.24
5/18/2021 3:15:00 AM 14.75 58.55 0.403 7.73 10.31 8.24
5/18/2021 3:30:00 AM 14.68 58.424 0.403 7.73 8.74 8.24
5/18/2021 3:45:00 AM 14.61 58.298 0.405 7.73 7.58 8.21
5/18/2021 4:00:00 AM 14.54 58.172 0.41 7.73 8.87 8.25
5/18/2021 4:15:00 AM 14.48 58.064 0.405 7.72 10.11 8.27
5/18/2021 4:30:00 AM 14.41 57.938 0.405 7.72 8.95 8.28
5/18/2021 4:45:00 AM 14.35 57.83 0.425 7.72 10.34 8.29
5/18/2021 5:00:00 AM 14.29 57.722 0.406 7.72 8.23 8.3
5/18/2021 5:15:00 AM 14.22 57.596 0.405 7.72 7.87 8.3
5/18/2021 5:30:00 AM 14.16 57.488 0.425 7.72 7.14 8.31
5/18/2021 5:45:00 AM 14.1 57.38 0.402 7.72 7.09 8.31
5/18/2021 6:00:00 AM 14.04 57.272 0.405 7.72 8.98 8.33
5/18/2021 6:15:00 AM 13.98 57.164 0.406 7.72 6.78 8.35
5/18/2021 6:30:00 AM 13.93 57.074 0.411 7.72 6.72 8.39
5/18/2021 6:45:00 AM 13.9 57.02 0.41 7.73 6.59 8.41
5/18/2021 7:00:00 AM 13.87 56.966 0.41 7.73 6.76 8.47
5/18/2021 7:15:00 AM 13.86 56.948 0.405 7.73 10.24 8.5
5/18/2021 7:30:00 AM 13.87 56.966 0.406 7.73 8.06 8.56
5/18/2021 7:45:00 AM 13.89 57.002 0.406 7.74 6.14 8.62
5/18/2021 8:00:00 AM 13.93 57.074 0.402 7.75 8.44 8.67
5/18/2021 8:15:00 AM 13.98 57.164 0.404 7.75 11.15 8.75
5/18/2021 8:30:00 AM 14.05 57.29 0.406 7.76 6.2 8.83
5/18/2021 8:45:00 AM 14.13 57.434 0.402 7.77 5.5 8.92
5/18/2021 9:00:00 AM 14.22 57.596 0.405 7.78 5.48 9.01
5/18/2021 9:15:00 AM 14.33 57.794 0.405 7.78 5.72 9.1
5/18/2021 9:30:00 AM 14.43 57.974 0.405 7.8 5.98 9.2
5/18/2021 9:45:00 AM 14.54 58.172 0.405 7.8 5.22 9.29
5/18/2021 10:00:00 AM 14.65 58.37 0.402 7.81 5.73 9.36
5/18/2021 10:15:00 AM 14.77 58.586 0.405 7.82 6.16 9.44
5/18/2021 10:30:00 AM 14.91 58.838 0.401 7.83 9.03 9.55
5/18/2021 10:45:00 AM 15.07 59.126 0.405 7.84 8.71 9.63
5/18/2021 11:00:00 AM 15.23 59.414 0.403 7.85 8.4 9.71
5/18/2021 11:15:00 AM 15.41 59.738 0.401 7.86 6.51 9.8
5/18/2021 11:30:00 AM 15.61 60.098 0.404 7.88 5.96 9.89
5/18/2021 11:45:00 AM 15.84 60.512 0.4 7.89 6.65 9.98
5/18/2021 12:00:00 PM 16.08 60.944 0.402 7.91 6.25 10.1
5/18/2021 12:15:00 PM 16.33 61.394 0.4 7.92 6.08 10.2
5/18/2021 12:30:00 PM 16.59 61.862 0.401 7.93 6.15 10.27
5/18/2021 12:45:00 PM 16.86 62.348 0.4 7.95 6.14 10.38
5/18/2021 1:00:00 PM 17.1 62.78 0.4 7.96 7.75 10.44
5/18/2021 1:15:00 PM 17.35 63.23 0.4 7.97 7.05 10.5
5/18/2021 1:30:00 PM 17.59 63.662 0.4 7.99 5.97 10.55
5/18/2021 1:45:00 PM 17.81 64.058 0.401 8 6.13 10.57
5/18/2021 2:00:00 PM 18.01 64.418 0.4 8 6.4 10.6
5/18/2021 2:15:00 PM 18.2 64.76 0.4 8.01 6.81 10.62
5/18/2021 2:30:00 PM 18.36 65.048 0.399 8.02 7.55 10.61
5/18/2021 2:45:00 PM 18.49 65.282 0.4 8.02 8.16 10.6
5/18/2021 3:00:00 PM 18.57 65.426 0.399 8.02 11.13 10.58
5/18/2021 3:15:00 PM 18.66 65.588 0.4 8.02 9.63 10.56
5/18/2021 3:30:00 PM 18.72 65.696 0.399 8.02 8.33 10.52
5/18/2021 3:45:00 PM 18.75 65.75 0.399 8.02 8.12 10.47
5/18/2021 4:00:00 PM 18.76 65.768 0.399 8.02 11.85 10.4
5/18/2021 4:15:00 PM 18.71 65.67799 0.4 8.01 10.29 10.29
5/18/2021 4:30:00 PM 18.65 65.57 0.4 8 7.76 10.2
5/18/2021 4:45:00 PM 18.59 65.462 0.4 8 7.58 10.11
5/18/2021 5:00:00 PM 18.53 65.354 0.4 7.99 7.25 10.02
5/18/2021 5:15:00 PM 18.49 65.282 0.4 7.97 7.67 9.88
5/18/2021 5:30:00 PM 18.43 65.174 0.4 7.97 10.36 9.78
5/18/2021 5:45:00 PM 18.37 65.066 0.4 7.95 8.67 9.65
5/18/2021 6:00:00 PM 18.33 64.994 0.4 7.94 8.1 9.54
5/18/2021 6:15:00 PM 18.29 64.922 0.399 7.93 7.99 9.44
5/18/2021 6:30:00 PM 18.26 64.868 0.401 7.91 7.61 9.32
5/18/2021 6:45:00 PM 18.23 64.814 0.401 7.9 10.55 9.19
5/18/2021 7:00:00 PM 18.21 64.778 0.401 7.88 8 9.08
5/18/2021 7:15:00 PM 18.19 64.742 0.4 7.87 9.24 9
5/18/2021 7:30:00 PM 18.17 64.706 0.401 7.86 8.67 8.89
5/18/2021 7:45:00 PM 18.16 64.688 0.401 7.85 7.41 8.77
5/18/2021 8:00:00 PM 18.15 64.67 0.402 7.84 12.43 8.68
5/18/2021 8:15:00 PM 18.14 64.652 0.401 7.83 7.05 8.58
5/18/2021 8:30:00 PM 18.12 64.616 0.401 7.82 8.28 8.5
5/18/2021 8:45:00 PM 18.1 64.58 0.402 7.82 7.46 8.41
5/18/2021 9:00:00 PM 18.06 64.508 0.402 7.81 7.87 8.33
5/18/2021 9:15:00 PM 18.01 64.418 0.403 7.8 9.29 8.26
5/18/2021 9:30:00 PM 17.96 64.328 0.401 7.79 7.89 8.2
5/18/2021 9:45:00 PM 17.9 64.22 0.402 7.79 7.92 8.16
5/18/2021 10:00:00 PM 17.83 64.094 0.402 7.78 7.88 8.11
5/18/2021 10:15:00 PM 17.76 63.968 0.403 7.77 7.01 8.08
5/18/2021 10:30:00 PM 17.69 63.842 0.403 7.77 7.35 8.04
5/18/2021 10:45:00 PM 17.62 63.716 0.403 7.77 7.8 8.02
5/18/2021 11:00:00 PM 17.54 63.572 0.403 7.76 7.37 8
5/18/2021 11:15:00 PM 17.46 63.428 0.403 7.76 8.29 7.98
5/18/2021 11:30:00 PM 17.38 63.284 0.403 7.76 6.94 7.95
5/18/2021 11:45:00 PM 17.3 63.14 0.404 7.75 7.38 7.94
5/19/2021 12:00:00 AM 17.21 62.978 0.405 7.75 7.26 7.9
5/19/2021 12:15:00 AM 17.12 62.816 0.405 7.75 7.67 7.91
5/19/2021 12:30:00 AM 17.03 62.654 0.405 7.74 7.81 7.88
5/19/2021 12:45:00 AM 16.94 62.492 0.405 7.74 7.87 7.86
5/19/2021 1:00:00 AM 16.86 62.348 0.405 7.73 8.5 7.84
5/19/2021 1:15:00 AM 16.77 62.186 0.405 7.73 8.54 7.85
5/19/2021 1:30:00 AM 16.67 62.006 0.405 7.73 8.37 7.82
5/19/2021 1:45:00 AM 16.59 61.862 0.405 7.73 8.81 7.84
5/19/2021 2:00:00 AM 16.5 61.7 0.406 7.72 8.34 7.84
5/19/2021 2:15:00 AM 16.42 61.556 0.405 7.72 8.47 7.84
5/19/2021 2:30:00 AM 16.33 61.394 0.404 7.72 8.22 7.83
5/19/2021 2:45:00 AM 16.25 61.25 0.406 7.72 8.04 7.83
5/19/2021 3:00:00 AM 16.17 61.106 0.406 7.72 9.69 7.82
5/19/2021 3:15:00 AM 16.1 60.98 0.406 7.71 8.91 7.82
5/19/2021 3:30:00 AM 16.02 60.836 0.406 7.71 9.44 7.82
5/19/2021 3:45:00 AM 15.95 60.71 0.405 7.71 9.65 7.83
5/19/2021 4:00:00 AM 15.88 60.584 0.406 7.71 9.71 7.83
5/19/2021 4:15:00 AM 15.82 60.476 0.406 7.7 8.8 7.84
5/19/2021 4:30:00 AM 15.76 60.368 0.407 7.7 9.18 7.85
5/19/2021 4:45:00 AM 15.69 60.242 0.407 7.7 9.52 7.85
5/19/2021 5:00:00 AM 15.64 60.152 0.406 7.7 8.85 7.87
5/19/2021 5:15:00 AM 15.58 60.044 0.406 7.7 11.49 7.87
5/19/2021 5:30:00 AM 15.52 59.936 0.406 7.7 11.35 7.88
5/19/2021 5:45:00 AM 15.46 59.828 0.409 7.7 11.22 7.89
5/19/2021 6:00:00 AM 15.41 59.738 0.405 7.7 7.84 7.9
5/19/2021 6:15:00 AM 15.36 59.648 0.409 7.7 7.62 7.92
5/19/2021 6:30:00 AM 15.31 59.558 0.409 7.7 8.17 7.94
5/19/2021 6:45:00 AM 15.27 59.486 0.407 7.7 7.71 7.97
5/19/2021 7:00:00 AM 15.24 59.432 0.407 7.7 6.84 8.01
5/19/2021 7:15:00 AM 15.23 59.414 0.406 7.7 6.58 8.06
5/19/2021 7:30:00 AM 15.23 59.414 0.407 7.71 6.88 8.1
5/19/2021 7:45:00 AM 15.25 59.45 0.409 7.71 7.69 8.15
5/19/2021 8:00:00 AM 15.28 59.504 0.409 7.71 6.51 8.2
5/19/2021 8:15:00 AM 15.34 59.612 0.409 7.72 6.62 8.27
5/19/2021 8:30:00 AM 15.41 59.738 0.405 7.72 5.92 8.33
5/19/2021 8:45:00 AM 15.49 59.882 0.407 7.73 6.27 8.41
5/19/2021 9:00:00 AM 15.58 60.044 0.406 7.74 6.52 8.5
5/19/2021 9:15:00 AM 15.69 60.242 0.406 7.75 6.32 8.58
5/19/2021 9:30:00 AM 15.79 60.422 0.407 7.76 6.07 8.67
5/19/2021 9:45:00 AM 15.89 60.602 0.408 7.77 6.09 8.73
5/19/2021 10:00:00 AM 15.99 60.782 0.406 7.78 6.36 8.82
5/19/2021 10:15:00 AM 16.12 61.016 0.405 7.79 5.68 8.9
5/19/2021 10:30:00 AM 16.25 61.25 0.406 7.8 6.74 8.98
5/19/2021 10:45:00 AM 16.4 61.52 0.405 7.81 5.72 9.07
5/19/2021 11:00:00 AM 16.56 61.808 0.405 7.82 6.8 9.15
5/19/2021 11:15:00 AM 16.73 62.114 0.406 7.83 9.91 9.24
5/19/2021 11:30:00 AM 16.94 62.492 0.405 7.84 9.28 9.34
5/19/2021 11:45:00 AM 17.16 62.888 0.404 7.85 8.34 9.43
5/19/2021 12:00:00 PM 17.4 63.32 0.404 7.86 9.85 9.53
5/19/2021 12:15:00 PM 17.65 63.77 0.404 7.88 6.68 9.63
5/19/2021 12:30:00 PM 17.92 64.256 0.404 7.89 6.7 9.71
5/19/2021 12:45:00 PM 18.19 64.742 0.402 7.9 6.33 9.81
5/19/2021 1:00:00 PM 18.43 65.174 0.403 7.91 7.5 9.87
5/19/2021 1:15:00 PM 18.68 65.624 0.403 7.92 6.29 9.93
5/19/2021 1:30:00 PM 18.93 66.074 0.403 7.93 9.53 9.99
5/19/2021 1:45:00 PM 19.16 66.488 0.403 7.95 9.21 10.01
5/19/2021 2:00:00 PM 19.36 66.848 0.403 7.95 7.77 10.05
5/19/2021 2:15:00 PM 19.54 67.172 0.403 7.96 6.97 10.06
5/19/2021 2:30:00 PM 19.71 67.478 0.403 7.96 7.06 10.06
5/19/2021 2:45:00 PM 19.85 67.73 0.403 7.97 8.99 10.05
5/19/2021 3:00:00 PM 19.94 67.892 0.402 7.97 7.79 10.01
5/19/2021 3:15:00 PM 20.04 68.07201 0.402 7.97 9.21 9.97
5/19/2021 3:30:00 PM 20.1 68.18 0.402 7.97 9.2 9.92
5/19/2021 3:45:00 PM 20.13 68.234 0.402 7.97 8.86 9.87
5/19/2021 4:00:00 PM 20.14 68.252 0.402 7.97 8.91 9.82
5/19/2021 4:15:00 PM 20.12 68.216 0.402 7.96 12.24 9.73
5/19/2021 4:30:00 PM 20.06 68.108 0.402 7.95 12.34 9.64
5/19/2021 4:45:00 PM 20 68 0.402 7.95 8.79 9.55
5/19/2021 5:00:00 PM 19.93 67.874 0.402 7.94 8.21 9.46
5/19/2021 5:15:00 PM 19.87 67.766 0.402 7.93 9.21 9.35
5/19/2021 5:30:00 PM 19.82 67.676 0.402 7.92 12.22 9.26
5/19/2021 5:45:00 PM 19.78 67.604 0.402 7.91 10.36 9.16
5/19/2021 6:00:00 PM 19.72 67.496 0.403 7.9 11.96 9.05
5/19/2021 6:15:00 PM 19.67 67.406 0.403 7.88 8.53 8.96
5/19/2021 6:30:00 PM 19.63 67.334 0.403 7.87 12.16 8.86
5/19/2021 6:45:00 PM 19.61 67.298 0.403 7.86 7.77 8.78
5/19/2021 7:00:00 PM 19.58 67.244 0.403 7.85 9.37 8.69
5/19/2021 7:15:00 PM 19.56 67.208 0.403 7.85 6.91 8.61
5/19/2021 7:30:00 PM 19.54 67.172 0.403 7.83 7.24 8.52
5/19/2021 7:45:00 PM 19.54 67.172 0.403 7.82 6.41 8.42
5/19/2021 8:00:00 PM 19.54 67.172 0.403 7.82 7.26 8.32
5/19/2021 8:15:00 PM 19.53 67.154 0.404 7.81 9.84 8.22
5/19/2021 8:30:00 PM 19.51 67.118 0.404 7.8 4.65 8.13
5/19/2021 8:45:00 PM 19.48 67.064 0.404 7.79 7.28 8.03
5/19/2021 9:00:00 PM 19.44 66.992 0.403 7.78 7.78 7.95
5/19/2021 9:15:00 PM 19.4 66.92 0.404 7.77 7.56 7.88
5/19/2021 9:30:00 PM 19.35 66.83 0.405 7.77 7.19 7.82
5/19/2021 9:45:00 PM 19.29 66.722 0.412 7.76 12.85 7.75
5/19/2021 10:00:00 PM 19.23 66.614 0.405 7.76 7.66 7.7
5/19/2021 10:15:00 PM 19.16 66.488 0.407 7.75 6.89 7.66
5/19/2021 10:30:00 PM 19.09 66.362 0.406 7.75 7.37 7.63
5/19/2021 10:45:00 PM 19.02 66.236 0.406 7.74 6.97 7.6
5/19/2021 11:00:00 PM 18.95 66.11 0.407 7.74 7.23 7.59
5/19/2021 11:15:00 PM 18.88 65.984 0.407 7.74 6.94 7.55
5/19/2021 11:30:00 PM 18.8 65.84 0.407 7.73 6.93 7.53
5/19/2021 11:45:00 PM 18.72 65.696 0.407 7.73 18.91 7.52
5/20/2021 12:00:00 AM 18.65 65.57 0.408 7.73 8.04 7.51
5/20/2021 12:15:00 AM 18.57 65.426 0.408 7.73 7.82 7.5
5/20/2021 12:30:00 AM 18.49 65.282 0.409 7.72 8.69 7.47
5/20/2021 12:45:00 AM 18.39 65.102 0.409 7.72 8.06 7.47
5/20/2021 1:00:00 AM 18.3 64.94 0.409 7.72 7.88 7.46
5/20/2021 1:15:00 AM 18.21 64.778 0.409 7.71 7.66 7.43
5/20/2021 1:30:00 AM 18.12 64.616 0.41 7.71 7.84 7.44
5/20/2021 1:45:00 AM 18.03 64.454 0.409 7.71 8.96 7.44
5/20/2021 2:00:00 AM 17.95 64.31 0.409 7.71 8.31 7.41
5/20/2021 2:15:00 AM 17.86 64.148 0.409 7.71 9.15 7.43
5/20/2021 2:30:00 AM 17.78 64.004 0.409 7.7 8.74 7.43
5/20/2021 2:45:00 AM 17.7 63.86 0.41 7.7 9.09 7.43
5/20/2021 3:00:00 AM 17.62 63.716 0.408 7.7 8.22 7.43
5/20/2021 3:15:00 AM 17.54 63.572 0.409 7.7 8.32 7.44
5/20/2021 3:30:00 AM 17.47 63.446 0.409 7.69 8.9 7.43
5/20/2021 3:45:00 AM 17.39 63.302 0.41 7.69 9.72 7.43
5/20/2021 4:00:00 AM 17.33 63.194 0.41 7.69 9.58 7.43
5/20/2021 4:15:00 AM 17.26 63.068 0.41 7.69 9.69 7.44
5/20/2021 4:30:00 AM 17.2 62.96 0.409 7.68 8.87 7.44
5/20/2021 4:45:00 AM 17.13 62.834 0.41 7.68 9.08 7.46
5/20/2021 5:00:00 AM 17.07 62.726 0.411 7.68 8.6 7.46
5/20/2021 5:15:00 AM 17.01 62.618 0.409 7.68 9.7 7.48
5/20/2021 5:30:00 AM 16.95 62.51 0.41 7.68 8.88 7.48
5/20/2021 5:45:00 AM 16.89 62.402 0.41 7.68 8.15 7.5
5/20/2021 6:00:00 AM 16.83 62.294 0.41 7.68 8.02 7.5
5/20/2021 6:15:00 AM 16.78 62.204 0.41 7.68 8.16 7.52
5/20/2021 6:30:00 AM 16.73 62.114 0.409 7.68 8.36 7.55
5/20/2021 6:45:00 AM 16.69 62.042 0.409 7.68 7.9 7.58
5/20/2021 7:00:00 AM 16.67 62.006 0.411 7.69 8.5 7.61
5/20/2021 7:15:00 AM 16.66 61.988 0.41 7.69 8.19 7.65
5/20/2021 7:30:00 AM 16.66 61.988 0.41 7.69 7.3 7.71
5/20/2021 7:45:00 AM 16.7 62.06 0.41 7.7 7.36 7.77
5/20/2021 8:00:00 AM 16.73 62.114 0.41 7.7 8.02 7.82
5/20/2021 8:15:00 AM 16.78 62.204 0.409 7.71 7.69 7.88
5/20/2021 8:30:00 AM 16.84 62.312 0.41 7.71 7.63 7.95
5/20/2021 8:45:00 AM 16.91 62.438 0.413 7.72 7.22 8.01
5/20/2021 9:00:00 AM 16.99 62.582 0.41 7.72 8.5 8.08
5/20/2021 9:15:00 AM 17.08 62.744 0.411 7.73 8.97 8.16
5/20/2021 9:30:00 AM 17.18 62.924 0.41 7.74 8.7 8.22
5/20/2021 9:45:00 AM 17.27 63.086 0.408 7.75 8.82 8.3
5/20/2021 10:00:00 AM 17.36 63.248 0.408 7.76 9.24 8.41
5/20/2021 10:15:00 AM 17.45 63.41 0.409 7.76 9.01 8.49
5/20/2021 10:30:00 AM 17.57 63.626 0.409 7.78 7.63 8.6
5/20/2021 10:45:00 AM 17.71 63.878 0.408 7.79 8.45 8.72
5/20/2021 11:00:00 AM 17.82 64.076 0.408 7.8 9.35 8.82
5/20/2021 11:15:00 AM 17.97 64.346 0.408 7.81 9 8.93
5/20/2021 11:30:00 AM 18.08 64.544 0.408 7.83 7.73 9.04
5/20/2021 11:45:00 AM 18.24 64.832 0.408 7.84 7.67 9.15
5/20/2021 12:00:00 PM 18.46 65.228 0.408 7.85 7.54 9.23
5/20/2021 12:15:00 PM 18.66 65.588 0.408 7.86 8.59 9.32
5/20/2021 12:30:00 PM 18.92 66.056 0.407 7.88 8.27 9.41
5/20/2021 12:45:00 PM 19.2 66.56 0.408 7.89 9.53 9.46
5/20/2021 1:00:00 PM 19.46 67.028 0.408 7.89 8.2 9.52
5/20/2021 1:15:00 PM 19.7 67.46 0.407 7.9 7.37 9.56
5/20/2021 1:30:00 PM 19.94 67.892 0.407 7.91 8.83 9.58
5/20/2021 1:45:00 PM 20.17 68.306 0.407 7.92 8 9.62
5/20/2021 2:00:00 PM 20.38 68.684 0.407 7.92 9.37 9.62
5/20/2021 2:15:00 PM 20.56 69.008 0.406 7.93 9.45 9.63
5/20/2021 2:30:00 PM 20.72 69.296 0.407 7.94 9.03 9.63
5/20/2021 2:45:00 PM 20.86 69.548 0.406 7.94 9.34 9.62
5/20/2021 3:00:00 PM 20.95 69.71 0.406 7.94 8.37 9.6
5/20/2021 3:15:00 PM 21 69.8 0.406 7.94 10.81 9.53
5/20/2021 3:30:00 PM 21.03 69.854 0.406 7.94 7.94 9.49
5/20/2021 3:45:00 PM 21.07 69.926 0.406 7.94 8.35 9.46
5/20/2021 4:00:00 PM 21.06 69.908 0.406 7.93 7.88 9.41
5/20/2021 4:15:00 PM 21 69.8 0.406 7.93 7.99 9.33
5/20/2021 4:30:00 PM 20.93 69.674 0.406 7.93 7.56 9.25
5/20/2021 4:45:00 PM 20.86 69.548 0.406 7.92 7.15 9.17
5/20/2021 5:00:00 PM 20.76 69.368 0.406 7.91 10.51 9.08
5/20/2021 5:15:00 PM 20.68 69.224 0.406 7.9 9.53 8.97
5/20/2021 5:30:00 PM 20.58 69.044 0.406 7.89 9.68 8.87
5/20/2021 5:45:00 PM 20.49 68.882 0.406 7.88 8.96 8.76
5/20/2021 6:00:00 PM 20.39 68.702 0.406 7.87 8.81 8.66
5/20/2021 6:15:00 PM 20.32 68.576 0.406 7.86 8.65 8.57
5/20/2021 6:30:00 PM 20.24 68.432 0.406 7.85 9.11 8.48
5/20/2021 6:45:00 PM 20.17 68.306 0.407 7.84 6.69 8.38
5/20/2021 7:00:00 PM 20.09 68.162 0.407 7.83 7.76 8.28
5/20/2021 7:15:00 PM 20.02 68.036 0.406 7.82 6.68 8.21
5/20/2021 7:30:00 PM 19.96 67.92799 0.407 7.82 8.08 8.13
5/20/2021 7:45:00 PM 19.9 67.82 0.407 7.81 7.12 8.04
5/20/2021 8:00:00 PM 19.84 67.712 0.406 7.8 6.46 7.99
5/20/2021 8:15:00 PM 19.8 67.64 0.407 7.79 7.58 7.92
5/20/2021 8:30:00 PM 19.75 67.55 0.407 7.79 7.38 7.85
5/20/2021 8:45:00 PM 19.71 67.478 0.407 7.78 7.82 7.79
5/20/2021 9:00:00 PM 19.66 67.388 0.407 7.77 7.55 7.72
5/20/2021 9:15:00 PM 19.6 67.28 0.407 7.77 8.59 7.66
5/20/2021 9:30:00 PM 19.55 67.19 0.407 7.77 8.23 7.63
5/20/2021 9:45:00 PM 19.49 67.082 0.407 7.76 8.71 7.58
5/20/2021 10:00:00 PM 19.42 66.956 0.407 7.76 7.6 7.56
5/20/2021 10:15:00 PM 19.35 66.83 0.408 7.76 9.1 7.52
5/20/2021 10:30:00 PM 19.27 66.686 0.408 7.75 8.83 7.49
5/20/2021 10:45:00 PM 19.19 66.542 0.408 7.75 7.81 7.48
5/20/2021 11:00:00 PM 19.1 66.38 0.408 7.75 7.78 7.46
5/20/2021 11:15:00 PM 19.01 66.218 0.409 7.74 8.22 7.43
5/20/2021 11:30:00 PM 18.92 66.056 0.409 7.74 7.93 7.43
5/20/2021 11:45:00 PM 18.84 65.912 0.409 7.74 8.4 7.43
5/21/2021 12:00:00 AM 18.75 65.75 0.409 7.73 8.13 7.41
5/21/2021 12:15:00 AM 18.65 65.57 0.409 7.73 8.11 7.41
5/21/2021 12:30:00 AM 18.55 65.39 0.409 7.73 8.55 7.41
5/21/2021 12:45:00 AM 18.44 65.192 0.409 7.73 10.94 7.41
5/21/2021 1:00:00 AM 18.34 65.012 0.409 7.72 8.98 7.41
5/21/2021 1:15:00 AM 18.23 64.814 0.41 7.72 7.99 7.41
5/21/2021 1:30:00 AM 18.13 64.634 0.41 7.72 8.43 7.41
5/21/2021 1:45:00 AM 18.02 64.436 0.41 7.72 8.96 7.41
5/21/2021 2:00:00 AM 17.92 64.256 0.41 7.72 8.69 7.4
5/21/2021 2:15:00 AM 17.81 64.058 0.41 7.72 11.3 7.42
5/21/2021 2:30:00 AM 17.71 63.878 0.41 7.71 9.9 7.42
5/21/2021 2:45:00 AM 17.61 63.698 0.411 7.71 9.01 7.42
5/21/2021 3:00:00 AM 17.52 63.536 0.411 7.71 11.75 7.44
5/21/2021 3:15:00 AM 17.42 63.356 0.411 7.71 8.63 7.45
5/21/2021 3:30:00 AM 17.33 63.194 0.411 7.71 10.54 7.46
5/21/2021 3:45:00 AM 17.24 63.032 0.411 7.71 11.77 7.47
5/21/2021 4:00:00 AM 17.16 62.888 0.412 7.71 9.69 7.48
5/21/2021 4:15:00 AM 17.08 62.744 0.411 7.71 8.66 7.49
5/21/2021 4:30:00 AM 16.99 62.582 0.412 7.71 9.1 7.51
5/21/2021 4:45:00 AM 16.91 62.438 0.412 7.71 12.4 7.53
5/21/2021 5:00:00 AM 16.83 62.294 0.412 7.71 9.94 7.54
5/21/2021 5:15:00 AM 16.76 62.168 0.412 7.7 9.29 7.55
5/21/2021 5:30:00 AM 16.68 62.024 0.412 7.7 9.18 7.57
5/21/2021 5:45:00 AM 16.61 61.898 0.412 7.7 7.74 7.57
5/21/2021 6:00:00 AM 16.53 61.754 0.412 7.71 8.36 7.59
5/21/2021 6:15:00 AM 16.47 61.646 0.412 7.71 8.01 7.62
5/21/2021 6:30:00 AM 16.41 61.538 0.413 7.71 7.84 7.63
5/21/2021 6:45:00 AM 16.35 61.43 0.412 7.71 7.2 7.68
5/21/2021 7:00:00 AM 16.32 61.376 0.413 7.71 7.23 7.72
5/21/2021 7:15:00 AM 16.29 61.322 0.412 7.71 8.23 7.75
5/21/2021 7:30:00 AM 16.29 61.322 0.414 7.72 7.88 7.8
5/21/2021 7:45:00 AM 16.29 61.322 0.413 7.72 8.47 7.85
5/21/2021 8:00:00 AM 16.31 61.358 0.413 7.72 7.99 7.91
5/21/2021 8:15:00 AM 16.34 61.412 0.413 7.73 8.27 7.96
5/21/2021 8:30:00 AM 16.38 61.484 0.413 7.73 7.28 8.01
5/21/2021 8:45:00 AM 16.44 61.592 0.412 7.74 10.44 8.06
5/21/2021 9:00:00 AM 16.5 61.7 0.412 7.74 9.3 8.16
5/21/2021 9:15:00 AM 16.59 61.862 0.413 7.75 9.15 8.23
5/21/2021 9:30:00 AM 16.67 62.006 0.412 7.76 8.26 8.31
5/21/2021 9:45:00 AM 16.75 62.15 0.412 7.77 8.85 8.38
5/21/2021 10:00:00 AM 16.84 62.312 0.412 7.77 8.57 8.44
5/21/2021 10:15:00 AM 16.93 62.474 0.412 7.78 8.56 8.52
5/21/2021 10:30:00 AM 17.05 62.69 0.411 7.79 11.17 8.58
5/21/2021 10:45:00 AM 17.18 62.924 0.411 7.8 7.99 8.66
5/21/2021 11:00:00 AM 17.33 63.194 0.411 7.8 7.33 8.74
5/21/2021 11:15:00 AM 17.48 63.464 0.411 7.81 7.32 8.82
5/21/2021 11:30:00 AM 17.67 63.806 0.411 7.82 7.45 8.89
5/21/2021 11:45:00 AM 17.87 64.166 0.41 7.83 7.69 8.98
5/21/2021 12:00:00 PM 18.1 64.58 0.41 7.84 8.23 9.07
5/21/2021 12:15:00 PM 18.34 65.012 0.41 7.85 10 9.14
5/21/2021 12:30:00 PM 18.58 65.444 0.409 7.87 8.52 9.22
5/21/2021 12:45:00 PM 18.85 65.93 0.41 7.87 7.61 9.3
5/21/2021 1:00:00 PM 19.09 66.362 0.41 7.89 8.87 9.35
5/21/2021 1:15:00 PM 19.32 66.776 0.41 7.89 8.08 9.4
5/21/2021 1:30:00 PM 19.57 67.226 0.41 7.9 12.46 9.43
5/21/2021 1:45:00 PM 19.79 67.622 0.41 7.91 9.72 9.47
5/21/2021 2:00:00 PM 19.99 67.982 0.41 7.91 8.12 9.49
5/21/2021 2:15:00 PM 20.17 68.306 0.409 7.92 7.6 9.5
5/21/2021 2:30:00 PM 20.33 68.594 0.409 7.92 8.58 9.51
5/21/2021 2:45:00 PM 20.47 68.846 0.409 7.93 11.01 9.47
5/21/2021 3:00:00 PM 20.57 69.026 0.409 7.93 8.78 9.48
5/21/2021 3:15:00 PM 20.63 69.134 0.409 7.93 9.68 9.45
5/21/2021 3:30:00 PM 20.7 69.26 0.409 7.93 7.96 9.43
5/21/2021 3:45:00 PM 20.74 69.332 0.408 7.93 8.75 9.4
5/21/2021 4:00:00 PM 20.76 69.368 0.408 7.93 9.92 9.36
5/21/2021 4:15:00 PM 20.72 69.296 0.408 7.93 8.96 9.3
5/21/2021 4:30:00 PM 20.65 69.17 0.408 7.92 9.22 9.2
5/21/2021 4:45:00 PM 20.59 69.062 0.408 7.92 7.75 9.14
5/21/2021 5:00:00 PM 20.53 68.954 0.408 7.91 8.13 9.07
5/21/2021 5:15:00 PM 20.46 68.828 0.408 7.9 9.51 8.97
5/21/2021 5:30:00 PM 20.4 68.72 0.408 7.89 7.85 8.89
5/21/2021 5:45:00 PM 20.35 68.63 0.408 7.88 7.57 8.81
5/21/2021 6:00:00 PM 20.3 68.54 0.408 7.87 8.04 8.71
5/21/2021 6:15:00 PM 20.25 68.45 0.407 7.87 7.58 8.62
5/21/2021 6:30:00 PM 20.22 68.396 0.408 7.86 7.73 8.54
5/21/2021 6:45:00 PM 20.19 68.342 0.409 7.84 12.69 8.44
5/21/2021 7:00:00 PM 20.15 68.27 0.408 7.84 10.64 8.36
5/21/2021 7:15:00 PM 20.12 68.216 0.408 7.83 10.67 8.27
5/21/2021 7:30:00 PM 20.09 68.162 0.409 7.82 9.84 8.18
5/21/2021 7:45:00 PM 20.07 68.126 0.408 7.81 7.55 8.09
5/21/2021 8:00:00 PM 20.05 68.09 0.409 7.8 8.1 7.99
5/21/2021 8:15:00 PM 20.03 68.054 0.409 7.79 9.36 7.93
5/21/2021 8:30:00 PM 20.01 68.018 0.409 7.78 9.18 7.85
5/21/2021 8:45:00 PM 20 68 0.409 7.77 7.9 7.78
5/21/2021 9:00:00 PM 19.98 67.964 0.409 7.77 8.12 7.72
5/21/2021 9:15:00 PM 19.96 67.92799 0.409 7.76 10.99 7.66
5/21/2021 9:30:00 PM 19.93 67.874 0.409 7.76 10.06 7.59
5/21/2021 9:45:00 PM 19.89 67.802 0.409 7.75 12.17 7.55
5/21/2021 10:00:00 PM 19.85 67.73 0.409 7.75 8.87 7.52
5/21/2021 10:15:00 PM 19.8 67.64 0.409 7.75 8.23 7.48
5/21/2021 10:30:00 PM 19.74 67.532 0.409 7.75 8.35 7.46
5/21/2021 10:45:00 PM 19.68 67.424 0.409 7.74 8.9 7.43
5/21/2021 11:00:00 PM 19.62 67.316 0.409 7.74 7.94 7.42
5/21/2021 11:15:00 PM 19.55 67.19 0.41 7.74 8.95 7.4
5/21/2021 11:30:00 PM 19.48 67.064 0.41 7.73 8.72 7.38
5/21/2021 11:45:00 PM 19.41 66.938 0.411 7.73 8.75 7.37
5/22/2021 12:00:00 AM 19.33 66.794 0.41 7.73 7.97 7.36
5/22/2021 12:15:00 AM 19.26 66.668 0.41 7.73 8.37 7.35
5/22/2021 12:30:00 AM 19.18 66.524 0.411 7.73 8.19 7.34
5/22/2021 12:45:00 AM 19.1 66.38 0.411 7.72 9.8 7.34
5/22/2021 1:00:00 AM 19.02 66.236 0.411 7.72 8.69 7.33
5/22/2021 1:15:00 AM 18.93 66.074 0.412 7.72 8.14 7.33
5/22/2021 1:30:00 AM 18.84 65.912 0.412 7.72 8.92 7.32
5/22/2021 1:45:00 AM 18.75 65.75 0.413 7.72 9.54 7.32
5/22/2021 2:00:00 AM 18.66 65.588 0.413 7.71 9.26 7.31
5/22/2021 2:15:00 AM 18.57 65.426 0.413 7.71 9.31 7.32
5/22/2021 2:30:00 AM 18.47 65.246 0.413 7.71 9.39 7.32
5/22/2021 2:45:00 AM 18.39 65.102 0.413 7.71 10.24 7.32
5/22/2021 3:00:00 AM 18.3 64.94 0.413 7.7 10.85 7.31
5/22/2021 3:15:00 AM 18.22 64.796 0.414 7.7 10.65 7.32
5/22/2021 3:30:00 AM 18.14 64.652 0.414 7.7 10.21 7.33
5/22/2021 3:45:00 AM 18.07 64.526 0.414 7.7 10.43 7.32
5/22/2021 4:00:00 AM 18 64.4 0.414 7.7 7.89 7.32
5/22/2021 4:15:00 AM 17.93 64.274 0.414 7.7 10.28 7.33
5/22/2021 4:30:00 AM 17.87 64.166 0.415 7.7 11.81 7.35
5/22/2021 4:45:00 AM 17.81 64.058 0.414 7.69 11.98 7.34
5/22/2021 5:00:00 AM 17.75 63.95 0.414 7.69 11.23 7.36
5/22/2021 5:15:00 AM 17.69 63.842 0.414 7.69 8.72 7.37
5/22/2021 5:30:00 AM 17.64 63.752 0.414 7.69 9.5 7.37
5/22/2021 5:45:00 AM 17.58 63.644 0.413 7.69 8.34 7.38
5/22/2021 6:00:00 AM 17.53 63.554 0.413 7.69 10.23 7.4
5/22/2021 6:15:00 AM 17.48 63.464 0.414 7.69 10.49 7.4
5/22/2021 6:30:00 AM 17.44 63.392 0.414 7.69 10.35 7.43
5/22/2021 6:45:00 AM 17.41 63.338 0.413 7.69 9.32 7.45
5/22/2021 7:00:00 AM 17.39 63.302 0.414 7.69 8.78 7.49
5/22/2021 7:15:00 AM 17.39 63.302 0.414 7.7 8.19 7.52
5/22/2021 7:30:00 AM 17.39 63.302 0.414 7.7 9.74 7.58
5/22/2021 7:45:00 AM 17.41 63.338 0.414 7.71 11.7 7.64
5/22/2021 8:00:00 AM 17.46 63.428 0.413 7.71 10.09 7.7
5/22/2021 8:15:00 AM 17.52 63.536 0.414 7.72 9.76 7.78
5/22/2021 8:30:00 AM 17.59 63.662 0.414 7.73 11.56 7.85
5/22/2021 8:45:00 AM 17.66 63.788 0.414 7.73 10.58 7.93
5/22/2021 9:00:00 AM 17.72 63.896 0.413 7.74 10.45 7.99
5/22/2021 9:15:00 AM 17.81 64.058 0.414 7.75 10.85 8.09
5/22/2021 9:30:00 AM 17.9 64.22 0.412 7.76 9.99 8.18
5/22/2021 9:45:00 AM 17.97 64.346 0.412 7.77 9.68 8.26
5/22/2021 10:00:00 AM 18.07 64.526 0.413 7.78 11.89 8.34
5/22/2021 10:15:00 AM 18.18 64.724 0.414 7.79 10.81 8.44
5/22/2021 10:30:00 AM 18.27 64.886 0.413 7.79 12.03 8.5
5/22/2021 10:45:00 AM 18.4 65.12 0.413 7.81 8.85 8.59
5/22/2021 11:00:00 AM 18.53 65.354 0.412 7.81 7.08 8.66
5/22/2021 11:15:00 AM 18.68 65.624 0.412 7.82 11.51 8.74
5/22/2021 11:30:00 AM 18.82 65.876 0.412 7.83 10.48 8.81
5/22/2021 11:45:00 AM 18.97 66.146 0.412 7.84 9.74 8.9
5/22/2021 12:00:00 PM 19.14 66.452 0.412 7.86 6.43 8.97
5/22/2021 12:15:00 PM 19.29 66.722 0.411 7.86 10.66 9.04
5/22/2021 12:30:00 PM 19.47 67.046 0.411 7.87 12.06 9.1
5/22/2021 12:45:00 PM 19.71 67.478 0.411 7.88 9.11 9.17
5/22/2021 1:00:00 PM 19.92 67.856 0.41 7.89 11.39 9.21
5/22/2021 1:15:00 PM 20.14 68.252 0.41 7.9 12.14 9.27
5/22/2021 1:30:00 PM 20.28 68.504 0.41 7.91 8.57 9.28
5/22/2021 1:45:00 PM 20.37 68.666 0.41 7.91 10.21 9.26
5/22/2021 2:00:00 PM 20.43 68.774 0.41 7.91 11.35 9.24
5/22/2021 2:15:00 PM 20.45 68.81 0.409 7.91 12.13 9.21
5/22/2021 2:30:00 PM 20.49 68.882 0.41 7.92 10.33 9.22
5/22/2021 2:45:00 PM 20.54 68.972 0.409 7.92 11.75 9.2
5/22/2021 3:00:00 PM 20.5 68.9 0.41 7.92 7.67 9.16
5/22/2021 3:15:00 PM 20.48 68.864 0.409 7.92 8.03 9.11
5/22/2021 3:30:00 PM 20.47 68.846 0.408 7.91 11.25 9.04
5/22/2021 3:45:00 PM 20.45 68.81 0.409 7.91 11.03 8.97
5/22/2021 4:00:00 PM 20.44 68.792 0.408 7.91 11.64 8.96
5/22/2021 4:15:00 PM 20.41 68.738 0.409 7.9 11.51 8.91
5/22/2021 4:30:00 PM 20.43 68.774 0.408 7.9 7.69 8.89
5/22/2021 4:45:00 PM 20.4 68.72 0.409 7.9 10.47 8.8
5/22/2021 5:00:00 PM 20.41 68.738 0.408 7.89 11.64 8.75
5/22/2021 5:15:00 PM 20.41 68.738 0.409 7.89 9.79 8.68
5/22/2021 5:30:00 PM 20.4 68.72 0.408 7.88 10.7 8.61
5/22/2021 5:45:00 PM 20.4 68.72 0.409 7.87 9.96 8.54
5/22/2021 6:00:00 PM 20.4 68.72 0.408 7.86 10.35 8.46
5/22/2021 6:15:00 PM 20.4 68.72 0.409 7.86 12.07 8.39
5/22/2021 6:30:00 PM 20.4 68.72 0.408 7.85 11 8.34
5/22/2021 6:45:00 PM 20.4 68.72 0.409 7.84 14.67 8.24
5/22/2021 7:00:00 PM 20.4 68.72 0.409 7.83 12.15 8.17
5/22/2021 7:15:00 PM 20.39 68.702 0.409 7.82 9.21 8.1
5/22/2021 7:30:00 PM 20.39 68.702 0.409 7.82 11.19 8.03
5/22/2021 7:45:00 PM 20.37 68.666 0.409 7.81 8.65 7.94
5/22/2021 8:00:00 PM 20.34 68.612 0.409 7.8 12.32 7.85
5/22/2021 8:15:00 PM 20.32 68.576 0.41 7.79 7.18 7.77
5/22/2021 8:30:00 PM 20.29 68.522 0.41 7.79 6.99 7.7
5/22/2021 8:45:00 PM 20.26 68.468 0.41 7.78 10.74 7.64
5/22/2021 9:00:00 PM 20.23 68.414 0.41 7.77 10.18 7.57
5/22/2021 9:15:00 PM 20.2 68.36 0.41 7.77 10.93 7.52
5/22/2021 9:30:00 PM 20.17 68.306 0.41 7.76 9.21 7.47
5/22/2021 9:45:00 PM 20.13 68.234 0.41 7.76 10.29 7.42
5/22/2021 10:00:00 PM 20.09 68.162 0.411 7.76 10.01 7.38
5/22/2021 10:15:00 PM 20.04 68.07201 0.411 7.76 10.46 7.36
5/22/2021 10:30:00 PM 19.99 67.982 0.412 7.75 11.56 7.32
5/22/2021 10:45:00 PM 19.95 67.91 0.412 7.75 8.77 7.31
5/22/2021 11:00:00 PM 19.9 67.82 0.411 7.74 11.22 7.29
5/22/2021 11:15:00 PM 19.85 67.73 0.412 7.74 12.31 7.28
5/22/2021 11:30:00 PM 19.8 67.64 0.412 7.74 9.23 7.27
5/22/2021 11:45:00 PM 19.75 67.55 0.413 7.74 10.57 7.25
5/23/2021 12:00:00 AM 19.7 67.46 0.413 7.73 11.7 7.23
5/23/2021 12:15:00 AM 19.66 67.388 0.413 7.73 6.52 7.23
5/23/2021 12:30:00 AM 19.61 67.298 0.413 7.73 10.73 7.21
5/23/2021 12:45:00 AM 19.56 67.208 0.413 7.73 10.61 7.19
5/23/2021 1:00:00 AM 19.51 67.118 0.413 7.73 10.31 7.18
5/23/2021 1:15:00 AM 19.46 67.028 0.413 7.72 10.64 7.16
5/23/2021 1:30:00 AM 19.41 66.938 0.413 7.72 10.39 7.14
5/23/2021 1:45:00 AM 19.37 66.866 0.413 7.72 8.33 7.15
5/23/2021 2:00:00 AM 19.32 66.776 0.413 7.72 11.01 7.14
5/23/2021 2:15:00 AM 19.28 66.704 0.413 7.71 8.88 7.12
5/23/2021 2:30:00 AM 19.25 66.65 0.413 7.71 21.55 7.12
5/23/2021 2:45:00 AM 19.22 66.596 0.413 7.71 14.27 7.11
5/23/2021 3:00:00 AM 19.19 66.542 0.413 7.7 9.04 7.11
5/23/2021 3:15:00 AM 19.16 66.488 0.413 7.7 8.75 7.1
5/23/2021 3:30:00 AM 19.13 66.434 0.413 7.7 11.34 7.09
5/23/2021 3:45:00 AM 19.1 66.38 0.414 7.7 12.16 7.08
5/23/2021 4:00:00 AM 19.06 66.308 0.413 7.7 9.34 7.1
5/23/2021 4:15:00 AM 19.03 66.254 0.414 7.7 10.55 7.09
5/23/2021 4:30:00 AM 18.99 66.182 0.414 7.7 7.51 7.09
5/23/2021 4:45:00 AM 18.96 66.128 0.414 7.7 11.87 7.09
5/23/2021 5:00:00 AM 18.92 66.056 0.414 7.69 8.97 7.09
5/23/2021 5:15:00 AM 18.89 66.002 0.413 7.69 7.29 7.08
5/23/2021 5:30:00 AM 18.86 65.948 0.414 7.69 10.5 7.09
5/23/2021 5:45:00 AM 18.82 65.876 0.414 7.69 10.65 7.09
5/23/2021 6:00:00 AM 18.78 65.804 0.414 7.69 10.84 7.1
5/23/2021 6:15:00 AM 18.74 65.732 0.414 7.7 10.33 7.11
5/23/2021 6:30:00 AM 18.7 65.66 0.414 7.7 11.4 7.12
5/23/2021 6:45:00 AM 18.67 65.606 0.414 7.69 10.32 7.15
5/23/2021 7:00:00 AM 18.64 65.552 0.413 7.69 11.11 7.17
5/23/2021 7:15:00 AM 18.63 65.534 0.414 7.7 7.42 7.2
5/23/2021 7:30:00 AM 18.63 65.534 0.414 7.71 10.02 7.24
5/23/2021 7:45:00 AM 18.64 65.552 0.414 7.71 6.25 7.27
5/23/2021 8:00:00 AM 18.66 65.588 0.414 7.71 11.4 7.3
5/23/2021 8:15:00 AM 18.7 65.66 0.414 7.71 11.49 7.35
5/23/2021 8:30:00 AM 18.74 65.732 0.415 7.72 10.77 7.39
5/23/2021 8:45:00 AM 18.79 65.82201 0.414 7.72 10.58 7.45
5/23/2021 9:00:00 AM 18.85 65.93 0.414 7.73 11.49 7.49
5/23/2021 9:15:00 AM 18.93 66.074 0.414 7.73 12.67 7.56
5/23/2021 9:30:00 AM 19 66.2 0.414 7.74 11.13 7.63
5/23/2021 9:45:00 AM 19.09 66.362 0.414 7.75 6.88 7.69
5/23/2021 10:00:00 AM 19.18 66.524 0.413 7.76 11.96 7.74
5/23/2021 10:15:00 AM 19.28 66.704 0.414 7.76 10.95 7.8
5/23/2021 10:30:00 AM 19.41 66.938 0.413 7.77 10.5 7.86
5/23/2021 10:45:00 AM 19.55 67.19 0.413 7.78 11.58 7.91
5/23/2021 11:00:00 AM 19.7 67.46 0.413 7.78 7.2 7.97
5/23/2021 11:15:00 AM 19.87 67.766 0.413 7.79 10.21 8.02
5/23/2021 11:30:00 AM 20.08 68.144 0.414 7.8 11.47 8.08
5/23/2021 11:45:00 AM 20.28 68.504 0.413 7.81 10.96 8.17
5/23/2021 12:00:00 PM 20.53 68.954 0.413 7.82 9.83 8.24
5/23/2021 12:15:00 PM 20.71 69.278 0.413 7.82 8.26 8.28
5/23/2021 12:30:00 PM 21 69.8 0.413 7.83 18.75 8.34
5/23/2021 12:45:00 PM 21.26 70.268 0.412 7.84 29.98 8.41
5/23/2021 1:00:00 PM 21.48 70.664 0.412 7.85 14.21 8.45
5/23/2021 1:15:00 PM 21.77 71.186 0.412 7.86 8.31 8.54
5/23/2021 1:30:00 PM 22 71.6 0.412 7.86 11.37 8.57
5/23/2021 1:45:00 PM 22.08 71.744 0.412 7.86 11.01 8.56
5/23/2021 2:00:00 PM 22.12 71.816 0.412 7.86 11.51 8.51
5/23/2021 2:15:00 PM 22.15 71.87 0.411 7.87 9.33 8.48
5/23/2021 2:30:00 PM 22.25 72.05 0.411 7.87 15.64 8.47
5/23/2021 2:45:00 PM 22.29 72.122 0.411 7.87 15.93 8.46
5/23/2021 3:00:00 PM 22.4 72.32 0.411 7.88 10.99 8.48
5/23/2021 3:15:00 PM 22.49 72.482 0.411 7.88 12.91 8.46
5/23/2021 3:30:00 PM 22.54 72.57201 0.41 7.88 8.6 8.45
5/23/2021 3:45:00 PM 22.61 72.698 0.41 7.89 8.27 8.46
5/23/2021 4:00:00 PM 22.61 72.698 0.41 7.88 14.63 8.41
5/23/2021 4:15:00 PM 22.64 72.752 0.41 7.88 10.43 8.37
5/23/2021 4:30:00 PM 22.62 72.716 0.409 7.87 11.62 8.31
5/23/2021 4:45:00 PM 22.53 72.554 0.41 7.87 9.8 8.21
5/23/2021 5:00:00 PM 22.5 72.5 0.41 7.86 13.12 8.17
5/23/2021 5:15:00 PM 22.46 72.42799 0.41 7.86 24.73 8.11
5/23/2021 5:30:00 PM 22.41 72.338 0.41 7.85 13.5 8.04
5/23/2021 5:45:00 PM 22.35 72.23 0.411 7.84 8.74 7.94
5/23/2021 6:00:00 PM 22.3 72.14 0.41 7.84 13.13 7.89
5/23/2021 6:15:00 PM 22.25 72.05 0.411 7.83 10.71 7.8
5/23/2021 6:30:00 PM 22.21 71.978 0.411 7.82 6.99 7.73
5/23/2021 6:45:00 PM 22.15 71.87 0.411 7.82 8.23 7.67
5/23/2021 7:00:00 PM 22.11 71.798 0.411 7.81 12.05 7.59
5/23/2021 7:15:00 PM 22.06 71.708 0.411 7.8 8.95 7.52
5/23/2021 7:30:00 PM 22.02 71.636 0.411 7.79 8.79 7.45
5/23/2021 7:45:00 PM 21.99 71.582 0.411 7.79 12.03 7.37
5/23/2021 8:00:00 PM 21.96 71.528 0.412 7.78 8.53 7.31
5/23/2021 8:15:00 PM 21.93 71.474 0.412 7.77 10.24 7.26
5/23/2021 8:30:00 PM 21.91 71.438 0.412 7.77 7.13 7.18
5/23/2021 8:45:00 PM 21.89 71.402 0.412 7.76 7.89 7.12
5/23/2021 9:00:00 PM 21.86 71.348 0.412 7.75 12.13 7.06
5/23/2021 9:15:00 PM 21.83 71.294 0.412 7.75 10.53 7.01
5/23/2021 9:30:00 PM 21.81 71.258 0.412 7.74 9.08 6.97
5/23/2021 9:45:00 PM 21.78 71.204 0.412 7.74 9.36 6.92
5/23/2021 10:00:00 PM 21.76 71.168 0.412 7.74 8.85 6.9
5/23/2021 10:15:00 PM 21.72 71.096 0.412 7.74 10.95 6.87
5/23/2021 10:30:00 PM 21.69 71.042 0.412 7.73 11.68 6.81
5/23/2021 10:45:00 PM 21.65 70.97 0.412 7.73 10.64 6.81
5/23/2021 11:00:00 PM 21.61 70.898 0.412 7.72 10.76 6.77
5/23/2021 11:15:00 PM 21.58 70.844 0.413 7.72 11.55 6.76
5/23/2021 11:30:00 PM 21.54 70.772 0.413 7.72 10.3 6.76
5/23/2021 11:45:00 PM 21.5 70.7 0.413 7.72 9.07 6.75
5/24/2021 12:00:00 AM 21.45 70.61 0.413 7.72 10.76 6.73
5/24/2021 12:15:00 AM 21.4 70.52 0.414 7.72 11.39 6.73
5/24/2021 12:30:00 AM 21.34 70.412 0.414 7.71 9.68 6.71
5/24/2021 12:45:00 AM 21.29 70.32201 0.415 7.71 11.27 6.69
5/24/2021 1:00:00 AM 21.23 70.214 0.414 7.71 11.9 6.67
5/24/2021 1:15:00 AM 21.18 70.124 0.415 7.71 10.34 6.67
5/24/2021 1:30:00 AM 21.11 69.998 0.415 7.71 12.22 6.67
5/24/2021 1:45:00 AM 21.05 69.89 0.415 7.71 12.25 6.67
5/24/2021 2:00:00 AM 20.97 69.746 0.415 7.71 11.06 6.67
5/24/2021 2:15:00 AM 20.89 69.602 0.415 7.71 10.69 6.68
5/24/2021 2:30:00 AM 20.8 69.44 0.415 7.71 10.69 6.68
5/24/2021 2:45:00 AM 20.72 69.296 0.415 7.7 11.45 6.67
5/24/2021 3:00:00 AM 20.65 69.17 0.415 7.7 11.84 6.66
5/24/2021 3:15:00 AM 20.58 69.044 0.415 7.7 11.54 6.68
5/24/2021 3:30:00 AM 20.51 68.918 0.415 7.7 9.89 6.69
5/24/2021 3:45:00 AM 20.44 68.792 0.415 7.7 8.88 6.7
5/24/2021 4:00:00 AM 20.38 68.684 0.415 7.7 11.8 6.7
5/24/2021 4:15:00 AM 20.31 68.558 0.415 7.7 9.64 6.71
5/24/2021 4:30:00 AM 20.25 68.45 0.416 7.7 11.33 6.71
5/24/2021 4:45:00 AM 20.19 68.342 0.416 7.7 10.24 6.72
5/24/2021 5:00:00 AM 20.13 68.234 0.416 7.7 8.94 6.73
5/24/2021 5:15:00 AM 20.07 68.126 0.416 7.7 12.07 6.73
5/24/2021 5:30:00 AM 20 68 0.416 7.7 7.47 6.74
5/24/2021 5:45:00 AM 19.94 67.892 0.416 7.7 7.96 6.74
5/24/2021 6:00:00 AM 19.87 67.766 0.417 7.7 11.98 6.75
5/24/2021 6:15:00 AM 19.82 67.676 0.416 7.7 11.43 6.77
5/24/2021 6:30:00 AM 19.75 67.55 0.416 7.7 11.04 6.78
5/24/2021 6:45:00 AM 19.7 67.46 0.416 7.7 10.93 6.83
5/24/2021 7:00:00 AM 19.63 67.334 0.416 7.7 11.49 6.86
5/24/2021 7:15:00 AM 19.57 67.226 0.417 7.7 10.77 6.89
5/24/2021 7:30:00 AM 19.51 67.118 0.417 7.71 10.19 6.92
5/24/2021 7:45:00 AM 19.45 67.01 0.417 7.71 9.82 6.95
5/24/2021 8:00:00 AM 19.39 66.902 0.417 7.71 10.53 6.96
5/24/2021 8:15:00 AM 19.32 66.776 0.417 7.71 11.4 7.01
5/24/2021 8:30:00 AM 19.24 66.632 0.417 7.71 10.31 7.02
5/24/2021 8:45:00 AM 19.18 66.524 0.417 7.71 10.13 7.05
5/24/2021 9:00:00 AM 19.12 66.416 0.417 7.72 10.01 7.09
5/24/2021 9:15:00 AM 19.06 66.308 0.417 7.72 10.22 7.12
5/24/2021 9:30:00 AM 19.02 66.236 0.417 7.72 10.35 7.17
5/24/2021 9:45:00 AM 18.96 66.128 0.417 7.72 12.17 7.2
5/24/2021 10:00:00 AM 18.91 66.038 0.417 7.73 12.12 7.22
5/24/2021 10:15:00 AM 18.86 65.948 0.417 7.73 7.67 7.26
5/24/2021 10:30:00 AM 18.81 65.858 0.418 7.73 11.36 7.29
5/24/2021 10:45:00 AM 18.76 65.768 0.417 7.73 9.84 7.3
5/24/2021 11:00:00 AM 18.73 65.714 0.416 7.74 9.4 7.36
5/24/2021 11:15:00 AM 18.7 65.66 0.417 7.74 6.54 7.39
5/24/2021 11:30:00 AM 18.69 65.642 0.417 7.74 10.31 7.44
5/24/2021 11:45:00 AM 18.65 65.57 0.417 7.74 10.61 7.45
5/24/2021 12:00:00 PM 18.63 65.534 0.417 7.75 10.16 7.5
5/24/2021 12:15:00 PM 18.6 65.48 0.416 7.75 10.98 7.54
5/24/2021 12:30:00 PM 18.57 65.426 0.416 7.75 10.13 7.58
5/24/2021 12:45:00 PM 18.54 65.372 0.416 7.75 10.61 7.58
5/24/2021 1:00:00 PM 18.51 65.318 0.415 7.75 9.75 7.59
5/24/2021 1:15:00 PM 18.47 65.246 0.415 7.75 11.1 7.6
5/24/2021 1:30:00 PM 18.45 65.21 0.414 7.75 9.69 7.64
5/24/2021 1:45:00 PM 18.42 65.156 0.414 7.75 9.78 7.65
5/24/2021 2:00:00 PM 18.38 65.084 0.414 7.75 9.54 7.63
5/24/2021 2:15:00 PM 18.33 64.994 0.414 7.75 10.52 7.64
5/24/2021 2:30:00 PM 18.28 64.904 0.414 7.75 10.04 7.63
5/24/2021 2:45:00 PM 18.23 64.814 0.413 7.74 9.58 7.64
5/24/2021 3:00:00 PM 18.16 64.688 0.411 7.74 10.52 7.66
5/24/2021 3:15:00 PM 18.11 64.598 0.41 7.74 11.12 7.67
5/24/2021 3:30:00 PM 18.07 64.526 0.41 7.74 12.2 7.67
5/24/2021 3:45:00 PM 18.04 64.472 0.409 7.74 8.55 7.68
5/24/2021 4:00:00 PM 18.01 64.418 0.408 7.74 10.12 7.74
5/24/2021 4:15:00 PM 17.99 64.382 0.408 7.75 10.42 7.78
5/24/2021 4:30:00 PM 17.96 64.328 0.408 7.75 10.69 7.79
5/24/2021 4:45:00 PM 17.93 64.274 0.408 7.75 10.38 7.8
5/24/2021 5:00:00 PM 17.91 64.238 0.408 7.75 10.23 7.82
5/24/2021 5:15:00 PM 17.91 64.238 0.408 7.75 9.58 7.86
5/24/2021 5:30:00 PM 17.9 64.22 0.408 7.75 10.22 7.86
5/24/2021 5:45:00 PM 17.89 64.202 0.408 7.75 10.17 7.9
5/24/2021 6:00:00 PM 17.9 64.22 0.408 7.76 10.81 7.94
5/24/2021 6:15:00 PM 17.88 64.184 0.407 7.76 10.14 7.97
5/24/2021 6:30:00 PM 17.86 64.148 0.407 7.76 10.01 7.96
5/24/2021 6:45:00 PM 17.82 64.076 0.406 7.76 9.91 7.93
5/24/2021 7:00:00 PM 17.78 64.004 0.406 7.76 10.68 7.91
5/24/2021 7:15:00 PM 17.73 63.914 0.406 7.76 10 7.86
5/24/2021 7:30:00 PM 17.68 63.824 0.405 7.75 11.24 7.82
5/24/2021 7:45:00 PM 17.63 63.734 0.404 7.75 9.23 7.79
5/24/2021 8:00:00 PM 17.58 63.644 0.402 7.74 9.49 7.77
5/24/2021 8:15:00 PM 17.53 63.554 0.403 7.74 11.22 7.73
5/24/2021 8:30:00 PM 17.48 63.464 0.403 7.74 10.8 7.7
5/24/2021 8:45:00 PM 17.43 63.374 0.402 7.73 11.1 7.68
5/24/2021 9:00:00 PM 17.39 63.302 0.402 7.73 11.99 7.66
5/24/2021 9:15:00 PM 17.35 63.23 0.401 7.73 10.95 7.65
5/24/2021 9:30:00 PM 17.31 63.158 0.401 7.73 7.9 7.66
5/24/2021 9:45:00 PM 17.28 63.104 0.4 7.73 8.08 7.67
5/24/2021 10:00:00 PM 17.25 63.05 0.4 7.73 7.82 7.68
5/24/2021 10:15:00 PM 17.22 62.996 0.399 7.74 10.83 7.69
5/24/2021 10:30:00 PM 17.19 62.942 0.399 7.74 8.72 7.71
5/24/2021 10:45:00 PM 17.16 62.888 0.398 7.74 10.58 7.72
5/24/2021 11:00:00 PM 17.13 62.834 0.398 7.74 10.83 7.72
5/24/2021 11:15:00 PM 17.1 62.78 0.398 7.74 8.61 7.75
5/24/2021 11:30:00 PM 17.07 62.726 0.398 7.74 12.19 7.76
5/24/2021 11:45:00 PM 17.04 62.672 0.398 7.74 7.37 7.75
5/25/2021 12:00:00 AM 17.01 62.618 0.397 7.74 11.29 7.77
5/25/2021 12:15:00 AM 16.98 62.564 0.397 7.74 16.46 7.77
5/25/2021 12:30:00 AM 16.95 62.51 0.397 7.74 10.6 7.77
5/25/2021 12:45:00 AM 16.92 62.456 0.396 7.74 10.8 7.78
5/25/2021 1:00:00 AM 16.88 62.384 0.396 7.74 8.05 7.79
5/25/2021 1:15:00 AM 16.85 62.33 0.398 7.74 10.61 7.79
5/25/2021 1:30:00 AM 16.82 62.276 0.396 7.74 10.01 7.79
5/25/2021 1:45:00 AM 16.78 62.204 0.396 7.74 7.65 7.8
5/25/2021 2:00:00 AM 16.74 62.132 0.395 7.74 10.61 7.81
5/25/2021 2:15:00 AM 16.7 62.06 0.395 7.74 8.51 7.82
5/25/2021 2:30:00 AM 16.66 61.988 0.394 7.74 7.74 7.83
5/25/2021 2:45:00 AM 16.63 61.934 0.396 7.74 13.01 7.83
5/25/2021 3:00:00 AM 16.59 61.862 0.398 7.74 11.26 7.84
5/25/2021 3:15:00 AM 16.56 61.808 0.396 7.74 9.37 7.86
5/25/2021 3:30:00 AM 16.52 61.736 0.398 7.74 10.12 7.87
5/25/2021 3:45:00 AM 16.49 61.682 0.395 7.74 12.15 7.89
5/25/2021 4:00:00 AM 16.46 61.628 0.396 7.74 9.52 7.89
5/25/2021 4:15:00 AM 16.42 61.556 0.395 7.74 11.45 7.9
5/25/2021 4:30:00 AM 16.39 61.502 0.395 7.74 12.46 7.91
5/25/2021 4:45:00 AM 16.36 61.448 0.396 7.74 10.18 7.91
5/25/2021 5:00:00 AM 16.33 61.394 0.396 7.75 19.43 7.93
5/25/2021 5:15:00 AM 16.3 61.34 0.396 7.74 17.27 7.93
5/25/2021 5:30:00 AM 16.27 61.286 0.396 7.75 45.84 7.95
5/25/2021 5:45:00 AM 16.24 61.232 0.395 7.74 18.5 7.96
5/25/2021 6:00:00 AM 16.21 61.178 0.398 7.74 17.3 7.96
5/25/2021 6:15:00 AM 16.19 61.142 0.395 7.74 16.76 7.97
5/25/2021 6:30:00 AM 16.17 61.106 0.398 7.74 16.36 7.98
5/25/2021 6:45:00 AM 16.15 61.07 0.398 7.75 16.54 8
5/25/2021 7:00:00 AM 16.13 61.034 0.397 7.75 17.87 8.01
5/25/2021 7:15:00 AM 16.12 61.016 0.397 7.75 16.35 8.04
5/25/2021 7:30:00 AM 16.12 61.016 0.396 7.75 8.87 8.07
5/25/2021 7:45:00 AM 16.12 61.016 0.397 7.75 9.49 8.13
5/25/2021 8:00:00 AM 16.12 61.016 0.397 7.76 8.96 8.17
5/25/2021 8:15:00 AM 16.12 61.016 0.396 7.76 7.35 8.23
5/25/2021 8:30:00 AM 16.13 61.034 0.397 7.77 13.69 8.27
5/25/2021 8:45:00 AM 16.14 61.052 0.396 7.77 7.26 8.33
5/25/2021 9:00:00 AM 16.15 61.07 0.396 7.78 6.96 8.38
5/25/2021 9:15:00 AM 16.16 61.088 0.397 7.78 10.22 8.42
5/25/2021 9:30:00 AM 16.17 61.106 0.397 7.78 11.86 8.46
5/25/2021 9:45:00 AM 16.18 61.124 0.397 7.79 11.08 8.51
5/25/2021 10:00:00 AM 16.2 61.16 0.398 7.79 11.99 8.56
5/25/2021 10:15:00 AM 16.22 61.196 0.396 7.8 14.85 8.61
5/25/2021 10:30:00 AM 16.25 61.25 0.397 7.81 11.08 8.67
5/25/2021 10:45:00 AM 16.29 61.322 0.398 7.81 11.48 8.73
5/25/2021 11:00:00 AM 16.34 61.412 0.398 7.82 11.1 8.79
5/25/2021 11:15:00 AM 16.41 61.538 0.398 7.83 11.57 8.86
5/25/2021 11:30:00 AM 16.49 61.682 0.398 7.83 11.18 8.94
5/25/2021 11:45:00 AM 16.55 61.79 0.396 7.84 10.82 8.99
5/25/2021 12:00:00 PM 16.63 61.934 0.398 7.85 10.52 9.04
5/25/2021 12:15:00 PM 16.72 62.096 0.397 7.86 10.17 9.11
5/25/2021 12:30:00 PM 16.77 62.186 0.398 7.86 10.67 9.13
5/25/2021 12:45:00 PM 16.84 62.312 0.398 7.87 10.53 9.18
5/25/2021 1:00:00 PM 16.94 62.492 0.397 7.87 10.82 9.26
5/25/2021 1:15:00 PM 17.05 62.69 0.397 7.88 11.04 9.31
5/25/2021 1:30:00 PM 17.15 62.87 0.398 7.89 9.58 9.36
5/25/2021 1:45:00 PM 17.26 63.068 0.398 7.9 11.07 9.39
5/25/2021 2:00:00 PM 17.39 63.302 0.397 7.9 11.03 9.43
5/25/2021 2:15:00 PM 17.48 63.464 0.397 7.91 7.08 9.45
5/25/2021 2:30:00 PM 17.64 63.752 0.398 7.92 10.26 9.48
5/25/2021 2:45:00 PM 17.76 63.968 0.398 7.92 11.19 9.51
5/25/2021 3:00:00 PM 17.98 64.364 0.397 7.92 10.11 9.51
5/25/2021 3:15:00 PM 18.15 64.67 0.397 7.93 10.59 9.5
5/25/2021 3:30:00 PM 18.31 64.958 0.397 7.93 10.41 9.5
5/25/2021 3:45:00 PM 18.41 65.138 0.397 7.93 10.03 9.48
5/25/2021 4:00:00 PM 18.53 65.354 0.397 7.93 10.62 9.45
5/25/2021 4:15:00 PM 18.56 65.408 0.396 7.93 9.46 9.4
5/25/2021 4:30:00 PM 18.58 65.444 0.397 7.92 9.71 9.35
5/25/2021 4:45:00 PM 18.59 65.462 0.397 7.92 9.26 9.3
5/25/2021 5:00:00 PM 18.57 65.426 0.397 7.92 9.26 9.24
5/25/2021 5:15:00 PM 18.53 65.354 0.397 7.91 5.95 9.18
5/25/2021 5:30:00 PM 18.47 65.246 0.398 7.9 11.32 9.1
5/25/2021 5:45:00 PM 18.43 65.174 0.397 7.9 10.08 9.05
5/25/2021 6:00:00 PM 18.36 65.048 0.398 7.89 9.43 8.97
5/25/2021 6:15:00 PM 18.31 64.958 0.397 7.88 9.68 8.91
5/25/2021 6:30:00 PM 18.26 64.868 0.398 7.88 9.98 8.85
5/25/2021 6:45:00 PM 18.21 64.778 0.398 7.87 8.7 8.8
5/25/2021 7:00:00 PM 18.17 64.706 0.397 7.86 10.17 8.73
5/25/2021 7:15:00 PM 18.15 64.67 0.398 7.85 10.12 8.66
5/25/2021 7:30:00 PM 18.13 64.634 0.398 7.85 9.65 8.61
5/25/2021 7:45:00 PM 18.11 64.598 0.398 7.84 7.95 8.54
5/25/2021 8:00:00 PM 18.11 64.598 0.396 7.83 9.9 8.48
5/25/2021 8:15:00 PM 18.11 64.598 0.397 7.83 6.27 8.41
5/25/2021 8:30:00 PM 18.1 64.58 0.397 7.82 9.24 8.34
5/25/2021 8:45:00 PM 18.1 64.58 0.398 7.82 11.82 8.29
5/25/2021 9:00:00 PM 18.1 64.58 0.397 7.81 10.04 8.22
5/25/2021 9:15:00 PM 18.1 64.58 0.397 7.8 10.28 8.16
5/25/2021 9:30:00 PM 18.1 64.58 0.4 7.8 10.19 8.12
5/25/2021 9:45:00 PM 18.1 64.58 0.4 7.79 11.6 8.08
5/25/2021 10:00:00 PM 18.09 64.562 0.399 7.79 11.32 8.05
5/25/2021 10:15:00 PM 18.08 64.544 0.399 7.79 10.61 8.02
5/25/2021 10:30:00 PM 18.07 64.526 0.399 7.79 10.16 7.98
5/25/2021 10:45:00 PM 18.05 64.49 0.399 7.78 10.55 7.95
5/25/2021 11:00:00 PM 18.03 64.454 0.4 7.78 10.99 7.93
5/25/2021 11:15:00 PM 18.01 64.418 0.4 7.78 7.62 7.9
5/25/2021 11:30:00 PM 17.99 64.382 0.4 7.78 6.07 7.88
5/25/2021 11:45:00 PM 17.97 64.346 0.401 7.77 8.6 7.87
5/26/2021 12:00:00 AM 17.94 64.292 0.402 7.77 10.56 7.84
5/26/2021 12:15:00 AM 17.91 64.238 0.401 7.77 11.15 7.81
5/26/2021 12:30:00 AM 17.88 64.184 0.401 7.76 11.56 7.8
5/26/2021 12:45:00 AM 17.84 64.112 0.401 7.76 12.31 7.8
5/26/2021 1:00:00 AM 17.81 64.058 0.401 7.76 9.9 7.79
5/26/2021 1:15:00 AM 17.77 63.986 0.401 7.76 6.92 7.77
5/26/2021 1:30:00 AM 17.73 63.914 0.402 7.75 11.03 7.76
5/26/2021 1:45:00 AM 17.68 63.824 0.401 7.75 10.27 7.74
5/26/2021 2:00:00 AM 17.63 63.734 0.402 7.75 11.26 7.74
5/26/2021 2:15:00 AM 17.59 63.662 0.402 7.75 11.05 7.72
5/26/2021 2:30:00 AM 17.54 63.572 0.403 7.74 7.32 7.72
5/26/2021 2:45:00 AM 17.5 63.5 0.402 7.74 11.96 7.72
5/26/2021 3:00:00 AM 17.45 63.41 0.402 7.74 13.8 7.71
5/26/2021 3:15:00 AM 17.41 63.338 0.401 7.73 8.17 7.68
5/26/2021 3:30:00 AM 17.37 63.266 0.402 7.74 8.53 7.67
5/26/2021 3:45:00 AM 17.33 63.194 0.403 7.73 9.39 7.67
5/26/2021 4:00:00 AM 17.29 63.122 0.402 7.73 9.22 7.67
5/26/2021 4:15:00 AM 17.26 63.068 0.403 7.73 12.08 7.69
5/26/2021 4:30:00 AM 17.22 62.996 0.403 7.73 7.92 7.67
5/26/2021 4:45:00 AM 17.19 62.942 0.404 7.73 10.27 7.66
5/26/2021 5:00:00 AM 17.16 62.888 0.403 7.73 7.27 7.68
5/26/2021 5:15:00 AM 17.14 62.852 0.404 7.73 11.39 7.65
5/26/2021 5:30:00 AM 17.12 62.816 0.404 7.73 8.78 7.67
5/26/2021 5:45:00 AM 17.09 62.762 0.403 7.73 13.82 7.67
5/26/2021 6:00:00 AM 17.08 62.744 0.404 7.73 7.66 7.67
5/26/2021 6:15:00 AM 17.06 62.708 0.404 7.72 6.7 7.68
5/26/2021 6:30:00 AM 17.05 62.69 0.405 7.72 8.94 7.68
5/26/2021 6:45:00 AM 17.05 62.69 0.404 7.72 11.59 7.71
5/26/2021 7:00:00 AM 17.05 62.69 0.404 7.73 10.46 7.73
5/26/2021 7:15:00 AM 17.06 62.708 0.404 7.73 10 7.73
5/26/2021 7:30:00 AM 17.09 62.762 0.405 7.73 10.33 7.79
5/26/2021 7:45:00 AM 17.12 62.816 0.405 7.73 8.74 7.81
5/26/2021 8:00:00 AM 17.15 62.87 0.405 7.74 11.31 7.88
5/26/2021 8:15:00 AM 17.19 62.942 0.405 7.74 11.74 7.91
5/26/2021 8:30:00 AM 17.23 63.014 0.406 7.75 10.75 7.94
5/26/2021 8:45:00 AM 17.26 63.068 0.406 7.75 9.37 7.99
5/26/2021 9:00:00 AM 17.3 63.14 0.406 7.75 10.52 8.02
5/26/2021 9:15:00 AM 17.34 63.212 0.405 7.76 6.23 8.06
5/26/2021 9:30:00 AM 17.39 63.302 0.406 7.76 11.53 8.13
5/26/2021 9:45:00 AM 17.47 63.446 0.405 7.77 7.72 8.22
5/26/2021 10:00:00 AM 17.56 63.608 0.405 7.78 11.75 8.3
5/26/2021 10:15:00 AM 17.69 63.842 0.405 7.78 15.46 8.33
5/26/2021 10:30:00 AM 17.84 64.112 0.404 7.79 12.62 8.41
5/26/2021 10:45:00 AM 17.99 64.382 0.405 7.8 27.32 8.42
5/26/2021 11:00:00 AM 18.15 64.67 0.405 7.81 11.6 8.48
5/26/2021 11:15:00 AM 18.33 64.994 0.405 7.82 9.88 8.55
5/26/2021 11:30:00 AM 18.53 65.354 0.405 7.82 9.59 8.59
5/26/2021 11:45:00 AM 18.74 65.732 0.406 7.83 7.57 8.65
5/26/2021 12:00:00 PM 18.97 66.146 0.405 7.84 12.46 8.71
5/26/2021 12:15:00 PM 19.22 66.596 0.405 7.85 9.13 8.77
5/26/2021 12:30:00 PM 19.49 67.082 0.405 7.86 7.54 8.85
5/26/2021 12:45:00 PM 19.76 67.568 0.405 7.87 11.21 8.91
5/26/2021 1:00:00 PM 20.01 68.018 0.405 7.88 12.07 8.92
5/26/2021 1:15:00 PM 20.27 68.486 0.404 7.89 8.07 8.97
5/26/2021 1:30:00 PM 20.42 68.756 0.405 7.89 9.56 8.96
5/26/2021 1:45:00 PM 20.66 69.188 0.404 7.9 10.8 8.98
5/26/2021 2:00:00 PM 20.75 69.35 0.405 7.9 7.53 8.98
5/26/2021 2:15:00 PM 20.96 69.728 0.405 7.9 11.46 8.99
5/26/2021 2:30:00 PM 21.07 69.926 0.405 7.9 8.1 8.99
5/26/2021 2:45:00 PM 21.2 70.16 0.404 7.91 6.4 8.99
5/26/2021 3:00:00 PM 21.25 70.25 0.404 7.91 10.68 8.95
5/26/2021 3:15:00 PM 21.35 70.43 0.404 7.91 7.35 8.94
5/26/2021 3:30:00 PM 21.36 70.448 0.404 7.91 11.56 8.91
5/26/2021 3:45:00 PM 21.44 70.592 0.404 7.92 11.19 8.89
5/26/2021 4:00:00 PM 21.38 70.484 0.403 7.91 6.05 8.85
5/26/2021 4:15:00 PM 21.23 70.214 0.404 7.9 10.7 8.66
5/26/2021 4:30:00 PM 21.08 69.944 0.4 7.9 10.44 8.57
5/26/2021 4:45:00 PM 20.96 69.728 0.4 7.88 6.48 8.43
5/26/2021 5:00:00 PM 20.83 69.494 0.399 7.86 9.76 8.31
5/26/2021 5:15:00 PM 20.72 69.296 0.399 7.85 10.29 8.18
5/26/2021 5:30:00 PM 20.67 69.206 0.399 7.85 8.83 8.15
5/26/2021 5:45:00 PM 20.65 69.17 0.4 7.84 6.98 8.1
5/26/2021 6:00:00 PM 20.59 69.062 0.401 7.84 11.53 8.07
5/26/2021 6:15:00 PM 20.56 69.008 0.401 7.83 9.11 7.99
5/26/2021 6:30:00 PM 20.56 69.008 0.401 7.82 9.62 7.93
5/26/2021 6:45:00 PM 20.56 69.008 0.401 7.81 10.67 7.85
5/26/2021 7:00:00 PM 20.54 68.972 0.401 7.8 7.07 7.75
5/26/2021 7:15:00 PM 20.53 68.954 0.402 7.79 11.81 7.68
5/26/2021 7:30:00 PM 20.55 68.99 0.402 7.79 10.73 7.64
5/26/2021 7:45:00 PM 20.58 69.044 0.401 7.79 10.65 7.61
5/26/2021 8:00:00 PM 20.62 69.116 0.402 7.78 11.19 7.57
5/26/2021 8:15:00 PM 20.65 69.17 0.402 7.78 10.23 7.52
5/26/2021 8:30:00 PM 20.66 69.188 0.401 7.78 11.1 7.44
5/26/2021 8:45:00 PM 20.67 69.206 0.402 7.77 7.26 7.36
5/26/2021 9:00:00 PM 20.67 69.206 0.4 7.77 9.91 7.28
5/26/2021 9:15:00 PM 20.65 69.17 0.4 7.76 8.58 7.23
5/26/2021 9:30:00 PM 20.62 69.116 0.395 7.77 10.47 7.26
5/26/2021 9:45:00 PM 20.48 68.864 0.379 7.79 26.91 7.51
5/26/2021 10:00:00 PM 20.44 68.792 0.373 7.78 23.37 7.46
5/26/2021 10:15:00 PM 20.4 68.72 0.371 7.77 28.68 7.38
5/26/2021 10:30:00 PM 20.36 68.648 0.372 7.75 28.34 7.29
5/26/2021 10:45:00 PM 20.33 68.594 0.375 7.74 24.52 7.18
5/26/2021 11:00:00 PM 20.3 68.54 0.378 7.73 22.57 7.1
5/26/2021 11:15:00 PM 20.27 68.486 0.379 7.72 33.72 7.02
5/26/2021 11:30:00 PM 20.23 68.414 0.379 7.71 15.15 6.96
5/26/2021 11:45:00 PM 20.19 68.342 0.381 7.7 32.97 6.9
5/27/2021 12:00:00 AM 20.15 68.27 0.383 7.7 17.27 6.87
5/27/2021 12:15:00 AM 20.13 68.234 0.385 7.69 16.38 6.85
5/27/2021 12:30:00 AM 20.12 68.216 0.384 7.69 17.45 6.85
5/27/2021 12:45:00 AM 20.11 68.198 0.384 7.69 16.91 6.85
5/27/2021 1:00:00 AM 20.09 68.162 0.383 7.69 75.06 6.85
5/27/2021 1:15:00 AM 20.06 68.108 0.383 7.69 18.14 6.85
5/27/2021 1:30:00 AM 20.02 68.036 0.38 7.69 21.46 6.84
5/27/2021 1:45:00 AM 19.98 67.964 0.377 7.69 20.58 6.85
5/27/2021 2:00:00 AM 19.95 67.91 0.372 7.68 37.64 6.83
5/27/2021 2:15:00 AM 19.93 67.874 0.375 7.68 30.45 6.83
5/27/2021 2:30:00 AM 19.91 67.838 0.367 7.68 23.56 6.83
5/27/2021 2:45:00 AM 19.88 67.784 0.366 7.68 25.68 6.83
5/27/2021 3:00:00 AM 19.85 67.73 0.366 7.68 20.55 6.83
5/27/2021 3:15:00 AM 19.81 67.658 0.366 7.69 23.99 6.85
5/27/2021 3:30:00 AM 19.75 67.55 0.366 7.68 20.77 6.87
5/27/2021 3:45:00 AM 19.7 67.46 0.366 7.68 23.85 6.86
5/27/2021 4:00:00 AM 19.64 67.352 0.366 7.68 23.21 6.87
5/27/2021 4:15:00 AM 19.57 67.226 0.366 7.67 24.29 6.88
5/27/2021 4:30:00 AM 19.5 67.1 0.368 7.67 40.19 6.88
5/27/2021 4:45:00 AM 19.42 66.956 0.369 7.67 264.91 6.87
5/27/2021 5:00:00 AM 19.34 66.812 0.368 7.67 20.02 6.86
5/27/2021 5:15:00 AM 19.26 66.668 0.373 7.67 26.12 6.85
5/27/2021 5:30:00 AM 19.18 66.524 0.371 7.66 65.52 6.86
5/27/2021 5:45:00 AM 19.11 66.398 0.371 7.65 39.75 6.85
5/27/2021 6:00:00 AM 19.04 66.272 0.373 7.64 57.27 6.88
5/27/2021 6:15:00 AM 18.97 66.146 0.37 7.66 27.63 6.88
5/27/2021 6:30:00 AM 18.92 66.056 0.372 7.66 23.28 6.89
5/27/2021 6:45:00 AM 18.87 65.966 0.374 7.66 22.27 6.91
5/27/2021 7:00:00 AM 18.84 65.912 0.373 7.66 49.11 6.94
5/27/2021 7:15:00 AM 18.81 65.858 0.375 7.66 81.17 6.95
5/27/2021 7:30:00 AM 18.8 65.84 0.374 7.66 17.62 6.99
5/27/2021 7:45:00 AM 18.8 65.84 0.375 7.66 20.34 7.01
5/27/2021 8:00:00 AM 18.81 65.858 0.377 7.66 19.79 7.05
5/27/2021 8:15:00 AM 18.82 65.876 0.377 7.67 16.91 7.09
5/27/2021 8:30:00 AM 18.85 65.93 0.378 7.67 19.29 7.13
5/27/2021 8:45:00 AM 18.89 66.002 0.378 7.68 23.16 7.16
5/27/2021 9:00:00 AM 18.92 66.056 0.38 7.68 22.14 7.19
5/27/2021 9:15:00 AM 18.97 66.146 0.381 7.68 28.81 7.23
5/27/2021 9:30:00 AM 19.03 66.254 0.38 7.69 27.13 7.26
5/27/2021 9:45:00 AM 19.09 66.362 0.382 7.69 40.45 7.3
5/27/2021 10:00:00 AM 19.15 66.47 0.383 7.69 34.03 7.33
5/27/2021 10:15:00 AM 19.2 66.56 0.383 7.7 32.14 7.33
5/27/2021 10:30:00 AM 19.32 66.776 0.384 7.7 33.91 7.4
5/27/2021 10:45:00 AM 19.42 66.956 0.384 7.71 33.4 7.44
5/27/2021 11:00:00 AM 19.55 67.19 0.385 7.72 30.84 7.51
5/27/2021 11:15:00 AM 19.64 67.352 0.385 7.72 34.26 7.55
5/27/2021 11:30:00 AM 19.7 67.46 0.385 7.72 29.46 7.61
5/27/2021 11:45:00 AM 19.79 67.622 0.385 7.73 27.42 7.67
5/27/2021 12:00:00 PM 19.83 67.694 0.385 7.74 22.13 7.71
5/27/2021 12:15:00 PM 20 68 0.385 7.75 23.33 7.82
5/27/2021 12:30:00 PM 20.15 68.27 0.386 7.76 18 7.88
5/27/2021 12:45:00 PM 20.36 68.648 0.386 7.77 21.63 7.98
5/27/2021 1:00:00 PM 20.57 69.026 0.385 7.78 22.89 8.05
5/27/2021 1:15:00 PM 20.82 69.476 0.385 7.8 18.15 8.13
5/27/2021 1:30:00 PM 21.08 69.944 0.386 7.81 15.57 8.19
5/27/2021 1:45:00 PM 21.29 70.32201 0.385 7.82 15.8 8.24
5/27/2021 2:00:00 PM 21.47 70.646 0.386 7.83 13.48 8.28
5/27/2021 2:15:00 PM 21.64 70.952 0.386 7.83 12.46 8.29
5/27/2021 2:30:00 PM 21.78 71.204 0.386 7.84 13.44 8.31
5/27/2021 2:45:00 PM 21.89 71.402 0.386 7.84 17.55 8.31
5/27/2021 3:00:00 PM 21.98 71.564 0.387 7.85 12.63 8.3
5/27/2021 3:15:00 PM 22.04 71.672 0.387 7.85 12.25 8.3
5/27/2021 3:30:00 PM 22.09 71.762 0.387 7.85 10.52 8.27
5/27/2021 3:45:00 PM 22.1 71.78 0.387 7.85 13.59 8.25
5/27/2021 4:00:00 PM 22.07 71.726 0.387 7.85 13.19 8.21
5/27/2021 4:15:00 PM 21.98 71.564 0.388 7.85 10.88 8.16
5/27/2021 4:30:00 PM 21.88 71.384 0.388 7.85 13.42 8.13
5/27/2021 4:45:00 PM 21.8 71.24 0.388 7.85 11.38 8.11
5/27/2021 5:00:00 PM 21.74 71.132 0.388 7.85 9.46 8.08
5/27/2021 5:15:00 PM 21.64 70.952 0.389 7.84 10.4 8.01
5/27/2021 5:30:00 PM 21.55 70.79 0.389 7.84 10.64 7.96
5/27/2021 5:45:00 PM 21.48 70.664 0.389 7.83 11.97 7.9
5/27/2021 6:00:00 PM 21.45 70.61 0.367 7.83 25.41 7.88
5/27/2021 6:15:00 PM 21.38 70.484 0.39 7.82 10.44 7.82
5/27/2021 6:30:00 PM 21.34 70.412 0.391 7.82 10.14 7.78
5/27/2021 6:45:00 PM 21.32 70.376 0.391 7.81 10.46 7.74
5/27/2021 7:00:00 PM 21.3 70.34 0.39 7.81 10.4 7.66
5/27/2021 7:15:00 PM 21.28 70.304 0.391 7.8 11.54 7.6
5/27/2021 7:30:00 PM 21.25 70.25 0.392 7.8 8.64 7.55
5/27/2021 7:45:00 PM 21.22 70.196 0.392 7.79 9.17 7.5
5/27/2021 8:00:00 PM 21.2 70.16 0.393 7.79 23.45 7.44
5/27/2021 8:15:00 PM 21.17 70.106 0.393 7.78 12.48 7.39
5/27/2021 8:30:00 PM 21.13 70.034 0.393 7.77 9.72 7.34
5/27/2021 8:45:00 PM 21.08 69.944 0.393 7.77 8.27 7.28
5/27/2021 9:00:00 PM 21.02 69.836 0.394 7.77 7.8 7.25
5/27/2021 9:15:00 PM 20.96 69.728 0.394 7.76 8.31 7.22
5/27/2021 9:30:00 PM 20.9 69.62 0.394 7.76 7.69 7.18
5/27/2021 9:45:00 PM 20.83 69.494 0.395 7.76 9.9 7.16
5/27/2021 10:00:00 PM 20.76 69.368 0.395 7.75 11.18 7.13
5/27/2021 10:15:00 PM 20.7 69.26 0.395 7.75 7.87 7.1
5/27/2021 10:30:00 PM 20.63 69.134 0.396 7.74 10.42 7.09
5/27/2021 10:45:00 PM 20.55 68.99 0.396 7.74 11.47 7.07
5/27/2021 11:00:00 PM 20.48 68.864 0.396 7.74 10.82 7.07
5/27/2021 11:15:00 PM 20.41 68.738 0.397 7.74 11.76 7.07
5/27/2021 11:30:00 PM 20.34 68.612 0.397 7.73 10.64 7.06
5/27/2021 11:45:00 PM 20.27 68.486 0.398 7.73 13.75 7.06
5/28/2021 12:00:00 AM 20.2 68.36 0.398 7.73 9.31 7.06
5/28/2021 12:15:00 AM 20.14 68.252 0.399 7.73 16.31 7.05
5/28/2021 12:30:00 AM 20.06 68.108 0.399 7.73 11.99 7.03
5/28/2021 12:45:00 AM 19.98 67.964 0.399 7.73 11.35 6.98
5/28/2021 1:00:00 AM 19.9 67.82 0.4 7.73 10.25 6.99
5/28/2021 1:15:00 AM 19.82 67.676 0.4 7.73 10.12 7.01
5/28/2021 1:30:00 AM 19.74 67.532 0.401 7.72 10.92 7.02
5/28/2021 1:45:00 AM 19.66 67.388 0.4 7.72 11.94 7.03
5/28/2021 2:00:00 AM 19.58 67.244 0.401 7.72 11.24 7.04
5/28/2021 2:15:00 AM 19.49 67.082 0.401 7.72 18.72 7.04
5/28/2021 2:30:00 AM 19.4 66.92 0.401 7.72 10.82 7.05
5/28/2021 2:45:00 AM 19.32 66.776 0.401 7.72 11 7.05
5/28/2021 3:00:00 AM 19.24 66.632 0.402 7.72 11.84 7.05
5/28/2021 3:15:00 AM 19.16 66.488 0.402 7.72 10.08 7.05
5/28/2021 3:30:00 AM 19.08 66.344 0.402 7.72 9.24 7.06
5/28/2021 3:45:00 AM 19.01 66.218 0.402 7.72 11.21 7.08
5/28/2021 4:00:00 AM 18.94 66.092 0.402 7.72 10.82 7.11
5/28/2021 4:15:00 AM 18.88 65.984 0.403 7.72 10.59 7.11
5/28/2021 4:30:00 AM 18.82 65.876 0.402 7.71 11.22 7.11
5/28/2021 4:45:00 AM 18.75 65.75 0.404 7.71 10.77 7.13
5/28/2021 5:00:00 AM 18.69 65.642 0.402 7.71 12.75 7.13
5/28/2021 5:15:00 AM 18.63 65.534 0.403 7.71 11.56 7.15
5/28/2021 5:30:00 AM 18.57 65.426 0.402 7.71 12.75 7.15
5/28/2021 5:45:00 AM 18.51 65.318 0.403 7.71 12.49 7.15
5/28/2021 6:00:00 AM 18.44 65.192 0.403 7.72 10.39 7.16
5/28/2021 6:15:00 AM 18.39 65.102 0.403 7.71 11.84 7.17
5/28/2021 6:30:00 AM 18.34 65.012 0.403 7.72 9.68 7.22
5/28/2021 6:45:00 AM 18.29 64.922 0.403 7.72 8.46 7.24
5/28/2021 7:00:00 AM 18.25 64.85 0.403 7.72 10.41 7.28
5/28/2021 7:15:00 AM 18.22 64.796 0.404 7.72 9.72 7.27
5/28/2021 7:30:00 AM 18.18 64.724 0.404 7.72 10.82 7.35
5/28/2021 7:45:00 AM 18.15 64.67 0.404 7.73 7.36 7.38
5/28/2021 8:00:00 AM 18.13 64.634 0.404 7.73 8.84 7.46
5/28/2021 8:15:00 AM 18.11 64.598 0.404 7.74 9 7.5
5/28/2021 8:30:00 AM 18.09 64.562 0.404 7.75 9.34 7.57
5/28/2021 8:45:00 AM 18.07 64.526 0.405 7.75 7.42 7.64
5/28/2021 9:00:00 AM 18.05 64.49 0.405 7.76 7.88 7.71
5/28/2021 9:15:00 AM 18.04 64.472 0.405 7.77 7.59 7.8
5/28/2021 9:30:00 AM 18.06 64.508 0.404 7.77 7.14 7.9
5/28/2021 9:45:00 AM 18.1 64.58 0.405 7.78 11.77 7.99
5/28/2021 10:00:00 AM 18.16 64.688 0.405 7.79 9.27 8.07
5/28/2021 10:15:00 AM